Provisional Data: Susquehanna River near Rockville, PA


Please select a monitoring station.
Please select start date.
Please select start date.

Toggle Unit: C/F Toggle Unit: C/F
Sample Time Temperature (C) Temperature (F) Specific Conductivity (mS/cm) pH   Turbidity (NTU+) DO (mg/L)
4/18/2023 12:00:00 AM 19.78 67.604 7.38 17.07 -5
4/18/2023 12:15:00 AM 19.67 67.406 7.38 17.23 -5
4/18/2023 12:30:00 AM 18.78 65.804 7.27 17.23 -5
4/18/2023 12:45:00 AM 19.03 66.254 7.35 16.95 -5
4/18/2023 1:00:00 AM 19.78 67.604 7.41 16.04 -5
4/18/2023 1:15:00 AM 18.91 66.038 7.28 16.12 -5
4/18/2023 1:30:00 AM 19.17 66.506 7.29 15.81 -5
4/18/2023 1:45:00 AM 19.54 67.172 7.31 15.12 -5
4/18/2023 2:00:00 AM 19.54 67.172 7.34 13.16 -5
4/18/2023 2:15:00 AM 18.9 66.02 7.29 12.81 -5
4/18/2023 2:30:00 AM 19.16 66.488 7.38 2.81 -5
4/18/2023 2:45:00 AM 19.54 67.172 7.42 13.58 -5
4/18/2023 3:00:00 AM 19.17 66.506 7.45 2.4 -5
4/18/2023 3:15:00 AM 18.78 65.804 7.44 6.27 -5
4/18/2023 3:30:00 AM 19.16 66.488 7.45 13.85 -5
4/18/2023 3:45:00 AM 19.29 66.722 7.47 2.44 -5
4/18/2023 4:00:00 AM 18.78 65.804 7.48 2.39 -5
4/18/2023 4:15:00 AM 18.52 65.336 7.46 2.42 -5
4/18/2023 4:30:00 AM 18.78 65.804 7.45 2.44 -5
4/18/2023 4:45:00 AM 18.91 66.038 7.45 2.51 -5
4/18/2023 5:00:00 AM 19.03 66.254 7.45 2.7 -5
4/18/2023 5:15:00 AM 18.91 66.038 7.44 2.57 -5
4/18/2023 5:30:00 AM 19.16 66.488 7.45 2.62 -5
4/18/2023 5:45:00 AM 19.29 66.722 7.46 3.58 -5
4/18/2023 6:00:00 AM 19.03 66.254 7.43 3.83 -5
4/18/2023 6:15:00 AM 18.91 66.038 7.44 4.38 -5
4/18/2023 6:30:00 AM 18.77 65.786 7.44 4.62 -5
4/18/2023 6:45:00 AM 18.4 65.12 7.42 4.8 -5
4/18/2023 7:00:00 AM 18.78 65.804 7.43 4.91 -5
4/18/2023 7:15:00 AM 16.28 61.304 7.17 18.4 -5
4/18/2023 7:30:00 AM 16.03 60.854 7.28 17.11 -5
4/18/2023 7:45:00 AM 16.17 61.106 7.36 16.92 -5
4/18/2023 8:00:00 AM 16.17 61.106 7.37 16.84 -5
4/18/2023 8:15:00 AM 16.02 60.836 7.35 16.5 -5
4/18/2023 8:30:00 AM 16.17 61.106 7.4 16.65 -5
4/18/2023 8:45:00 AM 16.02 60.836 7.41 15.78 -5
4/18/2023 9:00:00 AM 15.78 60.404 7.37 15.7 -5
4/18/2023 9:15:00 AM 16.03 60.854 7.37 15.76 -5
4/18/2023 9:30:00 AM 15.91 60.638 7.34 15.93 -5
4/18/2023 9:45:00 AM 15.65 60.17 7.36 15.67 -5
4/18/2023 10:00:00 AM 15.78 60.404 7.37 15.8 -5
4/18/2023 10:15:00 AM 15.65 60.17 7.37 15.51 -5
4/18/2023 10:30:00 AM 16.03 60.854 7.37 15.56 -5
4/18/2023 10:45:00 AM 15.54 59.972 7.37 15.72 -5
4/18/2023 11:00:00 AM 15.65 60.17 7.36 15.68 -5
4/18/2023 11:15:00 AM 15.78 60.404 7.35 15.7 -5
4/18/2023 11:30:00 AM 15.78 60.404 7.35 15.65 -5
4/18/2023 11:45:00 AM 15.41 59.738 7.36 15.74 -5
4/18/2023 12:00:00 PM 15.54 59.972 7.36 15.88 -5
4/18/2023 12:15:00 PM 15.65 60.17 7.36 15.74 -5
4/18/2023 12:30:00 PM 15.78 60.404 7.38 15.73 -5
4/18/2023 12:45:00 PM 15.65 60.17 7.37 15.75 -5
4/18/2023 1:00:00 PM 15.91 60.638 7.39 16.16 -5
4/18/2023 1:15:00 PM 15.65 60.17 7.4 15.77 -5
4/18/2023 1:30:00 PM 15.65 60.17 7.41 15.95 -5
4/18/2023 1:45:00 PM 15.65 60.17 7.42 15.73 -5
4/18/2023 2:00:00 PM 15.78 60.404 7.44 15.78 -5
4/18/2023 2:15:00 PM 15.91 60.638 7.46 16.1 -5
4/18/2023 2:30:00 PM 16.28 61.304 7.48 16.06 -5
4/18/2023 2:45:00 PM 15.91 60.638 7.43 15.88 -5
4/18/2023 3:00:00 PM 16.17 61.106 7.44 15.85 -5
4/18/2023 3:15:00 PM 16.54 61.772 7.45 15.79 -5
4/18/2023 3:30:00 PM 16.28 61.304 7.45 16.02 -5
4/18/2023 3:45:00 PM 16.28 61.304 7.44 15.86 -5
4/18/2023 4:00:00 PM 16.54 61.772 7.44 15.98 -5
4/18/2023 4:15:00 PM 16.78 62.204 7.47 15.72 -5
4/18/2023 4:30:00 PM 16.4 61.52 7.44 15.94 -5
4/18/2023 4:45:00 PM 16.65 61.97 7.42 15.88 -5
4/18/2023 5:00:00 PM 16.78 62.204 7.4 16.07 -5
4/18/2023 5:15:00 PM 16.54 61.772 7.41 15.9 -5
4/18/2023 5:30:00 PM 16.92 62.456 7.42 16 -5
4/18/2023 5:45:00 PM 16.92 62.456 7.4 16.02 -5
4/18/2023 6:00:00 PM 17.03 62.654 7.38 16.5 -5
4/18/2023 6:15:00 PM 17.03 62.654 7.33 16.02 -5
4/18/2023 6:30:00 PM 16.92 62.456 7.3 16.06 -5
4/18/2023 6:45:00 PM 17.03 62.654 7.31 16.24 -5
4/18/2023 7:00:00 PM 17.41 63.338 7.29 16.32 -5
4/18/2023 7:15:00 PM 17.41 63.338 7.28 16.29 -5
4/18/2023 7:30:00 PM 17.29 63.122 7.27 16.4 -5
4/18/2023 7:45:00 PM 17.15 62.87 7.28 16.21 -5
4/18/2023 8:00:00 PM 17.53 63.554 7.29 16.41 -5
4/18/2023 8:15:00 PM 17.41 63.338 7.31 16.03 -5
4/18/2023 8:30:00 PM 17.53 63.554 7.39 15.51 -5
4/18/2023 8:45:00 PM 17.66 63.788 7.45 15.52 -5
4/18/2023 9:00:00 PM 17.03 62.654 7.49 15.42 -5
4/18/2023 9:15:00 PM 16.91 62.438 7.5 15.48 -5
4/18/2023 9:30:00 PM 17.41 63.338 7.52 15.65 -5
4/18/2023 9:45:00 PM 17.29 63.122 7.52 15.47 -5
4/18/2023 10:00:00 PM 17.29 63.122 7.56 15.65 -5
4/18/2023 10:15:00 PM 17.41 63.338 7.55 15.08 -5
4/18/2023 10:30:00 PM 17.53 63.554 7.58 15.01 -5
4/18/2023 10:45:00 PM 16.65 61.97 7.57 15.18 -5
4/18/2023 11:00:00 PM 17.29 63.122 7.59 15.26 -5
4/18/2023 11:15:00 PM 17.66 63.788 7.6 14.87 -5
4/18/2023 11:30:00 PM 17.53 63.554 7.58 14.79 -5
4/18/2023 11:45:00 PM 17.84 64.112 7.59 14.84 -5
4/19/2023 12:00:00 AM 16.78 62.204 7.55 14.88 -5
4/19/2023 12:15:00 AM 17.29 63.122 7.54 14.69 -5
4/19/2023 12:30:00 AM 17.29 63.122 7.56 14.4 -5
4/19/2023 12:45:00 AM 17.41 63.338 7.65 13.33 -5
4/19/2023 1:00:00 AM 17.41 63.338 7.65 13.55 -5
4/19/2023 1:15:00 AM 17.16 62.888 7.63 13.45 -5
4/19/2023 1:30:00 AM 17.53 63.554 7.63 14.72 -5
4/19/2023 1:45:00 AM 17.41 63.338 7.65 12.19 -5
4/19/2023 2:00:00 AM 17.03 62.654 7.61 11.28 -5
4/19/2023 2:15:00 AM 16.78 62.204 7.57 12.77 -5
4/19/2023 2:30:00 AM 16.91 62.438 7.53 11.32 -5
4/19/2023 2:45:00 AM 17.29 63.122 7.51 10.25 -5
4/19/2023 3:00:00 AM 17.41 63.338 7.5 13.05 -5
4/19/2023 3:15:00 AM 17.29 63.122 7.5 11.06 -5
4/19/2023 3:30:00 AM 17.53 63.554 7.49 10.78 -5
4/19/2023 3:45:00 AM 17.29 63.122 7.52 10.19 -5
4/19/2023 4:00:00 AM 17.66 63.788 7.6 9.69 -5
4/19/2023 4:15:00 AM 17.53 63.554 7.62 10.95 -5
4/19/2023 4:30:00 AM 17.41 63.338 7.62 10.85 -5
4/19/2023 4:45:00 AM 17.41 63.338 7.58 11.03 -5
4/19/2023 5:00:00 AM 17.53 63.554 7.62 10.87 -5
4/19/2023 5:15:00 AM 17.29 63.122 7.63 9.6 -5
4/19/2023 5:30:00 AM 17.53 63.554 7.65 9.64 -5
4/19/2023 5:45:00 AM 17.16 62.888 7.63 9.45 -5
4/19/2023 6:00:00 AM 17.03 62.654 7.61 9.55 -5
4/19/2023 6:15:00 AM 17.2 62.96 7.6 9.61 -5
4/19/2023 6:30:00 AM 16.91 62.438 7.57 10.68 -5
4/19/2023 6:45:00 AM 17.03 62.654 7.57 10.46 -5
4/19/2023 7:00:00 AM 17.16 62.888 7.55 9.82 -5
4/19/2023 7:15:00 AM 13.78 56.804 7.46 16.3 -5
4/19/2023 7:30:00 AM 13.53 56.354 7.48 15.93 -5
4/19/2023 7:45:00 AM 13.52 56.336 7.51 15.92 -5
4/19/2023 8:00:00 AM 13.78 56.804 7.5 15.39 -5
4/19/2023 8:15:00 AM 13.52 56.336 7.46 15.29 -5
4/19/2023 8:30:00 AM 13.52 56.336 7.43 15.44 -5
4/19/2023 8:45:00 AM 13.39 56.102 7.38 15.35 -5
4/19/2023 9:00:00 AM 13.78 56.804 7.39 15.17 -5
4/19/2023 9:15:00 AM 13.39 56.102 7.36 15.21 -5
4/19/2023 9:30:00 AM 13.52 56.336 7.36 15.09 -5
4/19/2023 9:45:00 AM 13.52 56.336 7.41 15.06 -5
4/19/2023 10:00:00 AM 13.39 56.102 7.56 14.64 -5
4/19/2023 10:15:00 AM 13.39 56.102 7.6 14.59 -5
4/19/2023 10:30:00 AM 13.39 56.102 7.58 14.5 -5
4/19/2023 10:45:00 AM 13.52 56.336 7.6 14.58 -5
4/19/2023 11:00:00 AM 13.52 56.336 7.64 14.6 -5
4/19/2023 11:15:00 AM 13.78 56.804 7.63 14.55 -5
4/19/2023 11:30:00 AM 13.64 56.552 7.64 14.62 -5
4/19/2023 11:45:00 AM 13.91 57.038 7.61 14.58 -5
4/19/2023 12:00:00 PM 13.91 57.038 7.65 14.65 -5
4/19/2023 12:15:00 PM 13.78 56.804 7.7 14.81 -5
4/19/2023 12:30:00 PM 14.04 57.272 7.65 14.75 -5
4/19/2023 12:45:00 PM 14.04 57.272 7.7 14.77 -5
4/19/2023 1:00:00 PM 14.15 57.47 7.68 14.7 -5
4/19/2023 1:15:00 PM 14.41 57.938 7.68 14.63 -5
4/19/2023 1:30:00 PM 14.15 57.47 7.64 14.75 -5
4/19/2023 1:45:00 PM 14.41 57.938 7.67 14.64 -5
4/19/2023 2:00:00 PM 14.53 58.154 7.67 14.41 -5
4/19/2023 2:15:00 PM 14.53 58.154 7.65 14.36 -5
4/19/2023 2:30:00 PM 14.67 58.406 7.72 14.19 -5
4/19/2023 2:45:00 PM 14.53 58.154 7.73 14.33 -5
4/19/2023 3:00:00 PM 14.67 58.406 7.72 14.22 -5
4/19/2023 3:15:00 PM 14.9 58.82 7.77 14.28 -5
4/19/2023 3:30:00 PM 15.04 59.072 7.77 14.24 -5
4/19/2023 3:45:00 PM 14.9 58.82 7.78 14.17 -5
4/19/2023 4:00:00 PM 15.15 59.27 7.75 14.05 -5
4/19/2023 4:15:00 PM 15.36 59.648 7.8 14.18 -5
4/19/2023 4:30:00 PM 15.04 59.072 7.72 14.1 -5
4/19/2023 4:45:00 PM 15.28 59.504 7.82 14.16 -5
4/19/2023 5:00:00 PM 15.54 59.972 7.83 14.1 -5
4/19/2023 5:15:00 PM 15.28 59.504 7.79 14.29 -5
4/19/2023 5:30:00 PM 15.41 59.738 7.83 14.32 -5
4/19/2023 5:45:00 PM 15.41 59.738 7.78 14.23 -5
4/19/2023 6:00:00 PM 15.54 59.972 7.78 14.49 -5
4/19/2023 6:15:00 PM 15.65 60.17 7.77 14.46 -5
4/19/2023 6:30:00 PM 15.41 59.738 7.73 14.59 -5
4/19/2023 6:45:00 PM 15.65 60.17 7.75 14.65 -5
4/19/2023 7:00:00 PM 15.54 59.972 7.65 14.79 -5
4/19/2023 7:15:00 PM 15.54 59.972 7.68 14.74 -5
4/19/2023 7:30:00 PM 15.54 59.972 7.66 14.73 -5
4/19/2023 7:45:00 PM 15.54 59.972 7.65 14.73 -5
4/19/2023 8:00:00 PM 15.54 59.972 7.7 15 -5
4/19/2023 8:15:00 PM 15.54 59.972 7.7 14.86 -5
4/19/2023 8:30:00 PM 15.65 60.17 7.72 14.78 -5
4/19/2023 8:45:00 PM 15.54 59.972 7.68 15.07 -5
4/19/2023 9:00:00 PM 15.54 59.972 7.66 15.01 -5
4/19/2023 9:15:00 PM 15.54 59.972 7.56 15.02 -5
4/19/2023 9:30:00 PM 15.65 60.17 7.66 14.97 -5
4/19/2023 9:45:00 PM 15.54 59.972 7.59 14.94 -5
4/19/2023 10:00:00 PM 15.65 60.17 7.67 14.97 -5
4/19/2023 10:15:00 PM 15.54 59.972 7.64 14.88 -5
4/19/2023 10:30:00 PM 15.54 59.972 7.56 14.9 -5
4/19/2023 10:45:00 PM 15.78 60.404 7.51 15.01 -5
4/19/2023 11:00:00 PM 15.54 59.972 7.43 14.87 -5
4/19/2023 11:15:00 PM 15.78 60.404 7.43 14.77 -5
4/19/2023 11:30:00 PM 15.54 59.972 7.44 14.69 -5
4/19/2023 11:45:00 PM 15.78 60.404 7.5 14.83 -5
4/20/2023 12:00:00 AM 15.54 59.972 7.48 14.68 -5
4/20/2023 12:15:00 AM 15.54 59.972 7.55 14.68 -5
4/20/2023 12:30:00 AM 15.65 60.17 7.49 14.65 -5
4/20/2023 12:45:00 AM 15.54 59.972 7.4 14.71 -5
4/20/2023 1:00:00 AM 15.65 60.17 7.32 14.52 -5
4/20/2023 1:15:00 AM 15.41 59.738 7.26 14.45 -5
4/20/2023 1:30:00 AM 15.54 59.972 7.27 14.57 -5
4/20/2023 1:45:00 AM 15.54 59.972 7.29 14.54 -5
4/20/2023 2:00:00 AM 15.41 59.738 7.27 14.69 -5
4/20/2023 2:15:00 AM 15.54 59.972 7.33 14.76 -5
4/20/2023 2:30:00 AM 15.41 59.738 7.28 14.66 -5
4/20/2023 2:45:00 AM 15.54 59.972 7.33 14.73 -5
4/20/2023 3:00:00 AM 15.41 59.738 7.35 14.73 -5
4/20/2023 3:15:00 AM 15.28 59.504 7.31 14.64 -5
4/20/2023 3:30:00 AM 15.28 59.504 7.32 14.56 -5
4/20/2023 3:45:00 AM 15.41 59.738 7.35 14.7 -5
4/20/2023 4:00:00 AM 15.28 59.504 7.3 14.92 -5
4/20/2023 4:15:00 AM 15.28 59.504 7.31 15.02 -5
4/20/2023 4:30:00 AM 15.28 59.504 7.37 14.94 -5
4/20/2023 4:45:00 AM 15.04 59.072 7.31 14.75 -5
4/20/2023 5:00:00 AM 15.15 59.27 7.37 14.84 -5
4/20/2023 5:15:00 AM 15.15 59.27 7.41 14.87 -5
4/20/2023 5:30:00 AM 14.9 58.82 7.39 15.05 -5
4/20/2023 5:45:00 AM 15.04 59.072 7.42 15.09 -5
4/20/2023 6:00:00 AM 15.04 59.072 7.4 15.27 -5
4/20/2023 6:15:00 AM 14.78 58.604 7.34 14.94 -5
4/20/2023 6:30:00 AM 14.78 58.604 7.32 15.23 -5
4/20/2023 6:45:00 AM 14.91 58.838 7.34 15.58 -5
4/20/2023 7:00:00 AM 14.67 58.406 7.35 15.51 -5
4/20/2023 7:15:00 AM 14.91 58.838 7.35 15.34 -5
4/20/2023 7:30:00 AM 15.04 59.072 7.23 15.31 -5
4/20/2023 7:45:00 AM 15.04 59.072 7.23 15.07 -5
4/20/2023 8:00:00 AM 14.78 58.604 7.22 14.96 -5
4/20/2023 8:15:00 AM 15.04 59.072 7.25 14.84 -5
4/20/2023 8:30:00 AM 14.91 58.838 7.28 14.39 -5
4/20/2023 8:45:00 AM 14.9 58.82 7.25 14.5 -5
4/20/2023 9:00:00 AM 14.91 58.838 7.26 14.7 -5
4/20/2023 9:15:00 AM 14.78 58.604 7.26 14.4 -5
4/20/2023 9:30:00 AM 14.91 58.838 7.27 14.5 -5
4/20/2023 9:45:00 AM 14.91 58.838 7.29 14.49 -5
4/20/2023 10:00:00 AM 14.78 58.604 7.28 14.45 -5
4/20/2023 10:15:00 AM 14.91 58.838 7.3 14.68 -5
4/20/2023 10:30:00 AM 15.04 59.072 7.31 14.64 -5
4/20/2023 10:45:00 AM 15.04 59.072 7.3 14.71 -5
4/20/2023 11:00:00 AM 15.15 59.27 7.33 14.68 -5
4/20/2023 11:15:00 AM 15.15 59.27 7.34 14.69 -5
4/20/2023 11:30:00 AM 15.15 59.27 7.34 14.54 -5
4/20/2023 11:45:00 AM 15.28 59.504 7.38 14.75 -5
4/20/2023 12:00:00 PM 15.41 59.738 7.38 14.56 -5
4/20/2023 12:15:00 PM 15.41 59.738 7.38 14.61 -5
4/20/2023 12:30:00 PM 15.54 59.972 7.39 14.63 -5
4/20/2023 12:45:00 PM 15.54 59.972 7.38 14.62 -5
4/20/2023 1:00:00 PM 15.65 60.17 7.4 14.49 -5
4/20/2023 1:15:00 PM 15.78 60.404 7.42 14.53 -5
4/20/2023 1:30:00 PM 15.91 60.638 7.42 14.56 -5
4/20/2023 1:45:00 PM 16.02 60.836 7.42 14.79 -5
4/20/2023 2:00:00 PM 16.02 60.836 7.4 14.62 -5
4/20/2023 2:15:00 PM 16.28 61.304 7.4 14.67 -5
4/20/2023 2:30:00 PM 16.28 61.304 7.38 14.67 -5
4/20/2023 2:45:00 PM 16.39 61.502 7.38 14.87 -5
4/20/2023 3:00:00 PM 16.54 61.772 7.36 14.71 -5
4/20/2023 3:15:00 PM 16.65 61.97 7.37 14.86 -5
4/20/2023 3:30:00 PM 16.65 61.97 7.36 14.86 -5
4/20/2023 3:45:00 PM 16.78 62.204 7.35 14.97 -5
4/20/2023 4:00:00 PM 16.92 62.456 7.4 14.81 -5
4/20/2023 4:15:00 PM 17.03 62.654 7.43 14.81 -5
4/20/2023 4:30:00 PM 17.03 62.654 7.44 14.72 -5
4/20/2023 4:45:00 PM 17.15 62.87 7.41 14.93 -5
4/20/2023 5:00:00 PM 17.15 62.87 7.4 14.83 -5
4/20/2023 5:15:00 PM 17.15 62.87 7.38 14.97 -5
4/20/2023 5:30:00 PM 17.29 63.122 7.38 14.92 -5
4/20/2023 5:45:00 PM 17.29 63.122 7.35 15.3 -5
4/20/2023 6:00:00 PM 17.41 63.338 7.33 15.22 -5
4/20/2023 6:15:00 PM 17.29 63.122 7.29 15.12 -5
4/20/2023 6:30:00 PM 17.41 63.338 7.32 15.19 -5
4/20/2023 6:45:00 PM 17.29 63.122 7.28 15.42 -5
4/20/2023 7:00:00 PM 17.53 63.554 7.3 15.24 -5
4/20/2023 7:15:00 PM 17.41 63.338 7.27 15.47 -5
4/20/2023 7:30:00 PM 17.66 63.788 7.3 15.37 -5
4/20/2023 7:45:00 PM 17.53 63.554 7.27 15.64 -5
4/20/2023 8:00:00 PM 17.66 63.788 7.31 15.52 -5
4/20/2023 8:15:00 PM 17.53 63.554 7.28 15.44 -5
4/20/2023 8:30:00 PM 17.66 63.788 7.28 15.75 -5
4/20/2023 8:45:00 PM 17.79 64.022 7.33 15.81 -5
4/20/2023 9:00:00 PM 17.78 64.004 7.33 15.84 -5
4/20/2023 9:15:00 PM 17.9 64.22 7.35 15.77 -5
4/20/2023 9:30:00 PM 17.66 63.788 7.29 15.81 -5
4/20/2023 9:45:00 PM 17.78 64.004 7.31 15.84 -5
4/20/2023 10:00:00 PM 17.66 63.788 7.24 15.67 -5
4/20/2023 10:15:00 PM 17.79 64.022 7.25 15.66 -5
4/20/2023 10:30:00 PM 17.66 63.788 7.18 15.52 -5
4/20/2023 10:45:00 PM 17.79 64.022 7.18 15.54 -5
4/20/2023 11:00:00 PM 17.66 63.788 7.13 15.37 -5
4/20/2023 11:15:00 PM 17.79 64.022 7.13 15.28 -5
4/20/2023 11:30:00 PM 17.78 64.004 7.15 15.27 -5
4/20/2023 11:45:00 PM 17.79 64.022 7.14 15.4 -5
4/21/2023 12:00:00 AM 17.79 64.022 7.12 15.15 -5
4/21/2023 12:15:00 AM 17.9 64.22 7.08 15.27 -5
4/21/2023 12:30:00 AM 17.9 64.22 7.08 15.08 -5
4/21/2023 12:45:00 AM 17.9 64.22 7.04 15.21 -5
4/21/2023 1:00:00 AM 17.9 64.22 7.08 15.36 -5
4/21/2023 1:15:00 AM 17.79 64.022 7.05 15.25 -5
4/21/2023 1:30:00 AM 18.03 64.454 7.1 15.38 -5
4/21/2023 1:45:00 AM 17.79 64.022 7.05 15.39 -5
4/21/2023 2:00:00 AM 17.9 64.22 7.1 15.56 -5
4/21/2023 2:15:00 AM 17.79 64.022 7.07 15.63 -5
4/21/2023 2:30:00 AM 17.9 64.22 7.1 15.68 -5
4/21/2023 2:45:00 AM 17.79 64.022 7.07 15.74 -5
4/21/2023 3:00:00 AM 17.79 64.022 7.08 15.72 -5
4/21/2023 3:15:00 AM 17.79 64.022 7.09 15.8 -5
4/21/2023 3:30:00 AM 17.66 63.788 7.07 15.64 -5
4/21/2023 3:45:00 AM 17.9 64.22 7.12 15.78 -5
4/21/2023 4:00:00 AM 17.66 63.788 7.09 15.14 -5
4/21/2023 4:15:00 AM 17.79 64.022 7.12 15.34 -5
4/21/2023 4:30:00 AM 17.53 63.554 7.07 15.84 -5
4/21/2023 4:45:00 AM 17.79 64.022 7.07 15.95 -5
4/21/2023 5:00:00 AM 17.66 63.788 7.07 15.82 -5
4/21/2023 5:15:00 AM 17.66 63.788 7.07 15.74 -5
4/21/2023 5:30:00 AM 17.78 64.004 7.08 15.81 -5
4/21/2023 5:45:00 AM 17.53 63.554 7.05 16.02 -5
4/21/2023 6:00:00 AM 17.9 64.22 7.08 15.67 -5
4/21/2023 6:15:00 AM 17.52 63.536 7.06 15.77 -5
4/21/2023 6:30:00 AM 17.66 63.788 7.08 15.77 -5
4/21/2023 6:45:00 AM 17.53 63.554 7.08 16.02 -5
4/21/2023 7:00:00 AM 17.41 63.338 7.1 15.95 -5
4/21/2023 7:15:00 AM 17.53 63.554 7.07 15.84 -5
4/21/2023 7:30:00 AM 17.41 63.338 7.1 15.8 -5
4/21/2023 7:45:00 AM 17.53 63.554 7.15 15.85 -5
4/21/2023 8:00:00 AM 17.41 63.338 7.11 15.85 -5
4/21/2023 8:15:00 AM 17.53 63.554 7.14 15.96 -5
4/21/2023 8:30:00 AM 17.53 63.554 7.15 16.01 -5
4/21/2023 8:45:00 AM 17.41 63.338 7.09 15.25 -5
4/21/2023 9:00:00 AM 17.53 63.554 7.12 15.49 -5
4/21/2023 9:15:00 AM 17.53 63.554 7.1 15.53 -5
4/21/2023 9:30:00 AM 17.66 63.788 7.1 15.59 -5
4/21/2023 9:45:00 AM 17.53 63.554 7.07 15.97 -5
4/21/2023 10:00:00 AM 17.53 63.554 7.07 15.98 -5
4/21/2023 10:15:00 AM 17.66 63.788 7.08 15.81 -5
4/21/2023 10:30:00 AM 17.66 63.788 7.06 15.9 -5
4/21/2023 10:45:00 AM 17.78 64.004 7.09 15.9 -5
4/21/2023 11:00:00 AM 17.66 63.788 7.09 15.86 -5
4/21/2023 11:15:00 AM 17.9 64.22 7.12 15.91 -5
4/21/2023 11:30:00 AM 17.9 64.22 7.16 15.93 -5
4/21/2023 11:45:00 AM 18.14 64.652 7.17 15.35 -5
4/21/2023 12:00:00 PM 18.25 64.85 7.17 15.35 -5
4/21/2023 12:15:00 PM 18.03 64.454 7.17 15.57 -5
4/21/2023 12:30:00 PM 18.4 65.12 7.21 15.79 -5
4/21/2023 12:45:00 PM 18.26 64.868 7.21 15.93 -5
4/21/2023 1:00:00 PM 18.57 65.426 7.23 15.92 -5
4/21/2023 1:15:00 PM 18.4 65.12 7.24 16.04 -5
4/21/2023 1:30:00 PM 18.78 65.804 7.25 16.12 -5
4/21/2023 1:45:00 PM 18.63 65.534 7.25 16.12 -5
4/21/2023 2:00:00 PM 18.77 65.786 7.25 16.2 -5
4/21/2023 2:15:00 PM 18.78 65.804 7.24 16.06 -5
4/21/2023 2:30:00 PM 18.77 65.786 7.26 16.19 -5
4/21/2023 2:45:00 PM 19.03 66.254 7.26 16.34 -5
4/21/2023 3:00:00 PM 18.91 66.038 7.26 16.26 -5
4/21/2023 3:15:00 PM 19.29 66.722 7.27 16.76 -5
4/21/2023 3:30:00 PM 19.03 66.254 7.25 16.82 -5
4/21/2023 3:45:00 PM 19.29 66.722 7.27 16.7 -5
4/21/2023 4:00:00 PM 19.41 66.938 7.28 16.86 -5
4/21/2023 4:15:00 PM 19.41 66.938 7.28 16.75 -5
4/21/2023 4:30:00 PM 19.54 67.172 7.28 16.75 -5
4/21/2023 4:45:00 PM 19.41 66.938 7.25 16.64 -5
4/21/2023 5:00:00 PM 19.67 67.406 7.28 16.66 -5
4/21/2023 5:15:00 PM 19.67 67.406 7.26 16.64 -5
4/21/2023 5:30:00 PM 19.78 67.604 7.26 16.7 -5
4/21/2023 5:45:00 PM 19.78 67.604 7.26 16.75 -5
4/21/2023 6:00:00 PM 19.78 67.604 7.25 16.7 -5
4/21/2023 6:15:00 PM 19.92 67.856 7.27 16.58 -5
4/21/2023 6:30:00 PM 19.67 67.406 7.26 16.8 -5
4/21/2023 6:45:00 PM 20.04 68.07201 7.27 16.75 -5
4/21/2023 7:00:00 PM 19.78 67.604 7.23 16.76 -5
4/21/2023 7:15:00 PM 19.78 67.604 7.22 16.58 -5
4/21/2023 7:30:00 PM 19.92 67.856 7.24 16.77 -5
4/21/2023 7:45:00 PM 19.78 67.604 7.21 16.89 -5
4/21/2023 8:00:00 PM 20.04 68.07201 7.23 16.85 -5
4/21/2023 8:15:00 PM 19.78 67.604 7.19 16.92 -5
4/21/2023 8:30:00 PM 20.04 68.07201 7.22 16.85 -5
4/21/2023 8:45:00 PM 19.92 67.856 7.23 16.81 -5
4/21/2023 9:00:00 PM 19.92 67.856 7.22 16.84 -5
4/21/2023 9:15:00 PM 20.04 68.07201 7.24 16.92 -5
4/21/2023 9:30:00 PM 19.78 67.604 7.22 17.22 -5
4/21/2023 9:45:00 PM 20.15 68.27 7.25 17.51 -5
4/21/2023 10:00:00 PM 19.92 67.856 7.23 16.81 -5
4/21/2023 10:15:00 PM 20.03 68.054 7.22 16.75 -5
4/21/2023 10:30:00 PM 20.03 68.054 7.23 16.81 -5
4/21/2023 10:45:00 PM 19.77 67.586 7.2 16.77 -5
4/21/2023 11:00:00 PM 20.15 68.27 7.24 16.2 -5
4/21/2023 11:15:00 PM 19.92 67.856 7.22 16.22 -5
4/21/2023 11:30:00 PM 20.04 68.07201 7.22 16.24 -5
4/21/2023 11:45:00 PM 20.03 68.054 7.23 16.31 -5
4/22/2023 12:00:00 AM 19.78 67.604 7.19 16.22 -5
4/22/2023 12:15:00 AM 20.15 68.27 7.24 16.37 -5
4/22/2023 12:30:00 AM 19.78 67.604 7.21 16.47 -5
4/22/2023 12:45:00 AM 20.03 68.054 7.23 16.52 -5
4/22/2023 1:00:00 AM 19.78 67.604 7.23 16.34 -5
4/22/2023 1:15:00 AM 19.78 67.604 7.22 16.53 -5
4/22/2023 1:30:00 AM 20.03 68.054 7.25 16.56 -5
4/22/2023 1:45:00 AM 19.66 67.388 7.21 16.56 -5
4/22/2023 2:00:00 AM 19.78 67.604 7.24 16.55 -5
4/22/2023 2:15:00 AM 19.78 67.604 7.23 16.27 -5
4/22/2023 2:30:00 AM 19.67 67.406 7.21 16.42 -5
4/22/2023 2:45:00 AM 19.92 67.856 7.25 16.45 -5
4/22/2023 3:00:00 AM 19.67 67.406 7.22 16.33 -5
4/22/2023 3:15:00 AM 19.78 67.604 7.26 16.43 -5
4/22/2023 3:30:00 AM 19.78 67.604 7.21 16.51 -5
4/22/2023 3:45:00 AM 19.54 67.172 7.18 16.31 -5
4/22/2023 4:00:00 AM 19.78 67.604 7.22 15.87 -5
4/22/2023 4:15:00 AM 19.67 67.406 7.2 16.35 -5
4/22/2023 4:30:00 AM 19.67 67.406 7.21 16.33 -5
4/22/2023 4:45:00 AM 19.92 67.856 7.22 16.27 -5
4/22/2023 5:00:00 AM 19.54 67.172 7.2 16.35 -5
4/22/2023 5:15:00 AM 19.78 67.604 7.22 16.51 -5
4/22/2023 5:30:00 AM 19.54 67.172 7.2 16.81 -5
4/22/2023 5:45:00 AM 19.54 67.172 7.2 16.95 -5
4/22/2023 6:00:00 AM 19.78 67.604 7.22 16.99 -5
4/22/2023 6:15:00 AM 19.29 66.722 7.21 16.72 -5
4/22/2023 6:30:00 AM 19.67 67.406 7.23 16.52 -5
4/22/2023 6:45:00 AM 19.41 66.938 7.24 16.1 -5
4/22/2023 7:00:00 AM 19.41 66.938 7.22 16.77 -5
4/22/2023 7:15:00 AM 19.54 67.172 7.25 16.63 -5
4/22/2023 7:30:00 AM 19.29 66.722 7.21 16.76 -5
4/22/2023 7:45:00 AM 19.41 66.938 7.24 16.52 -5
4/22/2023 8:00:00 AM 19.54 67.172 7.24 16.35 -5
4/22/2023 8:15:00 AM 19.29 66.722 7.23 16.29 -5
4/22/2023 8:30:00 AM 19.54 67.172 7.24 16.44 -5
4/22/2023 8:45:00 AM 19.16 66.488 7.24 16.36 -5
4/22/2023 9:00:00 AM 19.41 66.938 7.28 16.21 -5
4/22/2023 9:15:00 AM 19.54 67.172 7.29 16.17 -5
4/22/2023 9:30:00 AM 19.29 66.722 7.28 16.3 -5
4/22/2023 9:45:00 AM 19.54 67.172 7.32 16.3 -5
4/22/2023 10:00:00 AM 19.29 66.722 7.28 16.44 -5
4/22/2023 10:15:00 AM 19.67 67.406 7.28 16.52 -5
4/22/2023 10:30:00 AM 19.29 66.722 7.29 16.51 -5
4/22/2023 10:45:00 AM 19.41 66.938 7.29 17.11 -5
4/22/2023 11:00:00 AM 19.67 67.406 7.28 17.42 -5
4/22/2023 11:15:00 AM 19.41 66.938 7.29 17.44 -5
4/22/2023 11:30:00 AM 19.92 67.856 7.34 17.41 -5
4/22/2023 11:45:00 AM 19.41 66.938 7.34 17.47 -5
4/22/2023 12:00:00 PM 19.78 67.604 7.33 17.56 -5
4/22/2023 12:15:00 PM 19.67 67.406 7.36 17.66 -5
4/22/2023 12:30:00 PM 19.78 67.604 7.38 17.86 -5
4/22/2023 12:45:00 PM 19.92 67.856 7.35 18.47 -5
4/22/2023 1:00:00 PM 19.66 67.388 7.33 18.73 -5
4/22/2023 1:15:00 PM 20.04 68.07201 7.38 18.28 -5
4/22/2023 1:30:00 PM 19.67 67.406 7.35 17.62 -5
4/22/2023 1:45:00 PM 20.15 68.27 7.34 17.66 -5
4/22/2023 2:00:00 PM 19.78 67.604 7.3 17.54 -5
4/22/2023 2:15:00 PM 20.03 68.054 7.31 17.45 -5
4/22/2023 2:30:00 PM 19.78 67.604 7.28 17.36 -5
4/22/2023 2:45:00 PM 19.92 67.856 7.26 17.41 -5
4/22/2023 3:00:00 PM 19.92 67.856 7.28 18.12 -5
4/22/2023 3:15:00 PM 19.78 67.604 7.27 17.42 -5
4/22/2023 3:30:00 PM 20.15 68.27 7.28 18.28 -5
4/22/2023 3:45:00 PM 19.67 67.406 7.23 17.81 -5
4/22/2023 4:00:00 PM 19.92 67.856 7.27 17.62 -5
4/22/2023 4:15:00 PM 19.92 67.856 7.29 17.56 -5
4/22/2023 4:30:00 PM 19.78 67.604 7.24 17.69 -5
4/22/2023 4:45:00 PM 20.15 68.27 7.27 17.09 -5
4/22/2023 5:00:00 PM 19.67 67.406 7.24 16.93 -5
4/22/2023 5:15:00 PM 19.92 67.856 7.29 17.03 -5
4/22/2023 5:30:00 PM 19.78 67.604 7.29 18.1 -5
4/22/2023 5:45:00 PM 19.78 67.604 7.29 17.85 -5
4/22/2023 6:00:00 PM 20.03 68.054 7.29 17.77 -5
4/22/2023 6:15:00 PM 19.67 67.406 7.25 17.5 -5
4/22/2023 6:30:00 PM 20.03 68.054 7.26 17.89 -5
4/22/2023 6:45:00 PM 19.67 67.406 7.25 17.99 -5
4/22/2023 7:00:00 PM 19.78 67.604 7.27 17.93 -5
4/22/2023 7:15:00 PM 20.04 68.07201 7.3 17.87 -5
4/22/2023 7:30:00 PM 19.67 67.406 7.26 17.86 -5
4/22/2023 7:45:00 PM 19.92 67.856 7.3 17.89 -5
4/22/2023 8:00:00 PM 19.92 67.856 7.32 17.69 -5
4/22/2023 8:15:00 PM 19.78 67.604 7.31 17.87 -5
4/22/2023 8:30:00 PM 20.3 68.54 7.33 17.68 -5
4/22/2023 8:45:00 PM 19.67 67.406 7.3 17.75 -5
4/22/2023 9:00:00 PM 20.03 68.054 7.31 18.25 -5
4/22/2023 9:15:00 PM 20.04 68.07201 7.32 17.93 -5
4/22/2023 9:30:00 PM 19.92 67.856 7.28 17.79 -5
4/22/2023 9:45:00 PM 20.29 68.522 7.3 17.71 -5
4/22/2023 10:00:00 PM 19.78 67.604 7.25 17.79 -5
4/22/2023 10:15:00 PM 20.03 68.054 7.25 17.44 -5
4/22/2023 10:30:00 PM 20.03 68.054 7.25 17.48 -5
4/22/2023 10:45:00 PM 19.78 67.604 7.24 17.51 -5
4/22/2023 11:00:00 PM 20.3 68.54 7.26 17.52 -5
4/22/2023 11:15:00 PM 19.66 67.388 7.22 17.65 -5
4/22/2023 11:30:00 PM 19.92 67.856 7.24 17.42 -5
4/22/2023 11:45:00 PM 19.92 67.856 7.25 16.74 -5
4/23/2023 12:00:00 AM 19.67 67.406 7.23 17.06 -5
4/23/2023 12:15:00 AM 19.92 67.856 7.24 17.54 -5
4/23/2023 12:30:00 AM 19.54 67.172 7.23 17.47 -5
4/23/2023 12:45:00 AM 19.67 67.406 7.24 17.5 -5
4/23/2023 1:00:00 AM 20.04 68.07201 7.26 17.36 -5
4/23/2023 1:15:00 AM 19.41 66.938 7.23 17.33 -5
4/23/2023 1:30:00 AM 19.67 67.406 7.25 17.47 -5
4/23/2023 1:45:00 AM 19.92 67.856 7.27 17.21 -5
4/23/2023 2:00:00 AM 19.41 66.938 7.24 17.09 -5
4/23/2023 2:15:00 AM 19.78 67.604 7.27 16.7 -5
4/23/2023 2:30:00 AM 19.29 66.722 7.28 16.82 -5
4/23/2023 2:45:00 AM 19.41 66.938 7.26 16.85 -5
4/23/2023 3:00:00 AM 19.78 67.604 7.26 16.74 -5
4/23/2023 3:15:00 AM 19.54 67.172 7.24 16.69 -5
4/23/2023 3:30:00 AM 19.41 66.938 7.24 17.63 -5
4/23/2023 3:45:00 AM 19.78 67.604 7.25 17.09 -5
4/23/2023 4:00:00 AM 19.29 66.722 7.24 17 -5
4/23/2023 4:15:00 AM 19.41 66.938 7.25 17.09 -5
4/23/2023 4:30:00 AM 19.78 67.604 7.27 17.26 -5
4/23/2023 4:45:00 AM 19.16 66.488 7.25 17.22 -5
4/23/2023 5:00:00 AM 19.29 66.722 7.24 17.79 -5
4/23/2023 5:15:00 AM 19.67 67.406 7.25 17.67 -5
4/23/2023 5:30:00 AM 19.17 66.506 7.22 17.71 -5
4/23/2023 5:45:00 AM 19.29 66.722 7.23 17.62 -5
4/23/2023 6:00:00 AM 19.67 67.406 7.24 17.34 -5
4/23/2023 6:15:00 AM 19.03 66.254 7.21 17.27 -5
4/23/2023 6:30:00 AM 19.17 66.506 7.23 17.37 -5
4/23/2023 6:45:00 AM 19.41 66.938 7.23 17.49 -5
4/23/2023 7:00:00 AM 19.41 66.938 7.24 17.45 -5
4/23/2023 7:15:00 AM 18.91 66.038 7.22 17.31 -5
4/23/2023 7:30:00 AM 19.16 66.488 7.25 17.49 -5
4/23/2023 7:45:00 AM 19.41 66.938 7.27 17.11 -5
4/23/2023 8:00:00 AM 19.03 66.254 7.25 17.26 -5
4/23/2023 8:15:00 AM 19.03 66.254 7.26 17.35 -5
4/23/2023 8:30:00 AM 19.41 66.938 7.28 17.4 -5
4/23/2023 8:45:00 AM 19.41 66.938 7.27 17.22 -5
4/23/2023 9:00:00 AM 18.77 65.786 7.26 17.1 -5
4/23/2023 9:15:00 AM 19.17 66.506 7.3 17 -5
4/23/2023 9:30:00 AM 19.41 66.938 7.33 17.14 -5
4/23/2023 9:45:00 AM 18.78 65.804 7.32 16.95 -5
4/23/2023 10:00:00 AM 19.16 66.488 7.33 16.82 -5
4/23/2023 10:15:00 AM 19.54 67.172 7.36 16.97 -5
4/23/2023 10:30:00 AM 19.03 66.254 7.38 17.69 -5
4/23/2023 10:45:00 AM 19.16 66.488 7.39 17.5 -5
4/23/2023 11:00:00 AM 19.54 67.172 7.37 17.46 -5
4/23/2023 11:15:00 AM 19.29 66.722 7.37 17.41 -5
4/23/2023 11:30:00 AM 19.17 66.506 7.32 17.12 -5
4/23/2023 11:45:00 AM 19.41 66.938 7.33 17.09 -5
4/23/2023 12:00:00 PM 19.67 67.406 7.39 17.07 -5
4/23/2023 12:15:00 PM 19.17 66.506 7.36 18.09 -5
4/23/2023 12:30:00 PM 19.78 67.604 7.41 17.9 -5
4/23/2023 12:45:00 PM 20.04 68.07201 7.43 17.82 -5
4/23/2023 1:00:00 PM 19.41 66.938 7.44 17.02 -5
4/23/2023 1:15:00 PM 19.78 67.604 7.42 17.11 -5
4/23/2023 1:30:00 PM 20.04 68.07201 7.4 17.35 -5
4/23/2023 1:45:00 PM 19.54 67.172 7.27 17.36 -5
4/23/2023 2:00:00 PM 19.92 67.856 7.26 17.38 -5
4/23/2023 2:15:00 PM 20.04 68.07201 7.33 17.25 -5
4/23/2023 2:30:00 PM 19.41 66.938 7.31 17.45 -5
4/23/2023 2:45:00 PM 19.78 67.604 7.3 17.28 -5
4/23/2023 3:00:00 PM 19.54 67.172 7.33 17.28 -5
4/23/2023 3:15:00 PM 19.54 67.172 7.34 17.74 -5
4/23/2023 3:30:00 PM 19.92 67.856 7.32 17.71 -5
4/23/2023 3:45:00 PM 19.78 67.604 7.35 17.37 -5
4/23/2023 4:00:00 PM 19.41 66.938 7.33 17.36 -5
4/23/2023 4:15:00 PM 19.78 67.604 7.34 16.7 -5
4/23/2023 4:30:00 PM 20.04 68.07201 7.36 17.48 -5
4/23/2023 4:45:00 PM 19.41 66.938 7.39 17.18 -5
4/23/2023 5:00:00 PM 19.78 67.604 7.38 17.23 -5
4/23/2023 5:15:00 PM 20.15 68.27 7.36 17.1 -5
4/23/2023 5:30:00 PM 19.78 67.604 7.35 17.17 -5
4/23/2023 5:45:00 PM 19.67 67.406 7.3 17.06 -5
4/23/2023 6:00:00 PM 20.04 68.07201 7.32 17.16 -5
4/23/2023 6:15:00 PM 19.92 67.856 7.32 17.11 -5
4/23/2023 6:30:00 PM 19.41 66.938 7.3 17.34 -5
4/23/2023 6:45:00 PM 19.72 67.496 7.32 17.22 -5
4/23/2023 7:00:00 PM 20.04 68.07201 7.32 17.13 -5
4/23/2023 7:15:00 PM 19.92 67.856 7.3 17.22 -5
4/23/2023 7:30:00 PM 19.41 66.938 7.28 17.72 -5
4/23/2023 7:45:00 PM 19.67 67.406 7.32 17.28 -5
4/23/2023 8:00:00 PM 19.92 67.856 7.34 17.31 -5
4/23/2023 8:15:00 PM 19.41 66.938 7.31 17.4 -5
4/23/2023 8:30:00 PM 19.41 66.938 7.28 17.58 -5
4/23/2023 8:45:00 PM 19.78 67.604 7.28 18.09 -5
4/23/2023 9:00:00 PM 20.04 68.07201 7.29 17.92 -5
4/23/2023 9:15:00 PM 19.03 66.254 7.26 17.78 -5
4/23/2023 9:30:00 PM 19.41 66.938 7.28 17.74 -5
4/23/2023 9:45:00 PM 19.78 67.604 7.3 17.41 -5
4/23/2023 10:00:00 PM 19.67 67.406 7.3 16.92 -5
4/23/2023 10:15:00 PM 19.03 66.254 7.27 17.09 -5
4/23/2023 10:30:00 PM 19.41 66.938 7.29 17.25 -5
4/23/2023 10:45:00 PM 19.54 67.172 7.29 17.01 -5
4/23/2023 11:00:00 PM 19.67 67.406 7.3 16.97 -5
4/23/2023 11:15:00 PM 19.67 67.406 7.31 16.86 -5
4/23/2023 11:30:00 PM 19.67 67.406 7.32 16.82 -5
4/23/2023 11:45:00 PM 19.67 67.406 7.32 16.81 -5
4/24/2023 12:00:00 AM 18.78 65.804 7.31 16.78 -5
4/24/2023 12:15:00 AM 19.17 66.506 7.34 16.81 -5
4/24/2023 12:30:00 AM 19.41 66.938 7.38 17.24 -5
4/24/2023 12:45:00 AM 19.54 67.172 7.42 17.03 -5
4/24/2023 1:00:00 AM 19.67 67.406 7.44 16.9 -5
4/24/2023 1:15:00 AM 18.78 65.804 7.41 16.94 -5
4/24/2023 1:30:00 AM 19.17 66.506 7.42 17.07 -5
4/24/2023 1:45:00 AM 19.41 66.938 7.47 17.09 -5
4/24/2023 2:00:00 AM 19.41 66.938 7.49 17.01 -5
4/24/2023 2:15:00 AM 18.78 65.804 7.46 16.9 -5
4/24/2023 2:30:00 AM 19.17 66.506 7.47 17.1 -5
4/24/2023 2:45:00 AM 19.41 66.938 7.5 16.9 -5
4/24/2023 3:00:00 AM 19.04 66.272 7.5 16.83 -5
4/24/2023 3:15:00 AM 18.78 65.804 7.49 16.73 -5
4/24/2023 3:30:00 AM 19.17 66.506 7.5 16.91 -5
4/24/2023 3:45:00 AM 19.29 66.722 7.52 16.37 -5
4/24/2023 4:00:00 AM 19.29 66.722 7.53 16.5 -5
4/24/2023 4:15:00 AM 18.52 65.336 7.52 16.63 -5
4/24/2023 4:30:00 AM 18.78 65.804 7.55 16.59 -5
4/24/2023 4:45:00 AM 18.91 66.038 7.54 16.81 -5
4/24/2023 5:00:00 AM 19.16 66.488 7.56 16.72 -5
4/24/2023 5:15:00 AM 19.17 66.506 7.56 16.84 -5
4/24/2023 5:30:00 AM 18.78 65.804 7.52 16.81 -5
4/24/2023 5:45:00 AM 18.41 65.138 7.49 16.87 -5
4/24/2023 6:00:00 AM 18.78 65.804 7.49 16.7 -5
4/24/2023 6:15:00 AM 18.78 65.804 7.49 16.85 -5
4/24/2023 6:30:00 AM 18.78 65.804 7.5 16.54 -5
4/24/2023 6:45:00 AM 18.91 66.038 7.5 16.76 -5
4/24/2023 7:00:00 AM 18.91 66.038 7.5 16.86 -5
4/24/2023 7:15:00 AM 18.78 65.804 7.48 16.9 -5
4/24/2023 7:30:00 AM 18.91 66.038 7.52 14.91 -5
4/24/2023 7:45:00 AM 18.91 66.038 7.51 14.84 -5
4/24/2023 8:00:00 AM 18.91 66.038 7.51 15.15 -5
4/24/2023 8:15:00 AM 18.91 66.038 7.45 14.94 -5
4/24/2023 8:30:00 AM 18.03 64.454 7.4 14.96 -5
4/24/2023 8:45:00 AM 18.4 65.12 7.47 14.88 -5
4/24/2023 9:00:00 AM 18.63 65.534 7.45 14.85 -5
4/24/2023 9:15:00 AM 18.78 65.804 7.45 14.07 -5
4/24/2023 9:30:00 AM 18.78 65.804 7.43 14.77 -5
4/24/2023 9:45:00 AM 18.78 65.804 7.44 14.55 -5
4/24/2023 10:00:00 AM 18.78 65.804 7.45 14.6 -5
4/24/2023 10:15:00 AM 18.78 65.804 7.44 14.64 -5
4/24/2023 10:30:00 AM 18.78 65.804 7.5 14.71 -5
4/24/2023 10:45:00 AM 18.78 65.804 7.53 14.68 -5
4/24/2023 11:00:00 AM 18.91 66.038 7.55 14.72 -5
4/24/2023 11:15:00 AM 19.04 66.272 7.56 15.32 -5
4/24/2023 11:30:00 AM 19.17 66.506 7.55 15.01 -5
4/24/2023 11:45:00 AM 18.63 65.534 7.51 15.14 -5
4/24/2023 12:00:00 PM 18.52 65.336 7.38 15.06 -5
4/24/2023 12:15:00 PM 18.78 65.804 7.33 15.06 -5
4/24/2023 12:30:00 PM 19.03 66.254 7.39 14.17 -5
4/24/2023 12:45:00 PM 18.41 65.138 7.39 14.6 -5
4/24/2023 1:00:00 PM 18.52 65.336 7.31 14.37 -5
4/24/2023 1:15:00 PM 18.78 65.804 7.29 14.55 -5
4/24/2023 1:30:00 PM 19.03 66.254 7.31 14.41 -5
4/24/2023 1:45:00 PM 18.78 65.804 7.3 14.4 -5
4/24/2023 2:00:00 PM 18.41 65.138 7.24 14.41 -5
4/24/2023 2:15:00 PM 18.78 65.804 7.35 14.72 -5
4/24/2023 2:30:00 PM 19.04 66.272 7.41 14.5 -5
4/24/2023 2:45:00 PM 18.91 66.038 7.34 14.64 -5
4/24/2023 3:00:00 PM 18.41 65.138 7.28 14.58 -5
4/24/2023 3:15:00 PM 18.78 65.804 7.34 14.72 -5
4/24/2023 3:30:00 PM 19.03 66.254 7.42 14.63 -5
4/24/2023 3:45:00 PM 18.52 65.336 7.39 14.69 -5
4/24/2023 4:00:00 PM 18.63 65.534 7.36 14.77 -5
4/24/2023 4:15:00 PM 18.91 66.038 7.38 14.74 -5
4/24/2023 4:30:00 PM 19.17 66.506 7.4 14.68 -5
4/24/2023 4:45:00 PM 18.52 65.336 7.32 14.72 -5
4/24/2023 5:00:00 PM 18.78 65.804 7.39 14.74 -5
4/24/2023 5:15:00 PM 19.03 66.254 7.42 14.76 -5
4/24/2023 5:30:00 PM 19.17 66.506 7.44 14.49 -5
4/24/2023 5:45:00 PM 18.63 65.534 7.43 14.55 -5
4/24/2023 6:00:00 PM 18.91 66.038 7.42 14.64 -5
4/24/2023 6:15:00 PM 19.29 66.722 7.47 14.78 -5
4/24/2023 6:30:00 PM 19.41 66.938 7.43 14.81 -5
4/24/2023 6:45:00 PM 18.52 65.336 7.3 14.9 -5
4/24/2023 7:00:00 PM 18.78 65.804 7.25 14.99 -5
4/24/2023 7:15:00 PM 19.04 66.272 7.24 15.25 -5
4/24/2023 7:30:00 PM 19.29 66.722 7.16 15.18 -5
4/24/2023 7:45:00 PM 19.29 66.722 7.12 15.09 -5
4/24/2023 8:00:00 PM 19.29 66.722 7.11 15.15 -5
4/24/2023 8:15:00 PM 18.52 65.336 7.09 15.2 -5
4/24/2023 8:30:00 PM 18.63 65.534 7.08 16.37 -5
4/24/2023 8:45:00 PM 18.78 65.804 7.07 16.15 -5
4/24/2023 9:00:00 PM 19.04 66.272 7.1 16.24 -5
4/24/2023 9:15:00 PM 19.17 66.506 7.11 16.09 -5
4/24/2023 9:30:00 PM 19.29 66.722 7.12 15.95 -5
4/24/2023 9:45:00 PM 19.04 66.272 7.12 15.7 -5
4/24/2023 10:00:00 PM 18.52 65.336 7.11 15.66 -5
4/24/2023 10:15:00 PM 18.78 65.804 7.14 15.53 -5
4/24/2023 10:30:00 PM 19.17 66.506 7.17 15.24 -5
4/24/2023 10:45:00 PM 18.91 66.038 7.16 15.31 -5
4/24/2023 11:00:00 PM 18.4 65.12 7.12 15.19 -5
4/24/2023 11:15:00 PM 18.78 65.804 7.13 15.18 -5
4/24/2023 11:30:00 PM 18.91 66.038 7.16 14.99 -5
4/24/2023 11:45:00 PM 18.26 64.868 7.15 15.01 -5
4/25/2023 12:00:00 AM 18.78 65.804 7.19 14.96 -5
4/25/2023 12:15:00 AM 18.91 66.038 7.18 15.07 -5
4/25/2023 12:30:00 AM 18.78 65.804 7.15 14.91 -5
4/25/2023 12:45:00 AM 18.41 65.138 7.1 15.08 -5
4/25/2023 1:00:00 AM 18.78 65.804 7.09 15.13 -5
4/25/2023 1:15:00 AM 19.03 66.254 7.1 15.1 -5
4/25/2023 1:30:00 AM 18.26 64.868 7.09 15.15 -5
4/25/2023 1:45:00 AM 18.63 65.534 7.11 15.04 -5
4/25/2023 2:00:00 AM 18.78 65.804 7.12 15 -5
4/25/2023 2:15:00 AM 19.03 66.254 7.12 15 -5
4/25/2023 2:30:00 AM 18.14 64.652 7.09 14.96 -5
4/25/2023 2:45:00 AM 18.54 65.372 7.1 14.84 -5
4/25/2023 3:00:00 AM 18.78 65.804 7.13 14.86 -5
4/25/2023 3:15:00 AM 18.91 66.038 7.15 14.83 -5
4/25/2023 3:30:00 AM 18.14 64.652 7.13 14.91 -5
4/25/2023 3:45:00 AM 18.52 65.336 7.12 14.77 -5
4/25/2023 4:00:00 AM 18.78 65.804 7.16 14.91 -5
4/25/2023 4:15:00 AM 18.78 65.804 7.21 14.84 -5
4/25/2023 4:30:00 AM 18.52 65.336 7.2 14.72 -5
4/25/2023 4:45:00 AM 18.14 64.652 7.18 14.78 -5
4/25/2023 5:00:00 AM 18.52 65.336 7.16 14.76 -5
4/25/2023 5:15:00 AM 18.78 65.804 7.17 14.89 -5
4/25/2023 5:30:00 AM 18.78 65.804 7.16 14.9 -5
4/25/2023 5:45:00 AM 18.78 65.804 7.15 14.77 -5
4/25/2023 6:00:00 AM 18.78 65.804 7.16 14.8 -5
4/25/2023 6:15:00 AM 18.03 64.454 7.13 14.9 -5
4/25/2023 6:30:00 AM 18.26 64.868 7.13 14.82 -5
4/25/2023 6:45:00 AM 18.41 65.138 7.15 14.7 -5
4/25/2023 7:00:00 AM 18.63 65.534 7.18 14.65 -5
4/25/2023 7:15:00 AM 18.63 65.534 7.45 14.7 -5
4/25/2023 7:30:00 AM 18.63 65.534 7.42 14.72 -5
4/25/2023 7:45:00 AM 18.63 65.534 7.41 14.69 -5
4/25/2023 8:00:00 AM 18.78 65.804 7.43 14.63 -5
4/25/2023 8:15:00 AM 18.63 65.534 7.47 14.4 -5
4/25/2023 8:30:00 AM 18.63 65.534 7.52 14.08 -5
4/25/2023 8:45:00 AM 18.52 65.336 7.54 14.03 -5
4/25/2023 9:00:00 AM 18.52 65.336 7.56 13.86 -5
4/25/2023 9:15:00 AM 18.41 65.138 7.6 13.96 -5
4/25/2023 9:30:00 AM 18.41 65.138 7.62 13.74 -5
4/25/2023 9:45:00 AM 18.41 65.138 7.65 13.59 -5
4/25/2023 10:00:00 AM 18.26 64.868 7.68 13.43 -5
4/25/2023 10:15:00 AM 18.41 65.138 7.7 13.42 -5
4/25/2023 10:30:00 AM 18.41 65.138 7.69 13.15 -5
4/25/2023 10:45:00 AM 18.41 65.138 7.7 13.09 -5
4/25/2023 11:00:00 AM 18.52 65.336 7.69 13.79 -5
4/25/2023 11:15:00 AM 18.63 65.534 7.77 13.65 -5
4/25/2023 11:30:00 AM 18.63 65.534 7.77 13.52 -5
4/25/2023 11:45:00 AM 18.78 65.804 7.91 13.42 -5
4/25/2023 12:00:00 PM 18.78 65.804 7.96 13.41 -5
4/25/2023 12:15:00 PM 18.78 65.804 7.99 12.82 -5
4/25/2023 12:30:00 PM 18.78 65.804 7.89 12.85 -5
4/25/2023 12:45:00 PM 18.78 65.804 7.84 13.02 -5
4/25/2023 1:00:00 PM 18.78 65.804 7.89 13.61 -5
4/25/2023 1:15:00 PM 18.91 66.038 7.86 12.91 -5
4/25/2023 1:30:00 PM 18.03 64.454 7.9 12.94 -5
4/25/2023 1:45:00 PM 18.4 65.12 7.9 13.1 -5
4/25/2023 2:00:00 PM 18.78 65.804 7.91 13.13 -5
4/25/2023 2:15:00 PM 18.78 65.804 7.86 499.82 -5
4/25/2023 2:30:00 PM 18.91 66.038 7.13 12.87 -5
4/25/2023 2:45:00 PM 19.04 66.272 7.13 12.81 -5
4/25/2023 3:00:00 PM 19.04 66.272 7.13 12.94 -5
4/25/2023 3:15:00 PM 19.17 66.506 7.13 12.68 -5
4/25/2023 3:30:00 PM 18.41 65.138 7.13 12.63 -5
4/25/2023 3:45:00 PM 18.78 65.804 7.13 12.64 -5
4/25/2023 4:00:00 PM 19.03 66.254 7.13 12.54 -5
4/25/2023 4:15:00 PM 19.17 66.506 7.13 12.55 -5
4/25/2023 4:30:00 PM 18.4 65.12 7.13 12.53 -5
4/25/2023 4:45:00 PM 18.78 65.804 7.13 12.75 -5
4/25/2023 5:00:00 PM 19.03 66.254 7.13 12.63 -5
4/25/2023 5:15:00 PM 18.52 65.336 7.13 12.83 -5
4/25/2023 5:30:00 PM 18.78 65.804 7.13 12.62 -5
4/25/2023 5:45:00 PM 19.03 66.254 7.13 13.02 -5
4/25/2023 6:00:00 PM 18.26 64.868 7.13 12.84 -5
4/25/2023 6:15:00 PM 18.78 65.804 7.13 13.6 -5
4/25/2023 6:30:00 PM 19.03 66.254 7.13 13.12 -5
4/25/2023 6:45:00 PM 18.4 65.12 7.13 12.94 -5
4/25/2023 7:00:00 PM 18.78 65.804 7.13 12.99 -5
4/25/2023 7:15:00 PM 18.91 66.038 7.13 13.18 -5
4/25/2023 7:30:00 PM 18.63 65.534 7.13 13.2 -5
4/25/2023 7:45:00 PM 19.03 66.254 7.13 13.21 -5
4/25/2023 8:00:00 PM 18.63 65.534 7.13 13.08 -5
4/25/2023 8:15:00 PM 18.78 65.804 7.13 13.36 -5
4/25/2023 8:30:00 PM 19.17 66.506 7.13 13.11 -5
4/25/2023 8:45:00 PM 18.52 65.336 7.13 13.29 -5
4/25/2023 9:00:00 PM 18.78 65.804 7.13 13.63 -5
4/25/2023 9:15:00 PM 19.17 66.506 7.13 13.64 -5
4/25/2023 9:30:00 PM 18.4 65.12 7.13 13.56 -5
4/25/2023 9:45:00 PM 18.78 65.804 7.13 13.47 -5
4/25/2023 10:00:00 PM 18.91 66.038 7.13 13.42 -5
4/25/2023 10:15:00 PM 18.52 65.336 7.13 13.42 -5
4/25/2023 10:30:00 PM 18.91 66.038 7.13 13.09 -5
4/25/2023 10:45:00 PM 18.91 66.038 7.13 13.06 -5
4/25/2023 11:00:00 PM 18.52 65.336 7.13 13.03 -5
4/25/2023 11:15:00 PM 18.91 66.038 7.13 13.11 -5
4/25/2023 11:30:00 PM 18.91 66.038 7.13 13.06 -5
4/25/2023 11:45:00 PM 18.52 65.336 7.13 13.17 -5
4/26/2023 12:00:00 AM 18.91 66.038 7.13 13.21 -5
4/26/2023 12:15:00 AM 19.17 66.506 7.13 13.21 -5
4/26/2023 12:30:00 AM 18.4 65.12 7.13 12.78 -5
4/26/2023 12:45:00 AM 18.78 65.804 7.13 12.7 -5
4/26/2023 1:00:00 AM 19.04 66.272 7.13 13.2 -5
4/26/2023 1:15:00 AM 18.26 64.868 7.13 13.2 -5
4/26/2023 1:30:00 AM 18.63 65.534 7.13 12.99 -5
4/26/2023 1:45:00 AM 18.91 66.038 7.13 13.03 -5
4/26/2023 2:00:00 AM 19.17 66.506 7.13 13.07 -5
4/26/2023 2:15:00 AM 18.41 65.138 7.13 13.27 -5
4/26/2023 2:30:00 AM 18.78 65.804 7.13 13.16 -5
4/26/2023 2:45:00 AM 19.03 66.254 7.13 13.21 -5
4/26/2023 3:00:00 AM 18.78 65.804 7.13 13.19 -5
4/26/2023 3:15:00 AM 18.41 65.138 7.13 13.24 -5
4/26/2023 3:30:00 AM 18.78 65.804 7.13 13.09 -5
4/26/2023 3:45:00 AM 18.91 66.038 7.13 13.06 -5
4/26/2023 4:00:00 AM 18.14 64.652 7.13 13.17 -5
4/26/2023 4:15:00 AM 18.63 65.534 7.13 13.31 -5
4/26/2023 4:30:00 AM 18.78 65.804 7.13 13.18 -5
4/26/2023 4:45:00 AM 18.91 66.038 7.13 13.24 -5
4/26/2023 5:00:00 AM 18.26 64.868 7.13 13.32 -5
4/26/2023 5:15:00 AM 18.78 65.804 7.13 13.51 -5
4/26/2023 5:30:00 AM 18.91 66.038 7.13 13.47 -5
4/26/2023 5:45:00 AM 18.26 64.868 7.13 13.64 -5
4/26/2023 6:00:00 AM 18.52 65.336 7.13 13.22 -5
4/26/2023 6:15:00 AM 18.78 65.804 7.13 13.79 -5
4/26/2023 6:30:00 AM 18.78 65.804 7.13 13.67 -5
4/26/2023 6:45:00 AM 18.03 64.454 7.13 13.56 -5
4/26/2023 7:00:00 AM 18.52 65.336 7.13 13.66 -5
4/26/2023 7:15:00 AM 18.78 65.804 7.13 13.64 -5
4/26/2023 7:30:00 AM 18.52 65.336 7.13 13.37 -5
4/26/2023 7:45:00 AM 18.14 64.652 7.13 13.23 -5
4/26/2023 8:00:00 AM 18.52 65.336 7.13 12.71 -5
4/26/2023 8:15:00 AM 18.63 65.534 7.13 13.02 -5
4/26/2023 8:30:00 AM 18.63 65.534 7.13 12.66 -5
4/26/2023 8:45:00 AM 17.9 64.22 7.13 10.32 -5
4/26/2023 9:00:00 AM 18.14 64.652 7.13 10.29 -5
4/26/2023 9:15:00 AM 18.41 65.138 7.13 10.13 -5
4/26/2023 9:30:00 AM 18.41 65.138 7.13 10.3 -5
4/26/2023 9:45:00 AM 18.52 65.336 7.13 10.32 -5
4/26/2023 10:00:00 AM 18.52 65.336 7.13 10.41 -5
4/26/2023 10:15:00 AM 18.63 65.534 7.13 10.98 -5
4/26/2023 10:30:00 AM 18.26 64.868 7.13 10.79 -5
4/26/2023 10:45:00 AM 17.9 64.22 7.13 10.79 -5
4/26/2023 11:00:00 AM 18.26 64.868 7.13 10.78 -5
4/26/2023 11:15:00 AM 18.52 65.336 7.13 10.82 -5
4/26/2023 11:30:00 AM 18.63 65.534 7.13 10.87 -5
4/26/2023 11:45:00 AM 18.78 65.804 7.13 10.9 -5
4/26/2023 12:00:00 PM 18.03 64.454 7.13 11.12 -5
4/26/2023 12:15:00 PM 18.41 65.138 7.13 11.05 -5
4/26/2023 12:30:00 PM 18.63 65.534 7.13 11.15 -5
4/26/2023 12:45:00 PM 18.78 65.804 7.13 11.28 -5
4/26/2023 1:00:00 PM 18.14 64.652 7.13 11.17 -5
4/26/2023 1:15:00 PM 18.52 65.336 7.13 11.08 -5
4/26/2023 1:30:00 PM 18.78 65.804 7.13 11.02 -5
4/26/2023 1:45:00 PM 18.91 66.038 7.13 11.11 -5
4/26/2023 2:00:00 PM 18.26 64.868 7.13 11.11 -5
4/26/2023 2:15:00 PM 18.78 65.804 7.13 12.84 -5
4/26/2023 2:30:00 PM 19.03 66.254 7.13 12.21 -5
4/26/2023 2:45:00 PM 18.52 65.336 7.13 12.15 -5
4/26/2023 3:00:00 PM 18.78 65.804 7.13 12.22 -5
4/26/2023 3:15:00 PM 19.03 66.254 7.13 12.24 -5
4/26/2023 3:30:00 PM 18.52 65.336 7.13 12.33 -5
4/26/2023 3:45:00 PM 18.78 65.804 7.13 12.34 -5
4/26/2023 4:00:00 PM 19.17 66.506 7.13 12.35 -5
4/26/2023 4:15:00 PM 18.52 65.336 7.13 12.4 -5
4/26/2023 4:30:00 PM 18.91 66.038 7.13 12.47 -5
4/26/2023 4:45:00 PM 18.63 65.534 7.13 12.44 -5
4/26/2023 5:00:00 PM 18.78 65.804 7.13 12.59 -5
4/26/2023 5:15:00 PM 19.16 66.488 7.13 12.54 -5
4/26/2023 5:30:00 PM 18.52 65.336 7.13 12.61 -5
4/26/2023 5:45:00 PM 19.03 66.254 7.13 12.63 -5
4/26/2023 6:00:00 PM 18.78 65.804 7.13 12.71 -5
4/26/2023 6:15:00 PM 18.78 65.804 7.13 12.77 -5
4/26/2023 6:30:00 PM 19.29 66.722 7.13 12.98 -5
4/26/2023 6:45:00 PM 18.63 65.534 7.13 13.14 -5
4/26/2023 7:00:00 PM 19.03 66.254 7.13 13.36 -5
4/26/2023 7:15:00 PM 18.78 65.804 7.13 13.33 -5
4/26/2023 7:30:00 PM 18.91 66.038 7.13 13.87 -5
4/26/2023 7:45:00 PM 19.17 66.506 7.13 13.55 -5
4/26/2023 8:00:00 PM 18.63 65.534 7.13 13.63 -5
4/26/2023 8:15:00 PM 19.16 66.488 7.13 13.74 -5
4/26/2023 8:30:00 PM 18.63 65.534 7.13 13.63 -5
4/26/2023 8:45:00 PM 19.03 66.254 7.13 13.41 -5
4/26/2023 9:00:00 PM 18.91 66.038 7.13 13.47 -5
4/26/2023 9:15:00 PM 18.78 65.804 7.13 13.45 -5
4/26/2023 9:30:00 PM 19.29 66.722 7.13 13.79 -5
4/26/2023 9:45:00 PM 18.52 65.336 7.13 13.83 -5
4/26/2023 10:00:00 PM 19.04 66.272 7.13 13.79 -5
4/26/2023 10:15:00 PM 18.78 65.804 7.13 13.66 -5
4/26/2023 10:30:00 PM 18.78 65.804 7.13 13.88 -5
4/26/2023 10:45:00 PM 19.17 66.506 7.13 13.92 -5
4/26/2023 11:00:00 PM 18.52 65.336 7.13 13.77 -5
4/26/2023 11:15:00 PM 19.03 66.254 7.13 13.87 -5
4/26/2023 11:30:00 PM 18.63 65.534 7.13 13.74 -5
4/26/2023 11:45:00 PM 18.78 65.804 7.13 13.87 -5
4/27/2023 12:00:00 AM 19.29 66.722 7.13 13.98 -5
4/27/2023 12:15:00 AM 18.63 65.534 7.13 14.25 -5
4/27/2023 12:30:00 AM 19.17 66.506 7.13 14.24 -5
4/27/2023 12:45:00 AM 18.91 66.038 7.13 14.36 -5
4/27/2023 1:00:00 AM 18.91 66.038 7.13 14.46 -5
4/27/2023 1:15:00 AM 19.41 66.938 7.13 14.47 -5
4/27/2023 1:30:00 AM 18.63 65.534 7.13 14.66 -5
4/27/2023 1:45:00 AM 19.17 66.506 7.13 14.65 -5
4/27/2023 2:00:00 AM 19.17 66.506 7.13 14.48 -5
4/27/2023 2:15:00 AM 18.78 65.804 7.13 14.61 -5
4/27/2023 2:30:00 AM 19.17 66.506 7.13 14.57 -5
4/27/2023 2:45:00 AM 18.78 65.804 7.13 14.62 -5
4/27/2023 3:00:00 AM 18.78 65.804 7.13 14.83 -5
4/27/2023 3:15:00 AM 19.29 66.722 7.13 14.68 -5
4/27/2023 3:30:00 AM 18.78 65.804 7.13 14.8 -5
4/27/2023 3:45:00 AM 18.91 66.038 7.13 14.95 -5
4/27/2023 4:00:00 AM 19.41 66.938 7.13 14.92 -5
4/27/2023 4:15:00 AM 18.78 65.804 7.13 14.61 -5
4/27/2023 4:30:00 AM 18.78 65.804 7.13 14.71 -5
4/27/2023 4:45:00 AM 19.29 66.722 7.13 14.94 -5
4/27/2023 5:00:00 AM 19.41 66.938 7.13 15.1 -5
4/27/2023 5:15:00 AM 18.78 65.804 7.13 14.97 -5
4/27/2023 5:30:00 AM 19.17 66.506 7.13 15.08 -5
4/27/2023 5:45:00 AM 19.54 67.172 7.13 15.12 -5
4/27/2023 6:00:00 AM 18.78 65.804 7.13 15.26 -5
4/27/2023 6:15:00 AM 18.91 66.038 7.13 16.18 -5
4/27/2023 6:30:00 AM 19.41 66.938 7.13 16.02 -5
4/27/2023 6:45:00 AM 19.29 66.722 8.44 15.05 -5
4/27/2023 7:00:00 AM 19.41 66.938 8.39 15.06 -5
4/27/2023 7:15:00 AM 18.52 65.336 8.39 15.34 -5
4/27/2023 7:30:00 AM 18.91 66.038 8.35 15.02 -5
4/27/2023 7:45:00 AM 19.29 66.722 8.1 14.99 -5
4/27/2023 8:00:00 AM 18.63 65.534 8.32 14.72 -5
4/27/2023 8:15:00 AM 18.78 65.804 8.34 14.71 -5
4/27/2023 8:30:00 AM 19.17 66.506 8.34 14.77 -5
4/27/2023 8:45:00 AM 18.91 66.038 8.33 14.82 -5
4/27/2023 9:00:00 AM 18.78 65.804 8.33 15.01 -5
4/27/2023 9:15:00 AM 19.17 66.506 8.36 14.74 -5
4/27/2023 9:30:00 AM 19.17 66.506 8.36 14.59 -5
4/27/2023 9:45:00 AM 18.63 65.534 8.37 14.76 -5
4/27/2023 10:00:00 AM 19.04 66.272 8.36 14.83 -5
4/27/2023 10:15:00 AM 19.29 66.722 8.37 14.59 -5
4/27/2023 10:30:00 AM 18.52 65.336 8.37 14.44 -5
4/27/2023 10:45:00 AM 18.91 66.038 8.36 14.03 -5
4/27/2023 11:00:00 AM 19.17 66.506 8.38 13.95 -5
4/27/2023 11:15:00 AM 18.52 65.336 8.38 14.03 -5
4/27/2023 11:30:00 AM 18.91 66.038 8.38 14.04 -5
4/27/2023 11:45:00 AM 19.29 66.722 8.39 14.11 -5
4/27/2023 12:00:00 PM 18.52 65.336 8.45 14.08 -5
4/27/2023 12:15:00 PM 18.91 66.038 8.47 14.06 -5
4/27/2023 12:30:00 PM 19.41 66.938 8.49 14.59 -5
4/27/2023 12:45:00 PM 18.78 65.804 8.49 14.6 -5
4/27/2023 1:00:00 PM 19.17 66.506 8.54 14.59 -5
4/27/2023 1:15:00 PM 19.41 66.938 8.56 14.65 -5
4/27/2023 1:30:00 PM 18.91 66.038 8.56 14.6 -5
4/27/2023 1:45:00 PM 19.41 66.938 8.61 14.67 -5
4/27/2023 2:00:00 PM 19.29 66.722 8.61 14.72 -5
4/27/2023 2:15:00 PM 19.29 66.722 8.61 14.79 -5
4/27/2023 2:30:00 PM 19.78 67.604 8.68 15.37 -5
4/27/2023 2:45:00 PM 19.03 66.254 8.68 15.27 -5
4/27/2023 3:00:00 PM 19.67 67.406 8.72 15.13 -5
4/27/2023 3:15:00 PM 19.41 66.938 8.74 15.47 -5
4/27/2023 3:30:00 PM 19.54 67.172 8.75 15.36 -5
4/27/2023 3:45:00 PM 19.92 67.856 8.8 15.29 -5
4/27/2023 4:00:00 PM 19.54 67.172 8.79 15.52 -5
4/27/2023 4:15:00 PM 20.04 68.07201 8.81 15.22 -5
4/27/2023 4:30:00 PM 19.41 66.938 8.8 15.38 -5
4/27/2023 4:45:00 PM 19.92 67.856 8.82 15.43 -5
4/27/2023 5:00:00 PM 19.41 66.938 8.8 15.59 -5
4/27/2023 5:15:00 PM 19.67 67.406 8.8 15.5 -5
4/27/2023 5:30:00 PM 19.67 67.406 8.81 15.53 -5
4/27/2023 5:45:00 PM 19.41 66.938 8.77 15.65 -5
4/27/2023 6:00:00 PM 19.92 67.856 8.82 15.74 -5
4/27/2023 6:15:00 PM 19.29 66.722 8.81 15.61 -5
4/27/2023 6:30:00 PM 19.92 67.856 8.79 15.61 -5
4/27/2023 6:45:00 PM 19.17 66.506 8.79 16.02 -5
4/27/2023 7:00:00 PM 19.78 67.604 8.84 16.04 -5
4/27/2023 7:15:00 PM 19.17 66.506 8.81 16.32 -5
4/27/2023 7:30:00 PM 19.67 67.406 8.82 16.23 -5
4/27/2023 7:45:00 PM 19.29 66.722 8.83 16.56 -5
4/27/2023 8:00:00 PM 19.67 67.406 8.75 16.49 -5
4/27/2023 8:15:00 PM 19.54 67.172 8.7 16.23 -5
4/27/2023 8:30:00 PM 19.41 66.938 8.26 16.48 -5
4/27/2023 8:45:00 PM 19.78 67.604 8.55 16.36 -5
4/27/2023 9:00:00 PM 19.41 66.938 8.51 16.63 -5
4/27/2023 9:15:00 PM 19.92 67.856 8.69 16.53 -5
4/27/2023 9:30:00 PM 19.17 66.506 8.72 16.42 -5
4/27/2023 9:45:00 PM 19.78 67.604 8.67 16.29 -5
4/27/2023 10:00:00 PM 19.16 66.488 8.62 16.12 -5
4/27/2023 10:15:00 PM 19.67 67.406 8.74 16.02 -5
4/27/2023 10:30:00 PM 19.54 67.172 8.7 16.05 -5
4/27/2023 10:45:00 PM 19.54 67.172 8.64 16.08 -5
4/27/2023 11:00:00 PM 19.78 67.604 8.33 16.25 -5
4/27/2023 11:15:00 PM 19.41 66.938 8.47 16.08 -5
4/27/2023 11:30:00 PM 20.04 68.07201 7.91 15.54 -5
4/27/2023 11:45:00 PM 19.29 66.722 7.72 15.27 -5
4/28/2023 12:00:00 AM 19.78 67.604 7.62 15.95 -5
4/28/2023 12:15:00 AM 19.54 67.172 7.67 15.87 -5
4/28/2023 12:30:00 AM 19.54 67.172 7.72 16 -5
4/28/2023 12:45:00 AM 19.92 67.856 7.6 16.02 -5
4/28/2023 1:00:00 AM 19.41 66.938 7.61 15.91 -5
4/28/2023 1:15:00 AM 19.92 67.856 7.64 15.83 -5
4/28/2023 1:30:00 AM 19.29 66.722 8.26 15.92 -5
4/28/2023 1:45:00 AM 19.67 67.406 8.41 16.06 -5
4/28/2023 2:00:00 AM 19.67 67.406 8.21 16.17 -5
4/28/2023 2:15:00 AM 19.41 66.938 7.79 16.21 -5
4/28/2023 2:30:00 AM 20.04 68.07201 7.71 16.1 -5
4/28/2023 2:45:00 AM 19.17 66.506 7.65 16.62 -5
4/28/2023 3:00:00 AM 19.67 67.406 7.59 16.68 -5
4/28/2023 3:15:00 AM 19.54 67.172 7.55 16.41 -5
4/28/2023 3:30:00 AM 19.29 66.722 7.58 16.46 -5
4/28/2023 3:45:00 AM 19.92 67.856 7.55 16.29 -5
4/28/2023 4:00:00 AM 19.03 66.254 7.64 16.52 -5
4/28/2023 4:15:00 AM 19.54 67.172 7.6 16.39 -5
4/28/2023 4:30:00 AM 19.67 67.406 7.6 16.47 -5
4/28/2023 4:45:00 AM 19.29 66.722 7.53 16.54 -5
4/28/2023 5:00:00 AM 19.78 67.604 7.57 17.01 -5
4/28/2023 5:15:00 AM 19.03 66.254 7.53 16.88 -5
4/28/2023 5:30:00 AM 19.54 67.172 7.68 16.99 -5
4/28/2023 5:45:00 AM 19.54 67.172 7.72 16.23 -5
4/28/2023 6:00:00 AM 19.17 66.506 7.64 16.41 -5
4/28/2023 6:15:00 AM 19.54 67.172 7.67 16.27 -5
4/28/2023 6:30:00 AM 19.29 66.722 7.75 16.32 -5
4/28/2023 6:45:00 AM 19.03 66.254 7.78 17.22 -5
4/28/2023 7:00:00 AM 19.54 67.172 7.69 16.91 -5
4/28/2023 7:15:00 AM 18.91 66.038 8.92 16.64 -5
4/28/2023 7:30:00 AM 19.17 66.506 8.95 16.53 -5
4/28/2023 7:45:00 AM 19.54 67.172 8.95 16.4 -5
4/28/2023 8:00:00 AM 18.78 65.804 8.91 16.48 -5
4/28/2023 8:15:00 AM 19.03 66.254 8.9 16.04 -5
4/28/2023 8:30:00 AM 19.41 66.938 8.88 16.06 -5
4/28/2023 8:45:00 AM 18.78 65.804 8.86 15.6 -5
4/28/2023 9:00:00 AM 19.03 66.254 8.83 16.25 -5
4/28/2023 9:15:00 AM 19.41 66.938 8.83 15.64 -5
4/28/2023 9:30:00 AM 18.63 65.534 8.81 15.69 -5
4/28/2023 9:45:00 AM 18.91 66.038 8.78 15.82 -5
4/28/2023 10:00:00 AM 19.29 66.722 8.75 15.79 -5
4/28/2023 10:15:00 AM 19.03 66.254 8.74 15.15 -5
4/28/2023 10:30:00 AM 18.78 65.804 8.72 15.2 -5
4/28/2023 10:45:00 AM 19.03 66.254 8.7 15.36 -5
4/28/2023 11:00:00 AM 19.41 66.938 8.69 15.24 -5
4/28/2023 11:15:00 AM 18.63 65.534 8.69 15.47 -5
4/28/2023 11:30:00 AM 18.78 65.804 8.7 15.44 -5
4/28/2023 11:45:00 AM 19.17 66.506 8.69 15.58 -5
4/28/2023 12:00:00 PM 19.29 66.722 8.69 15.31 -5
4/28/2023 12:15:00 PM 18.52 65.336 8.69 15.39 -5
4/28/2023 12:30:00 PM 18.78 65.804 8.69 15.48 -5
4/28/2023 12:45:00 PM 19.03 66.254 8.68 15.51 -5
4/28/2023 1:00:00 PM 19.29 66.722 8.68 15.47 -5
4/28/2023 1:15:00 PM 18.78 65.804 8.68 15.4 -5
4/28/2023 1:30:00 PM 18.78 65.804 8.44 18.94 -5
4/28/2023 1:45:00 PM 19.03 66.254 8.64 15.92 -5
4/28/2023 2:00:00 PM 19.29 66.722 8.67 16.55 -5
4/28/2023 2:15:00 PM 19.41 66.938 8.7 16.14 -5
4/28/2023 2:30:00 PM 18.78 65.804 8.72 16.07 -5
4/28/2023 2:45:00 PM 18.78 65.804 8.73 15.95 -5
4/28/2023 3:00:00 PM 19.03 66.254 8.75 15.72 -5
4/28/2023 3:15:00 PM 19.29 66.722 8.76 15.93 -5
4/28/2023 3:30:00 PM 19.41 66.938 8.79 16.2 -5
4/28/2023 3:45:00 PM 18.63 65.534 8.8 16.08 -5
4/28/2023 4:00:00 PM 18.91 66.038 8.81 15.54 -5
4/28/2023 4:15:00 PM 19.29 66.722 8.82 15.42 -5
4/28/2023 4:30:00 PM 19.41 66.938 8.81 16.01 -5
4/28/2023 4:45:00 PM 18.78 65.804 8.82 16.03 -5
4/28/2023 5:00:00 PM 18.78 65.804 8.84 15.8 -5
4/28/2023 5:15:00 PM 19.03 66.254 8.84 15.9 -5
4/28/2023 5:30:00 PM 19.29 66.722 8.84 15.8 -5
4/28/2023 5:45:00 PM 19.41 66.938 8.85 16.03 -5
4/28/2023 6:00:00 PM 18.63 65.534 8.83 15.86 -5
4/28/2023 6:15:00 PM 18.91 66.038 8.83 15.93 -5
4/28/2023 6:30:00 PM 19.29 66.722 8.82 15.96 -5
4/28/2023 6:45:00 PM 19.41 66.938 8.82 15.86 -5
4/28/2023 7:00:00 PM 18.63 65.534 8.79 15.76 -5
4/28/2023 7:15:00 PM 18.78 65.804 8.78 15.62 -5
4/28/2023 7:30:00 PM 19.17 66.506 8.76 15.74 -5
4/28/2023 7:45:00 PM 19.41 66.938 8.78 15.72 -5
4/28/2023 8:00:00 PM 18.63 65.534 8.77 15.65 -5
4/28/2023 8:15:00 PM 18.63 65.534 8.77 15.66 -5
4/28/2023 8:30:00 PM 18.91 66.038 8.76 15.69 -5
4/28/2023 8:45:00 PM 19.29 66.722 8.74 15.8 -5
4/28/2023 9:00:00 PM 19.29 66.722 8.71 15.66 -5
4/28/2023 9:15:00 PM 18.78 65.804 8.73 15.68 -5
4/28/2023 9:30:00 PM 18.63 65.534 8.72 15.63 -5
4/28/2023 9:45:00 PM 18.91 66.038 8.71 16.44 -5
4/28/2023 10:00:00 PM 19.29 66.722 8.7 16.18 -5
4/28/2023 10:15:00 PM 19.29 66.722 8.72 16.04 -5
4/28/2023 10:30:00 PM 18.41 65.138 8.69 15.88 -5
4/28/2023 10:45:00 PM 18.77 65.786 8.69 15.86 -5
4/28/2023 11:00:00 PM 19.16 66.488 8.69 15.74 -5
4/28/2023 11:15:00 PM 19.29 66.722 8.69 15.68 -5
4/28/2023 11:30:00 PM 18.78 65.804 8.67 15.51 -5
4/28/2023 11:45:00 PM 18.63 65.534 8.68 15.46 -5
4/29/2023 12:00:00 AM 18.91 66.038 8.66 14.66 -5
4/29/2023 12:15:00 AM 19.03 66.254 8.66 14.79 -5
4/29/2023 12:30:00 AM 19.16 66.488 8.64 14.46 -5
4/29/2023 12:45:00 AM 19.03 66.254 8.61 14.51 -5
4/29/2023 1:00:00 AM 18.41 65.138 8.61 14.59 -5
4/29/2023 1:15:00 AM 18.78 65.804 8.6 14.62 -5
4/29/2023 1:30:00 AM 18.91 66.038 8.58 15.28 -5
4/29/2023 1:45:00 AM 19.03 66.254 8.58 15.11 -5
4/29/2023 2:00:00 AM 19.17 66.506 8.55 14.97 -5
4/29/2023 2:15:00 AM 19.17 66.506 8.56 14.83 -5
4/29/2023 2:30:00 AM 18.77 65.786 8.53 14.67 -5
4/29/2023 2:45:00 AM 18.4 65.12 8.51 14.74 -5
4/29/2023 3:00:00 AM 18.78 65.804 8.5 14.76 -5
4/29/2023 3:15:00 AM 18.91 66.038 8.5 14.69 -5
4/29/2023 3:30:00 AM 19.04 66.272 8.49 14.8 -5
4/29/2023 3:45:00 AM 19.17 66.506 8.47 14.9 -5
4/29/2023 4:00:00 AM 18.26 64.868 8.44 14.78 -5
4/29/2023 4:15:00 AM 18.52 65.336 8.43 14.8 -5
4/29/2023 4:30:00 AM 18.78 65.804 8.41 14.71 -5
4/29/2023 4:45:00 AM 19.03 66.254 8.41 14.77 -5
4/29/2023 5:00:00 AM 19.17 66.506 8.37 13.98 -5
4/29/2023 5:15:00 AM 18.91 66.038 8.36 14.01 -5
4/29/2023 5:30:00 AM 18.14 64.652 8.36 14.06 -5
4/29/2023 5:45:00 AM 18.52 65.336 8.34 14.07 -5
4/29/2023 6:00:00 AM 18.78 65.804 8.32 13.95 -5
4/29/2023 6:15:00 AM 18.78 65.804 8.29 15.44 -5
4/29/2023 6:30:00 AM 19.04 66.272 8.3 14.79 -5
4/29/2023 6:45:00 AM 19.04 66.272 8.29 14.82 -5
4/29/2023 7:00:00 AM 18.63 65.534 8.26 14.96 -5
4/29/2023 7:15:00 AM 18.4 65.12 8.27 14.73 -5
4/29/2023 7:30:00 AM 18.78 65.804 8.27 14.78 -5
4/29/2023 7:45:00 AM 19.03 66.254 8.27 14.77 -5
4/29/2023 8:00:00 AM 18.78 65.804 8.27 14.56 -5
4/29/2023 8:15:00 AM 18.26 64.868 8.26 14.44 -5
4/29/2023 8:30:00 AM 18.63 65.534 8.27 13.88 -5
4/29/2023 8:45:00 AM 18.78 65.804 8.27 14.02 -5
4/29/2023 9:00:00 AM 19.03 66.254 8.29 13.83 -5
4/29/2023 9:15:00 AM 18.25 64.85 8.28 15.06 -5
4/29/2023 9:30:00 AM 18.26 64.868 8.3 13.9 -5
4/29/2023 9:45:00 AM 18.63 65.534 8.31 13.84 -5
4/29/2023 10:00:00 AM 18.78 65.804 8.33 13.77 -5
4/29/2023 10:15:00 AM 18.91 66.038 8.34 13.75 -5
4/29/2023 10:30:00 AM 18.03 64.454 8.34 13.64 -5
4/29/2023 10:45:00 AM 18.41 65.138 8.37 13.55 -5
4/29/2023 11:00:00 AM 18.63 65.534 8.37 13.36 -5
4/29/2023 11:15:00 AM 18.78 65.804 8.38 13.21 -5
4/29/2023 11:30:00 AM 18.91 66.038 8.4 13.33 -5
4/29/2023 11:45:00 AM 18.03 64.454 8.41 13.39 -5
4/29/2023 12:00:00 PM 18.41 65.138 8.44 13.39 -5
4/29/2023 12:15:00 PM 18.78 65.804 8.45 13.43 -5
4/29/2023 12:30:00 PM 18.78 65.804 8.46 13.36 -5
4/29/2023 12:45:00 PM 18.4 65.12 8.5 13.81 -5
4/29/2023 1:00:00 PM 18.26 64.868 8.53 13.93 -5
4/29/2023 1:15:00 PM 18.63 65.534 8.55 13.89 -5
4/29/2023 1:30:00 PM 18.91 66.038 8.59 13.81 -5
4/29/2023 1:45:00 PM 18.78 65.804 8.6 13.83 -5
4/29/2023 2:00:00 PM 18.26 64.868 8.62 13.87 -5
4/29/2023 2:15:00 PM 18.69 65.642 8.66 13.83 -5
4/29/2023 2:30:00 PM 18.91 66.038 8.67 13.74 -5
4/29/2023 2:45:00 PM 18.26 64.868 8.67 13.79 -5
4/29/2023 3:00:00 PM 18.41 65.138 8.71 13.81 -5
4/29/2023 3:15:00 PM 18.78 65.804 8.71 13.74 -5
4/29/2023 3:30:00 PM 18.81 65.858 8.71 13.7 -5
4/29/2023 3:45:00 PM 18.26 64.868 8.76 13.87 -5
4/29/2023 4:00:00 PM 18.78 65.804 8.79 13.76 -5
4/29/2023 4:15:00 PM 19.03 66.254 8.77 13.82 -5
4/29/2023 4:30:00 PM 18.26 64.868 8.79 13.79 -5
4/29/2023 4:45:00 PM 18.63 65.534 8.83 13.84 -5
4/29/2023 5:00:00 PM 18.91 66.038 8.86 13.74 -5
4/29/2023 5:15:00 PM 18.4 65.12 8.86 13.71 -5
4/29/2023 5:30:00 PM 18.78 65.804 8.88 13.79 -5
4/29/2023 5:45:00 PM 19.03 66.254 8.88 13.87 -5
4/29/2023 6:00:00 PM 18.4 65.12 8.89 13.84 -5
4/29/2023 6:15:00 PM 18.78 65.804 8.91 14.19 -5
4/29/2023 6:30:00 PM 19.03 66.254 8.91 14.14 -5
4/29/2023 6:45:00 PM 18.26 64.868 8.9 14.19 -5
4/29/2023 7:00:00 PM 18.63 65.534 8.94 14.2 -5
4/29/2023 7:15:00 PM 19.03 66.254 8.94 13.98 -5
4/29/2023 7:30:00 PM 18.41 65.138 8.98 13.99 -5
4/29/2023 7:45:00 PM 18.63 65.534 8.97 14.04 -5
4/29/2023 8:00:00 PM 19.03 66.254 8.98 13.95 -5
4/29/2023 8:15:00 PM 18.41 65.138 8.96 13.98 -5
4/29/2023 8:30:00 PM 18.63 65.534 8.95 14.06 -5
4/29/2023 8:45:00 PM 18.91 66.038 8.94 14.41 -5
4/29/2023 9:00:00 PM 18.41 65.138 8.94 14.16 -5
4/29/2023 9:15:00 PM 18.63 65.534 8.93 14.17 -5
4/29/2023 9:30:00 PM 18.91 66.038 8.91 14.22 -5
4/29/2023 9:45:00 PM 18.26 64.868 8.91 14.36 -5
4/29/2023 10:00:00 PM 18.52 65.336 8.93 14.32 -5
4/29/2023 10:15:00 PM 18.91 66.038 8.91 14.32 -5
4/29/2023 10:30:00 PM 18.4 65.12 8.92 14.32 -5
4/29/2023 10:45:00 PM 18.52 65.336 8.91 14.42 -5
4/29/2023 11:00:00 PM 18.91 66.038 8.91 14.12 -5
4/29/2023 11:15:00 PM 18.41 65.138 8.91 14.08 -5
4/29/2023 11:30:00 PM 18.63 65.534 8.87 14.09 -5
4/29/2023 11:45:00 PM 18.91 66.038 8.88 14.1 -5
4/30/2023 12:00:00 AM 18.52 65.336 8.87 14.01 -5
4/30/2023 12:15:00 AM 18.52 65.336 8.87 13.89 -5
4/30/2023 12:30:00 AM 18.91 66.038 8.86 14.06 -5
4/30/2023 12:45:00 AM 18.78 65.804 8.85 14 -5
4/30/2023 1:00:00 AM 18.52 65.336 8.85 13.92 -5
4/30/2023 1:15:00 AM 18.91 66.038 8.84 13.96 -5
4/30/2023 1:30:00 AM 18.77 65.786 8.85 13.99 -5
4/30/2023 1:45:00 AM 18.4 65.12 8.83 14.13 -5
4/30/2023 2:00:00 AM 18.78 65.804 8.83 13.91 -5
4/30/2023 2:15:00 AM 18.91 66.038 8.82 13.96 -5
4/30/2023 2:30:00 AM 18.26 64.868 8.79 14.12 -5
4/30/2023 2:45:00 AM 18.78 65.804 8.78 14.05 -5
4/30/2023 3:00:00 AM 19.03 66.254 8.77 14 -5
4/30/2023 3:15:00 AM 18.26 64.868 8.76 13.97 -5
4/30/2023 3:30:00 AM 18.63 65.534 8.73 13.94 -5
4/30/2023 3:45:00 AM 18.91 66.038 8.71 14.09 -5
4/30/2023 4:00:00 AM 18.26 64.868 8.69 13.87 -5
4/30/2023 4:15:00 AM 18.63 65.534 8.67 14.04 -5
4/30/2023 4:30:00 AM 18.91 66.038 8.65 14.09 -5
4/30/2023 4:45:00 AM 18.26 64.868 8.63 14.25 -5
4/30/2023 5:00:00 AM 18.4 65.12 8.58 14.07 -5
4/30/2023 5:15:00 AM 18.78 65.804 8.57 14.09 -5
4/30/2023 5:30:00 AM 18.78 65.804 8.55 14.04 -5
4/30/2023 5:45:00 AM 18.26 64.868 8.55 14.02 -5
4/30/2023 6:00:00 AM 18.78 65.804 8.51 14.02 -5
4/30/2023 6:15:00 AM 18.91 66.038 8.5 13.92 -5
4/30/2023 6:30:00 AM 18.14 64.652 8.5 14.07 -5
4/30/2023 6:45:00 AM 18.52 65.336 8.45 14.17 -5
4/30/2023 7:00:00 AM 18.78 65.804 8.46 14.26 -5
4/30/2023 7:15:00 AM 18.52 65.336 8.44 14.32 -5
4/30/2023 7:30:00 AM 18.26 64.868 8.42 14.7 -5
4/30/2023 7:45:00 AM 18.78 65.804 8.38 14.91 -5
4/30/2023 8:00:00 AM 18.78 65.804 8.38 14.75 -5
4/30/2023 8:15:00 AM 18.14 64.652 8.39 14.7 -5
4/30/2023 8:30:00 AM 18.63 65.534 8.36 14.67 -5
4/30/2023 8:45:00 AM 18.78 65.804 8.34 19.25 -5
4/30/2023 9:00:00 AM 18.14 64.652 8.34 14.56 -5
4/30/2023 9:15:00 AM 18.63 65.534 8.32 14.7 -5
4/30/2023 9:30:00 AM 18.91 66.038 8.3 14.57 -5
4/30/2023 9:45:00 AM 18.03 64.454 8.29 14.81 -5
4/30/2023 10:00:00 AM 18.63 65.534 8.28 14.87 -5
4/30/2023 10:15:00 AM 18.91 66.038 8.27 13.82 -5
4/30/2023 10:30:00 AM 18.03 64.454 8.25 14.08 -5
4/30/2023 10:45:00 AM 18.26 64.868 8.23 14.14 -5
4/30/2023 11:00:00 AM 18.63 65.534 8.19 14.55 -5
4/30/2023 11:15:00 AM 18.78 65.804 8.16 14.69 -5
4/30/2023 11:30:00 AM 17.9 64.22 8.15 15.04 -5
4/30/2023 11:45:00 AM 18.26 64.868 8.16 15.42 -5
4/30/2023 12:00:00 PM 18.63 65.534 8.14 15.82 -5
4/30/2023 12:15:00 PM 18.78 65.804 8.12 15.86 -5
4/30/2023 12:30:00 PM 17.9 64.22 8.13 17.22 -5
4/30/2023 12:45:00 PM 18.14 64.652 8.12 18.28 -5
4/30/2023 1:00:00 PM 18.4 65.12 8.11 20.83 -5
4/30/2023 1:15:00 PM 18.64 65.552 8.06 23.64 -5
4/30/2023 1:30:00 PM 17.9 64.22 8.04 27.68 -5
4/30/2023 1:45:00 PM 18.03 64.454 7.98 32.12 -5
4/30/2023 2:00:00 PM 18.4 65.12 7.99 36.07 -5
4/30/2023 2:15:00 PM 18.63 65.534 7.97 38.34 -5
4/30/2023 2:30:00 PM 18.03 64.454 7.96 39.47 -5
4/30/2023 2:45:00 PM 18.03 64.454 7.95 40.62 -5
4/30/2023 3:00:00 PM 18.52 65.336 7.93 41.3 -5
4/30/2023 3:15:00 PM 18.78 65.804 7.91 41.34 -5
4/30/2023 3:30:00 PM 17.9 64.22 7.86 42.5 -5
4/30/2023 3:45:00 PM 18.26 64.868 7.9 41.79 -5
4/30/2023 4:00:00 PM 18.78 65.804 7.9 39.96 -5
4/30/2023 4:15:00 PM 18.78 65.804 7.8 39.04 -5
4/30/2023 4:30:00 PM 18.03 64.454 7.75 39.31 -5
4/30/2023 4:45:00 PM 18.52 65.336 7.74 38.9 -5
4/30/2023 5:00:00 PM 18.78 65.804 7.75 39.13 -5
4/30/2023 5:15:00 PM 18.03 64.454 7.74 38.95 -5
4/30/2023 5:30:00 PM 18.14 64.652 7.77 41.08 -5
4/30/2023 5:45:00 PM 18.63 65.534 7.76 41.18 -5
4/30/2023 6:00:00 PM 18.63 65.534 7.71 42.28 -5
4/30/2023 6:15:00 PM 18.03 64.454 7.64 44.4 -5
4/30/2023 6:30:00 PM 18.63 65.534 7.71 46.26 -5
4/30/2023 6:45:00 PM 19.03 66.254 7.69 48.38 -5
4/30/2023 7:00:00 PM 18.14 64.652 7.65 48.88 -5
4/30/2023 7:15:00 PM 18.52 65.336 7.74 52.1 -5
4/30/2023 7:30:00 PM 19.17 66.506 7.71 53.47 -5
4/30/2023 7:45:00 PM 18.52 65.336 7.72 55.62 -5
4/30/2023 8:00:00 PM 18.78 65.804 7.67 56.87 -5
4/30/2023 8:15:00 PM 19.29 66.722 7.59 58.44 -5
4/30/2023 8:30:00 PM 19.78 67.604 7.57 59.84 -5
4/30/2023 8:45:00 PM 18.63 65.534 7.52 62.98 -5
4/30/2023 9:00:00 PM 19.03 66.254 7.5 63.72 -5
4/30/2023 9:15:00 PM 19.16 66.488 7.44 64.76 -5
4/30/2023 9:30:00 PM 20.04 68.07201 7.48 65.89 -5
4/30/2023 9:45:00 PM 21.01 69.818 7.44 66.82 -5
4/30/2023 10:00:00 PM 20.52 68.936 7.46 66.35 -5
4/30/2023 10:15:00 PM 20.78 69.404 7.46 67.89 -5
4/30/2023 10:30:00 PM 21.91 71.438 7.47 67.05 -5
4/30/2023 10:45:00 PM 22.02 71.636 7.47 67.94 -5
4/30/2023 11:00:00 PM 21.04 69.872 7.48 68.31 -5
4/30/2023 11:15:00 PM 21.54 70.772 7.45 68.53 -5
4/30/2023 11:30:00 PM 22.17 71.906 7.46 69.22 -5
4/30/2023 11:45:00 PM 22.54 72.57201 7.43 69.22 -5
5/1/2023 12:00:00 AM 22.92 73.256 7.41 70.15 -5
5/1/2023 12:15:00 AM 23.03 73.454 7.43 70.72 -5
5/1/2023 12:30:00 AM 22.92 73.256 7.42 72.41 -5
5/1/2023 12:45:00 AM 22.28 72.104 7.55 73.41 -5
5/1/2023 1:00:00 AM 22.02 71.636 7.48 74.68 -5
5/1/2023 1:15:00 AM 21.28 70.304 7.44 76.05 -5
5/1/2023 1:30:00 AM 22.17 71.906 7.39 78.93 -5
5/1/2023 1:45:00 AM 20.52 68.936 7.38 78.82 -5
5/1/2023 2:00:00 AM 21.04 69.872 7.35 80.33 -5
5/1/2023 2:15:00 AM 20.52 68.936 7.36 80.08 -5
5/1/2023 2:30:00 AM 20.91 69.638 7.35 81.93 -5
5/1/2023 2:45:00 AM 21.65 70.97 7.41 81.98 -5
5/1/2023 3:00:00 AM 21.78 71.204 7.38 83.22 -5
5/1/2023 3:15:00 AM 20.67 69.206 7.36 83.21 -5
5/1/2023 3:30:00 AM 21.28 70.304 7.39 84.93 -5
5/1/2023 3:45:00 AM 21.91 71.438 7.38 84.97 -5
5/1/2023 4:00:00 AM 22.28 72.104 7.37 84.26 -5
5/1/2023 4:15:00 AM 22.17 71.906 7.36 85.93 -5
5/1/2023 4:30:00 AM 20.29 68.522 7.37 89.27 -5
5/1/2023 4:45:00 AM 19.41 66.938 7.36 89.49 -5
5/1/2023 5:00:00 AM 20.15 68.27 7.35 95.4 -5
5/1/2023 5:15:00 AM 20.67 69.206 7.38 96.71 -5
5/1/2023 5:30:00 AM 21.54 70.772 7.37 100.66 -5
5/1/2023 5:45:00 AM 19.41 66.938 7.35 102.22 -5
5/1/2023 6:00:00 AM 19.41 66.938 7.36 105.95 -5
5/1/2023 6:15:00 AM 19.54 67.172 7.34 105.43 -5
5/1/2023 6:30:00 AM 19.54 67.172 7.37 98.66 -5
5/1/2023 6:45:00 AM 19.92 67.856 7.3 91.27 -5
5/1/2023 7:00:00 AM 19.41 66.938 7.32 95.38 -5
5/1/2023 7:15:00 AM 18.03 64.454 7.35 102.28 -5
5/1/2023 7:30:00 AM 17.66 63.788 7.32 78.5 -5
5/1/2023 7:45:00 AM 17.53 63.554 7.32 119.58 -5
5/1/2023 8:00:00 AM 17.53 63.554 7.32 122.07 -5
5/1/2023 8:15:00 AM 17.03 62.654 7.33 124.4 -5
5/1/2023 8:30:00 AM 16.4 61.52 7.32 129.9 -5
5/1/2023 8:45:00 AM 16.92 62.456 7.3 135.94 -5
5/1/2023 9:00:00 AM 17.03 62.654 7.3 140.17 -5
5/1/2023 9:15:00 AM 17.16 62.888 7.28 146 -5
5/1/2023 9:30:00 AM 17.29 63.122 7.28 153.1 -5
5/1/2023 9:45:00 AM 16.4 61.52 7.26 154.66 -5
5/1/2023 10:00:00 AM 16.78 62.204 7.23 156.73 -5
5/1/2023 10:15:00 AM 16.92 62.456 7.24 157.8 -5
5/1/2023 10:30:00 AM 17.03 62.654 7.24 154.69 -5
5/1/2023 10:45:00 AM 17.41 63.338 7.26 156.72 -5
5/1/2023 11:00:00 AM 17.41 63.338 7.23 150.33 -5
5/1/2023 11:15:00 AM 16.17 61.106 7.21 156.14 -5
5/1/2023 11:30:00 AM 16.66 61.988 7.22 158.64 -5
5/1/2023 11:45:00 AM 17.03 62.654 7.24 161.78 -5
5/1/2023 12:00:00 PM 17.29 63.122 7.24 163.99 -5
5/1/2023 12:15:00 PM 17.16 62.888 7.23 168.63 -5
5/1/2023 12:30:00 PM 16.28 61.304 7.2 171.9 -5
5/1/2023 12:45:00 PM 16.66 61.988 7.19 178.06 -5
5/1/2023 1:00:00 PM 17.16 62.888 7.16 180.63 -5
5/1/2023 1:15:00 PM 17.41 63.338 7.14 177.98 -5
5/1/2023 1:30:00 PM 16.54 61.772 7.29 178.1 -5
5/1/2023 1:45:00 PM 17.03 62.654 7.21 174.87 -5
5/1/2023 2:00:00 PM 17.41 63.338 7.22 172.05 -5
5/1/2023 2:15:00 PM 16.54 61.772 7.39 168.97 -5
5/1/2023 2:30:00 PM 16.54 61.772 7.33 163.54 -5
5/1/2023 2:45:00 PM 17.16 62.888 7.29 164.17 -5
5/1/2023 3:00:00 PM 16.78 62.204 7.26 161.17 -5
5/1/2023 3:15:00 PM 16.78 62.204 7.24 157.03 -5
5/1/2023 3:30:00 PM 17.16 62.888 7.24 158.09 -5
5/1/2023 3:45:00 PM 17.53 63.554 7.22 155.22 -5
5/1/2023 4:00:00 PM 16.65 61.97 7.23 160.04 -5
5/1/2023 4:15:00 PM 17.03 62.654 7.26 156.99 -5
5/1/2023 4:30:00 PM 17.53 63.554 7.26 155.41 -5
5/1/2023 4:45:00 PM 16.54 61.772 7.26 157.31 -5
5/1/2023 5:00:00 PM 17.03 62.654 7.25 153.06 -5
5/1/2023 5:15:00 PM 17.41 63.338 7.24 156.31 -5
5/1/2023 5:30:00 PM 16.66 61.988 7.24 150.53 -5
5/1/2023 5:45:00 PM 17.16 62.888 7.27 150.23 -5
5/1/2023 6:00:00 PM 17.03 62.654 7.3 151.18 -5
5/1/2023 6:15:00 PM 16.65 61.97 7.3 147.49 -5
5/1/2023 6:30:00 PM 17.29 63.122 7.32 151.47 -5
5/1/2023 6:45:00 PM 16.92 62.456 7.27 153.58 -5
5/1/2023 7:00:00 PM 16.78 62.204 7.28 132.13 -5
5/1/2023 7:15:00 PM 17.16 62.888 7.2 152.12 -5
5/1/2023 7:30:00 PM 17.03 62.654 7.16 145.99 -5
5/1/2023 7:45:00 PM 16.54 61.772 7.16 143.31 -5
5/1/2023 8:00:00 PM 17.16 62.888 7.2 143.36 -5
5/1/2023 8:15:00 PM 17.16 62.888 7.1 145.96 -5
5/1/2023 8:30:00 PM 16.54 61.772 7.2 141.9 -5
5/1/2023 8:45:00 PM 17.16 62.888 7.12 140.3 -5
5/1/2023 9:00:00 PM 16.92 62.456 7.04 136.86 -5
5/1/2023 9:15:00 PM 16.66 61.988 6.96 129.67 -5
5/1/2023 9:30:00 PM 17.03 62.654 7.08 120.56 -5
5/1/2023 9:45:00 PM 17.03 62.654 7.01 123.65 -5
5/1/2023 10:00:00 PM 16.4 61.52 6.99 125.57 -5
5/1/2023 10:15:00 PM 16.78 62.204 6.98 121.65 -5
5/1/2023 10:30:00 PM 17.16 62.888 6.97 133.16 -5
5/1/2023 10:45:00 PM 16.65 61.97 6.97 131.41 -5
5/1/2023 11:00:00 PM 16.54 61.772 6.96 128.99 -5
5/1/2023 11:15:00 PM 16.92 62.456 6.96 127.65 -5
5/1/2023 11:30:00 PM 17.16 62.888 6.98 129.72 -5
5/1/2023 11:45:00 PM 16.4 61.52 6.97 129.12 -5
5/2/2023 12:00:00 AM 16.92 62.456 6.96 127.26 -5
5/2/2023 12:15:00 AM 17.29 63.122 6.96 126.63 -5
5/2/2023 12:30:00 AM 16.29 61.322 6.94 123.64 -5
5/2/2023 12:45:00 AM 16.78 62.204 6.93 123.2 -5
5/2/2023 1:00:00 AM 17.29 63.122 6.92 123.03 -5
5/2/2023 1:15:00 AM 16.29 61.322 6.92 123.03 -5
5/2/2023 1:30:00 AM 16.78 62.204 6.92 119.61 -5
5/2/2023 1:45:00 AM 17.28 63.104 6.91 114.51 -5
5/2/2023 2:00:00 AM 16.28 61.304 7.01 116.07 -5
5/2/2023 2:15:00 AM 16.66 61.988 6.97 114.12 -5
5/2/2023 2:30:00 AM 17.16 62.888 6.96 110.28 -5
5/2/2023 2:45:00 AM 16.4 61.52 6.98 110.28 -5
5/2/2023 3:00:00 AM 16.65 61.97 6.97 107.82 -5
5/2/2023 3:15:00 AM 17.16 62.888 6.96 108.87 -5
5/2/2023 3:30:00 AM 16.92 62.456 6.98 108.37 -5
5/2/2023 3:45:00 AM 16.54 61.772 6.98 105.13 -5
5/2/2023 4:00:00 AM 17.16 62.888 6.96 100.18 -5
5/2/2023 4:15:00 AM 17.03 62.654 6.96 98.14 -5
5/2/2023 4:30:00 AM 16.4 61.52 6.98 96.8 -5
5/2/2023 4:45:00 AM 17.03 62.654 6.96 95.73 -5
5/2/2023 5:00:00 AM 17.29 63.122 6.97 94.33 -5
5/2/2023 5:15:00 AM 16.4 61.52 6.98 92.73 -5
5/2/2023 5:30:00 AM 16.78 62.204 6.97 92.95 -5
5/2/2023 5:45:00 AM 17.16 62.888 6.94 93.34 -5
5/2/2023 6:00:00 AM 17.03 62.654 6.94 91.92 -5
5/2/2023 6:15:00 AM 16.4 61.52 6.93 95.44 -5
5/2/2023 6:30:00 AM 16.92 62.456 6.92 95.28 -5
5/2/2023 6:45:00 AM 17.29 63.122 6.93 96.2 -5
5/2/2023 7:00:00 AM 16.29 61.322 7.25 90.17 -5
5/2/2023 7:15:00 AM 16.54 61.772 7.4 90.73 -5
5/2/2023 7:30:00 AM 17.03 62.654 7.53 93.4 -5
5/2/2023 7:45:00 AM 17.29 63.122 7.52 90.46 -5
5/2/2023 8:00:00 AM 16.65 61.97 7.4 74.88 -5
5/2/2023 8:15:00 AM 16.66 61.988 7.45 31.21 -5
5/2/2023 8:30:00 AM 17.16 62.888 7.47 21.51 -5
5/2/2023 8:45:00 AM 17.38 63.284 7.46 17.48 -5
5/2/2023 9:00:00 AM 16.65 61.97 7.48 15.86 -5
5/2/2023 9:15:00 AM 16.66 61.988 7.45 12.43 -5
5/2/2023 9:30:00 AM 17.03 62.654 7.43 12.31 -5
5/2/2023 9:45:00 AM 17.16 62.888 7.44 12.23 -5
5/2/2023 10:00:00 AM 17.41 63.338 7.39 12.6 -5
5/2/2023 10:15:00 AM 16.4 61.52 7.41 13.31 -5
5/2/2023 10:30:00 AM 16.65 61.97 7.43 14.71 -5
5/2/2023 10:45:00 AM 17.03 62.654 7.45 15.48 -5
5/2/2023 11:00:00 AM 17.29 63.122 7.49 14.85 -5
5/2/2023 11:15:00 AM 17.29 63.122 7.41 15.59 -5
5/2/2023 11:30:00 AM 17.16 62.888 7.52 17.35 -5
5/2/2023 11:45:00 AM 16.54 61.772 7.36 91.02 -5
5/2/2023 12:00:00 PM 16.92 62.456 7.25 96.86 -5
5/2/2023 12:15:00 PM 17.03 62.654 7.3 97.1 -5
5/2/2023 12:30:00 PM 17.16 62.888 7.26 101.17 -5
5/2/2023 12:45:00 PM 17.29 63.122 7.25 101.77 -5
5/2/2023 1:00:00 PM 17.32 63.176 7.28 104.32 -5
5/2/2023 1:15:00 PM 17.41 63.338 7.32 104.3 -5
5/2/2023 1:30:00 PM 17.29 63.122 7.28 108.83 -5
5/2/2023 1:45:00 PM 16.4 61.52 7.24 109.2 -5
5/2/2023 2:00:00 PM 16.66 61.988 7.19 112.79 -5
5/2/2023 2:15:00 PM 17.03 62.654 7.17 112.13 -5
5/2/2023 2:30:00 PM 17.29 63.122 7.18 112.71 -5
5/2/2023 2:45:00 PM 17.41 63.338 7.2 112.94 -5
5/2/2023 3:00:00 PM 17.03 62.654 7.21 112.36 -5
5/2/2023 3:15:00 PM 16.4 61.52 7.18 113.11 -5
5/2/2023 3:30:00 PM 16.92 62.456 7.17 117.29 -5
5/2/2023 3:45:00 PM 17.29 63.122 7.16 118.56 -5
5/2/2023 4:00:00 PM 17.41 63.338 7.13 120.37 -5
5/2/2023 4:15:00 PM 16.65 61.97 7.16 120.17 -5
5/2/2023 4:30:00 PM 16.54 61.772 7.1 125.28 -5
5/2/2023 4:45:00 PM 17.03 62.654 7.07 130.72 -5
5/2/2023 5:00:00 PM 17.16 62.888 7.09 131.99 -5
5/2/2023 5:15:00 PM 17.29 63.122 7.11 135.16 -5
5/2/2023 5:30:00 PM 16.65 61.97 7.09 138.4 -5
5/2/2023 5:45:00 PM 16.54 61.772 7.04 134.23 -5
5/2/2023 6:00:00 PM 16.92 62.456 7.01 138.07 -5
5/2/2023 6:15:00 PM 17.16 62.888 6.99 150.35 -5
5/2/2023 6:30:00 PM 17.29 63.122 6.99 156.16 -5
5/2/2023 6:45:00 PM 16.4 61.52 7 153.18 -5
5/2/2023 7:00:00 PM 16.4 61.52 6.99 140.08 -5
5/2/2023 7:15:00 PM 16.66 61.988 6.97 140.77 -5
5/2/2023 7:30:00 PM 16.78 62.204 6.95 139.33 -5
5/2/2023 7:45:00 PM 16.78 62.204 6.95 157.93 -5
5/2/2023 8:00:00 PM 17.03 62.654 6.95 155.4 -5
5/2/2023 8:15:00 PM 17.16 62.888 6.96 157.15 -5
5/2/2023 8:30:00 PM 16.28 61.304 6.96 153.13 -5
5/2/2023 8:45:00 PM 16.54 61.772 6.94 151.07 -5
5/2/2023 9:00:00 PM 16.92 62.456 6.92 148.89 -5
5/2/2023 9:15:00 PM 17.16 62.888 6.91 149.97 -5
5/2/2023 9:30:00 PM 17.16 62.888 6.92 147.87 -5
5/2/2023 9:45:00 PM 16.28 61.304 6.92 153.31 -5
5/2/2023 10:00:00 PM 16.54 61.772 6.89 155.31 -5
5/2/2023 10:15:00 PM 16.92 62.456 6.88 151.19 -5
5/2/2023 10:30:00 PM 17.03 62.654 6.88 152.61 -5
5/2/2023 10:45:00 PM 17.03 62.654 6.88 151.19 -5
5/2/2023 11:00:00 PM 16.28 61.304 6.86 150 -5
5/2/2023 11:15:00 PM 16.92 62.456 6.86 147.72 -5
5/2/2023 11:30:00 PM 17.16 62.888 6.86 145.34 -5
5/2/2023 11:45:00 PM 16.66 61.988 6.87 144.88 -5
5/3/2023 12:00:00 AM 16.54 61.772 6.85 144.13 -5
5/3/2023 12:15:00 AM 17.03 62.654 6.86 142.96 -5
5/3/2023 12:30:00 AM 17.29 63.122 6.86 143.06 -5
5/3/2023 12:45:00 AM 16.28 61.304 6.86 140.28 -5
5/3/2023 1:00:00 AM 16.66 61.988 6.84 136.46 -5
5/3/2023 1:15:00 AM 17.16 62.888 6.85 139.72 -5
5/3/2023 1:30:00 AM 17.16 62.888 6.88 139.25 -5
5/3/2023 1:45:00 AM 16.4 61.52 6.89 134.08 -5
5/3/2023 2:00:00 AM 16.92 62.456 6.88 137.7 -5
5/3/2023 2:15:00 AM 17.16 62.888 6.88 139.99 -5
5/3/2023 2:30:00 AM 16.54 61.772 6.9 140.73 -5
5/3/2023 2:45:00 AM 16.54 61.772 6.88 140.57 -5
5/3/2023 3:00:00 AM 17.16 62.888 6.87 143.32 -5
5/3/2023 3:15:00 AM 17.53 63.554 6.9 144.49 -5
5/3/2023 3:30:00 AM 16.54 61.772 6.91 143.35 -5
5/3/2023 3:45:00 AM 17.15 62.87 6.93 145.55 -5
5/3/2023 4:00:00 AM 17.66 63.788 6.97 144.05 -5
5/3/2023 4:15:00 AM 17.9 64.22 7.04 145.68 -5
5/3/2023 4:30:00 AM 18.03 64.454 7.05 147.59 -5
5/3/2023 4:45:00 AM 18.78 65.804 7.1 146.74 -5
5/3/2023 5:00:00 AM 19.54 67.172 7.13 147.02 -5
5/3/2023 5:15:00 AM 18.91 66.038 7.15 147.77 -5
5/3/2023 5:30:00 AM 18.78 65.804 7.18 146.56 -5
5/3/2023 5:45:00 AM 20.3 68.54 7.13 147.22 -5
5/3/2023 6:00:00 AM 21.16 70.088 7.15 148.5 -5
5/3/2023 6:15:00 AM 20.04 68.07201 7.16 147.57 -5
5/3/2023 6:30:00 AM 20.91 69.638 7.17 152.14 -5
5/3/2023 6:45:00 AM 21.78 71.204 7.23 151.86 -5
5/3/2023 7:00:00 AM 21.91 71.438 7.29 151.49 -5
5/3/2023 7:15:00 AM 20.3 68.54 7.29 150.7 -5
5/3/2023 7:30:00 AM 17.16 62.888 7.19 139.92 -5
5/3/2023 7:45:00 AM 17.03 62.654 7.33 139.29 -5
5/3/2023 8:00:00 AM 17.03 62.654 7.33 137.06 -5
5/3/2023 8:15:00 AM 16.78 62.204 7.32 134.54 -5
5/3/2023 8:30:00 AM 16.17 61.106 7.3 136.33 -5
5/3/2023 8:45:00 AM 16.54 61.772 7.32 118.76 -5
5/3/2023 9:00:00 AM 16.78 62.204 7.29 132.5 -5
5/3/2023 9:15:00 AM 16.92 62.456 7.28 133.29 -5
5/3/2023 9:30:00 AM 16.92 62.456 7.28 130.75 -5
5/3/2023 9:45:00 AM 16.92 62.456 7.27 134.05 -5
5/3/2023 10:00:00 AM 16.92 62.456 7.26 136.11 -5
5/3/2023 10:15:00 AM 16.92 62.456 7.26 134.99 -5
5/3/2023 10:30:00 AM 16.78 62.204 7.27 136.53 -5
5/3/2023 10:45:00 AM 16.78 62.204 7.27 135.11 -5
5/3/2023 11:00:00 AM 16.78 62.204 7.27 135.02 -5
5/3/2023 11:15:00 AM 16.78 62.204 7.28 134.41 -5
5/3/2023 11:30:00 AM 16.78 62.204 7.28 135.02 -5
5/3/2023 11:45:00 AM 16.92 62.456 7.28 132.01 -5
5/3/2023 12:00:00 PM 16.92 62.456 7.3 135.79 -5
5/3/2023 12:15:00 PM 16.92 62.456 7.28 128.95 -5
5/3/2023 12:30:00 PM 16.92 62.456 7.31 128.9 -5
5/3/2023 12:45:00 PM 16.92 62.456 7.3 131.8 -5
5/3/2023 1:00:00 PM 16.92 62.456 7.3 131.8 -5
5/3/2023 1:15:00 PM 16.92 62.456 7.31 128.17 -5
5/3/2023 1:30:00 PM 16.92 62.456 7.31 129 -5
5/3/2023 1:45:00 PM 16.92 62.456 7.31 127.57 -5
5/3/2023 2:00:00 PM 16.92 62.456 7.32 130.86 -5
5/3/2023 2:15:00 PM 16.92 62.456 7.33 128.18 -5
5/3/2023 2:30:00 PM 16.91 62.438 7.32 129.67 -5
5/3/2023 2:45:00 PM 17.03 62.654 7.34 117.83 -5
5/3/2023 3:00:00 PM 16.92 62.456 7.33 123.76 -5
5/3/2023 3:15:00 PM 16.92 62.456 7.32 129.99 -5
5/3/2023 3:30:00 PM 16.92 62.456 7.34 122.06 -5
5/3/2023 3:45:00 PM 16.92 62.456 7.33 127.83 -5
5/3/2023 4:00:00 PM 17.03 62.654 7.34 111.81 -5
5/3/2023 4:15:00 PM 17.03 62.654 7.32 125.17 -5
5/3/2023 4:30:00 PM 16.92 62.456 7.34 117.78 -5
5/3/2023 4:45:00 PM 16.92 62.456 7.34 123.84 -5
5/3/2023 5:00:00 PM 16.92 62.456 7.33 123.33 -5
5/3/2023 5:15:00 PM 16.92 62.456 7.33 135.92 -5
5/3/2023 5:30:00 PM 17.03 62.654 7.34 134.81 -5
5/3/2023 5:45:00 PM 17.03 62.654 7.34 133.36 -5
5/3/2023 6:00:00 PM 17.16 62.888 7.34 134.57 -5
5/3/2023 6:15:00 PM 17.16 62.888 7.35 134.66 -5
5/3/2023 6:30:00 PM 17.16 62.888 7.35 138.86 -5
5/3/2023 6:45:00 PM 17.29 63.122 7.35 137.13 -5
5/3/2023 7:00:00 PM 17.29 63.122 7.33 134.59 -5
5/3/2023 7:15:00 PM 17.29 63.122 7.32 134.51 -5
5/3/2023 7:30:00 PM 17.29 63.122 7.33 132.96 -5
5/3/2023 7:45:00 PM 17.29 63.122 7.32 135.98 -5
5/3/2023 8:00:00 PM 17.29 63.122 7.32 134.41 -5
5/3/2023 8:15:00 PM 17.29 63.122 7.32 136.22 -5
5/3/2023 8:30:00 PM 17.29 63.122 7.33 138.56 -5
5/3/2023 8:45:00 PM 17.29 63.122 7.32 136.78 -5
5/3/2023 9:00:00 PM 17.29 63.122 7.32 140.64 -5
5/3/2023 9:15:00 PM 17.29 63.122 7.32 142.99 -5
5/3/2023 9:30:00 PM 17.29 63.122 7.3 144.76 -5
5/3/2023 9:45:00 PM 17.29 63.122 7.3 142.54 -5
5/3/2023 10:00:00 PM 17.29 63.122 7.3 144.53 -5
5/3/2023 10:15:00 PM 17.29 63.122 7.29 148.12 -5
5/3/2023 10:30:00 PM 16.17 61.106 7.28 149.73 -5
5/3/2023 10:45:00 PM 16.66 61.988 7.28 143.68 -5
5/3/2023 11:00:00 PM 16.92 62.456 7.28 124.59 -5
5/3/2023 11:15:00 PM 17.03 62.654 7.28 84.19 -5
5/3/2023 11:30:00 PM 16.92 62.456 7.28 46.48 -5
5/3/2023 11:45:00 PM 16.92 62.456 7.28 41.9 -5
5/4/2023 12:00:00 AM 16.92 62.456 7.28 35.45 -5
5/4/2023 12:15:00 AM 16.03 60.854 7.27 32.02 -5
5/4/2023 12:30:00 AM 16.4 61.52 7.26 29.58 -5
5/4/2023 12:45:00 AM 16.54 61.772 7.27 27.01 -5
5/4/2023 1:00:00 AM 16.66 61.988 7.27 32.69 -5
5/4/2023 1:15:00 AM 16.78 62.204 7.27 23.6 -5
5/4/2023 1:30:00 AM 15.91 60.638 7.27 31.26 -5
5/4/2023 1:45:00 AM 16.29 61.322 7.28 21.61 -5
5/4/2023 2:00:00 AM 16.54 61.772 7.29 32.19 -5
5/4/2023 2:15:00 AM 16.54 61.772 7.29 23.61 -5
5/4/2023 2:30:00 AM 16.29 61.322 7.28 26.99 -5
5/4/2023 2:45:00 AM 15.92 60.656 7.29 21.77 -5
5/4/2023 3:00:00 AM 16.4 61.52 7.3 19.88 -5
5/4/2023 3:15:00 AM 16.59 61.862 7.3 18.32 -5
5/4/2023 3:30:00 AM 16.66 61.988 7.28 23.16 -5
5/4/2023 3:45:00 AM 16.54 61.772 7.3 23.32 -5
5/4/2023 4:00:00 AM 16.03 60.854 7.29 21.1 -5
5/4/2023 4:15:00 AM 16.4 61.52 7.29 20.83 -5
5/4/2023 4:30:00 AM 16.65 61.97 7.27 21.45 -5
5/4/2023 4:45:00 AM 16.78 62.204 7.29 18.61 -5
5/4/2023 5:00:00 AM 16.78 62.204 7.31 18.73 -5
5/4/2023 5:15:00 AM 16.78 62.204 7.32 21.03 -5
5/4/2023 5:30:00 AM 16.7 62.06 7.32 20.25 -5
5/4/2023 5:45:00 AM 16.78 62.204 7.32 18.54 -5
5/4/2023 6:00:00 AM 16.03 60.854 7.31 26.37 -5
5/4/2023 6:15:00 AM 16.28 61.304 7.34 22.93 -5
5/4/2023 6:30:00 AM 16.54 61.772 7.45 22.69 -5
5/4/2023 6:45:00 AM 16.92 62.456 7.49 22.52 -5
5/4/2023 7:00:00 AM 17.16 62.888 7.46 22.3 -5
5/4/2023 7:15:00 AM 15.65 60.17 7.42 133.03 -5
5/4/2023 7:30:00 AM 15.91 60.638 7.42 134.73 -5
5/4/2023 7:45:00 AM 16.17 61.106 7.43 130.61 -5
5/4/2023 8:00:00 AM 16.29 61.322 7.4 129.63 -5
5/4/2023 8:15:00 AM 16.29 61.322 7.4 128.64 -5
5/4/2023 8:30:00 AM 16.28 61.304 7.39 132.9 -5
5/4/2023 8:45:00 AM 16.4 61.52 7.38 129.09 -5
5/4/2023 9:00:00 AM 16.4 61.52 7.38 129.33 -5
5/4/2023 9:15:00 AM 16.4 61.52 7.38 125.66 -5
5/4/2023 9:30:00 AM 16.4 61.52 7.39 122.38 -5
5/4/2023 9:45:00 AM 16.4 61.52 7.4 126.62 -5
5/4/2023 10:00:00 AM 16.4 61.52 7.39 117.14 -5
5/4/2023 10:15:00 AM 16.4 61.52 7.4 119.16 -5
5/4/2023 10:30:00 AM 16.4 61.52 7.38 122.22 -5
5/4/2023 10:45:00 AM 16.4 61.52 7.38 121.46 -5
5/4/2023 11:00:00 AM 16.54 61.772 7.37 117.86 -5
5/4/2023 11:15:00 AM 16.54 61.772 7.38 120.2 -5
5/4/2023 11:30:00 AM 16.54 61.772 7.36 118.04 -5
5/4/2023 11:45:00 AM 16.66 61.988 7.36 116.4 -5
5/4/2023 12:00:00 PM 16.66 61.988 7.37 115.99 -5
5/4/2023 12:15:00 PM 16.54 61.772 7.37 114.83 -5
5/4/2023 12:30:00 PM 16.66 61.988 7.39 103.58 -5
5/4/2023 12:45:00 PM 16.78 62.204 7.39 110.02 -5
5/4/2023 1:00:00 PM 16.78 62.204 7.37 112.16 -5
5/4/2023 1:15:00 PM 15.78 60.404 7.36 109.6 -5
5/4/2023 1:30:00 PM 16.17 61.106 7.35 111.65 -5
5/4/2023 1:45:00 PM 16.54 61.772 7.35 111.01 -5
5/4/2023 2:00:00 PM 16.69 62.042 7.36 109.4 -5
5/4/2023 2:15:00 PM 15.79 60.422 7.36 109.29 -5
5/4/2023 2:30:00 PM 16.17 61.106 7.38 105.93 -5
5/4/2023 2:45:00 PM 16.54 61.772 7.37 105.88 -5
5/4/2023 3:00:00 PM 15.91 60.638 7.39 103.75 -5
5/4/2023 3:15:00 PM 16.17 61.106 7.38 104.89 -5
5/4/2023 3:30:00 PM 16.66 61.988 7.36 105.07 -5
5/4/2023 3:45:00 PM 15.91 60.638 7.39 101.61 -5
5/4/2023 4:00:00 PM 16.4 61.52 7.41 102.92 -5
5/4/2023 4:15:00 PM 16.66 61.988 7.44 102.54 -5
5/4/2023 4:30:00 PM 16.03 60.854 7.45 101.25 -5
5/4/2023 4:45:00 PM 16.4 61.52 7.45 101.49 -5
5/4/2023 5:00:00 PM 16.78 62.204 7.45 100.76 -5
5/4/2023 5:15:00 PM 16.03 60.854 7.43 99.89 -5
5/4/2023 5:30:00 PM 16.54 61.772 7.44 99.28 -5
5/4/2023 5:45:00 PM 16.66 61.988 7.44 91.72 -5
5/4/2023 6:00:00 PM 16.17 61.106 7.43 88.23 -5
5/4/2023 6:15:00 PM 16.66 61.988 7.42 93.39 -5
5/4/2023 6:30:00 PM 16.03 60.854 7.43 79.32 -5
5/4/2023 6:45:00 PM 16.4 61.52 7.42 85.08 -5
5/4/2023 7:00:00 PM 16.66 61.988 7.4 88.66 -5
5/4/2023 7:15:00 PM 15.91 60.638 7.4 87.94 -5
5/4/2023 7:30:00 PM 16.4 61.52 7.38 87 -5
5/4/2023 7:45:00 PM 16.54 61.772 7.4 93.65 -5
5/4/2023 8:00:00 PM 16.03 60.854 7.44 91.76 -5
5/4/2023 8:15:00 PM 16.54 61.772 7.42 94.56 -5
5/4/2023 8:30:00 PM 16.03 60.854 7.44 92.88 -5
5/4/2023 8:45:00 PM 16.29 61.322 7.45 92.49 -5
5/4/2023 9:00:00 PM 16.65 61.97 7.42 87.04 -5
5/4/2023 9:15:00 PM 16.03 60.854 7.4 83.75 -5
5/4/2023 9:30:00 PM 16.4 61.52 7.4 79.91 -5
5/4/2023 9:45:00 PM 16.4 61.52 7.41 79.99 -5
5/4/2023 10:00:00 PM 15.91 60.638 7.41 93.44 -5
5/4/2023 10:15:00 PM 16.54 61.772 7.39 90.18 -5
5/4/2023 10:30:00 PM 16.29 61.322 7.33 92.15 -5
5/4/2023 10:45:00 PM 16.17 61.106 7.31 87.7 -5
5/4/2023 11:00:00 PM 16.66 61.988 7.29 86.18 -5
5/4/2023 11:15:00 PM 15.91 60.638 7.26 84.11 -5
5/4/2023 11:30:00 PM 16.4 61.52 7.2 83 -5
5/4/2023 11:45:00 PM 16.66 61.988 7.16 82.84 -5
5/5/2023 12:00:00 AM 16.03 60.854 7.14 81.59 -5
5/5/2023 12:15:00 AM 16.4 61.52 7.1 80.79 -5
5/5/2023 12:30:00 AM 16.4 61.52 7.08 82.72 -5
5/5/2023 12:45:00 AM 16.17 61.106 7.06 81.16 -5
5/5/2023 1:00:00 AM 16.65 61.97 7.04 80.56 -5
5/5/2023 1:15:00 AM 16.17 61.106 7.04 80.04 -5
5/5/2023 1:30:00 AM 16.29 61.322 7.01 81.69 -5
5/5/2023 1:45:00 AM 16.66 61.988 7.02 79.87 -5
5/5/2023 2:00:00 AM 15.91 60.638 7.01 80.84 -5
5/5/2023 2:15:00 AM 16.29 61.322 7.02 80.49 -5
5/5/2023 2:30:00 AM 16.65 61.97 7.01 78.93 -5
5/5/2023 2:45:00 AM 16.03 60.854 7 79.9 -5
5/5/2023 3:00:00 AM 16.54 61.772 7 78.44 -5
5/5/2023 3:15:00 AM 16.28 61.304 6.98 78.23 -5
5/5/2023 3:30:00 AM 16.17 61.106 6.98 77.16 -5
5/5/2023 3:45:00 AM 16.54 61.772 6.99 75.74 -5
5/5/2023 4:00:00 AM 15.91 60.638 6.98 76.84 -5
5/5/2023 4:15:00 AM 16.17 61.106 6.98 80.89 -5
5/5/2023 4:30:00 AM 16.66 61.988 6.97 75.93 -5
5/5/2023 4:45:00 AM 15.91 60.638 6.95 77.13 -5
5/5/2023 5:00:00 AM 16.28 61.304 6.95 77.8 -5
5/5/2023 5:15:00 AM 16.66 61.988 6.95 76.26 -5
5/5/2023 5:30:00 AM 15.91 60.638 6.93 76.02 -5
5/5/2023 5:45:00 AM 16.29 61.322 6.93 73.93 -5
5/5/2023 6:00:00 AM 16.66 61.988 6.93 71.56 -5
5/5/2023 6:15:00 AM 15.91 60.638 6.92 70.4 -5
5/5/2023 6:30:00 AM 16.29 61.322 6.92 71.92 -5
5/5/2023 6:45:00 AM 16.4 61.52 6.91 67.82 -5
5/5/2023 7:00:00 AM 15.79 60.422 6.92 76.43 -5
5/5/2023 7:15:00 AM 16.03 60.854 6.93 71.47 -5
5/5/2023 7:30:00 AM 16.17 61.106 7.2 70.56 -5
5/5/2023 7:45:00 AM 15.78 60.404 7.23 70.25 -5
5/5/2023 8:00:00 AM 15.41 59.738 7.32 69.41 -5
5/5/2023 8:15:00 AM 15.66 60.188 7.33 68.21 -5
5/5/2023 8:30:00 AM 15.91 60.638 7.32 65.82 -5
5/5/2023 8:45:00 AM 15.28 59.504 7.37 66.02 -5
5/5/2023 9:00:00 AM 15.41 59.738 7.36 64.11 -5
5/5/2023 9:15:00 AM 15.65 60.17 7.38 69.87 -5
5/5/2023 9:30:00 AM 15.8 60.44 7.38 65.91 -5
5/5/2023 9:45:00 AM 15.91 60.638 7.39 65.61 -5
5/5/2023 10:00:00 AM 15.28 59.504 7.39 67.25 -5
5/5/2023 10:15:00 AM 15.65 60.17 7.4 62.18 -5
5/5/2023 10:30:00 AM 15.91 60.638 7.4 64.5 -5
5/5/2023 10:45:00 AM 16.03 60.854 7.42 65.7 -5
5/5/2023 11:00:00 AM 15.91 60.638 7.42 60.01 -5
5/5/2023 11:15:00 AM 15.41 59.738 7.41 63.19 -5
5/5/2023 11:30:00 AM 15.78 60.404 7.42 63.12 -5
5/5/2023 11:45:00 AM 15.91 60.638 7.42 57.2 -5
5/5/2023 12:00:00 PM 15.78 60.404 7.43 60.24 -5
5/5/2023 12:15:00 PM 15.65 60.17 7.42 62.95 -5
5/5/2023 12:30:00 PM 15.91 60.638 7.41 56.99 -5
5/5/2023 12:45:00 PM 16.17 61.106 7.42 58.12 -5
5/5/2023 1:00:00 PM 15.78 60.404 7.44 58.82 -5
5/5/2023 1:15:00 PM 15.78 60.404 7.45 65.31 -5
5/5/2023 1:30:00 PM 16.16 61.088 7.44 62.96 -5
5/5/2023 1:45:00 PM 16.02 60.836 7.44 58.99 -5
5/5/2023 2:00:00 PM 15.91 60.638 7.47 62.5 -5
5/5/2023 2:15:00 PM 16.4 61.52 7.49 63.51 -5
5/5/2023 2:30:00 PM 16.54 61.772 7.5 60.4 -5
5/5/2023 2:45:00 PM 15.78 60.404 7.58 61.44 -5
5/5/2023 3:00:00 PM 16.39 61.502 7.57 62.6 -5
5/5/2023 3:15:00 PM 16.54 61.772 7.57 57.79 -5
5/5/2023 3:30:00 PM 15.91 60.638 7.51 58.66 -5
5/5/2023 3:45:00 PM 16.4 61.52 7.53 57.42 -5
5/5/2023 4:00:00 PM 16.65 61.97 7.46 57.83 -5
5/5/2023 4:15:00 PM 15.91 60.638 7.48 59.09 -5
5/5/2023 4:30:00 PM 16.54 61.772 7.47 54.74 -5
5/5/2023 4:45:00 PM 16.54 61.772 7.47 57.16 -5
5/5/2023 5:00:00 PM 16.17 61.106 7.44 53.16 -5
5/5/2023 5:15:00 PM 16.65 61.97 7.43 57.35 -5
5/5/2023 5:30:00 PM 16.03 60.854 7.42 55.9 -5
5/5/2023 5:45:00 PM 16.4 61.52 7.42 56.56 -5
5/5/2023 6:00:00 PM 16.78 62.204 7.42 58.11 -5
5/5/2023 6:15:00 PM 16.17 61.106 7.42 58.35 -5
5/5/2023 6:30:00 PM 16.78 62.204 7.4 58.85 -5
5/5/2023 6:45:00 PM 16.28 61.304 7.39 53.93 -5
5/5/2023 7:00:00 PM 16.4 61.52 7.42 55.51 -5
5/5/2023 7:15:00 PM 16.65 61.97 7.42 56.98 -5
5/5/2023 7:30:00 PM 16.03 60.854 7.47 55.19 -5
5/5/2023 7:45:00 PM 16.65 61.97 7.47 55.96 -5
5/5/2023 8:00:00 PM 16.17 61.106 7.51 56.11 -5
5/5/2023 8:15:00 PM 16.65 61.97 7.53 55.57 -5
5/5/2023 8:30:00 PM 16.4 61.52 7.51 54.77 -5
5/5/2023 8:45:00 PM 16.39 61.502 7.5 54.42 -5
5/5/2023 9:00:00 PM 16.78 62.204 7.48 51.73 -5
5/5/2023 9:15:00 PM 16.03 60.854 7.47 53.71 -5
5/5/2023 9:30:00 PM 16.65 61.97 7.46 50.26 -5
5/5/2023 9:45:00 PM 16.3 61.34 7.52 51.28 -5
5/5/2023 10:00:00 PM 16.28 61.304 7.55 51.16 -5
5/5/2023 10:15:00 PM 16.65 61.97 7.55 49.27 -5
5/5/2023 10:30:00 PM 16.02 60.836 7.57 49.93 -5
5/5/2023 10:45:00 PM 16.4 61.52 7.56 49.18 -5
5/5/2023 11:00:00 PM 16.78 62.204 7.57 49.78 -5
5/5/2023 11:15:00 PM 15.91 60.638 7.55 48.38 -5
5/5/2023 11:30:00 PM 16.39 61.502 7.55 48.59 -5
5/5/2023 11:45:00 PM 16.78 62.204 7.57 49.69 -5
5/6/2023 12:00:00 AM 16.03 60.854 7.56 48.52 -5
5/6/2023 12:15:00 AM 16.54 61.772 7.56 48.6 -5
5/6/2023 12:30:00 AM 16.92 62.456 7.51 47.36 -5
5/6/2023 12:45:00 AM 16.03 60.854 7.47 47.52 -5
5/6/2023 1:00:00 AM 16.39 61.502 7.47 47.25 -5
5/6/2023 1:15:00 AM 16.65 61.97 7.43 46.27 -5
5/6/2023 1:30:00 AM 16.66 61.988 7.47 47.69 -5
5/6/2023 1:45:00 AM 15.91 60.638 7.45 47.12 -5
5/6/2023 2:00:00 AM 16.28 61.304 7.37 46.56 -5
5/6/2023 2:15:00 AM 16.54 61.772 7.32 46.26 -5
5/6/2023 2:30:00 AM 16.7 62.06 7.31 45.73 -5
5/6/2023 2:45:00 AM 15.91 60.638 7.27 46.15 -5
5/6/2023 3:00:00 AM 16.28 61.304 7.27 45.91 -5
5/6/2023 3:15:00 AM 16.54 61.772 7.29 45.44 -5
5/6/2023 3:30:00 AM 16.65 61.97 7.3 45.15 -5
5/6/2023 3:45:00 AM 16.39 61.502 7.38 46.12 -5
5/6/2023 4:00:00 AM 16.02 60.836 7.32 45.37 -5
5/6/2023 4:15:00 AM 16.4 61.52 7.34 44.53 -5
5/6/2023 4:30:00 AM 16.54 61.772 7.27 45.32 -5
5/6/2023 4:45:00 AM 16.54 61.772 7.29 45.36 -5
5/6/2023 5:00:00 AM 16.54 61.772 7.31 45.32 -5
5/6/2023 5:15:00 AM 16.65 61.97 7.45 44.91 -5
5/6/2023 5:30:00 AM 15.78 60.404 7.39 44.9 -5
5/6/2023 5:45:00 AM 16.03 60.854 7.47 38.62 -5
5/6/2023 6:00:00 AM 16.28 61.304 7.37 39.61 -5
5/6/2023 6:15:00 AM 16.39 61.502 7.44 39.45 -5
5/6/2023 6:30:00 AM 16.54 61.772 7.43 39.43 -5
5/6/2023 6:45:00 AM 16.54 61.772 7.43 40.11 -5
5/6/2023 7:00:00 AM 16.54 61.772 7.43 40.58 -5
5/6/2023 7:15:00 AM 16.54 61.772 7.43 40.4 -5
5/6/2023 7:30:00 AM 16.65 61.97 7.44 40.57 -5
5/6/2023 7:45:00 AM 16.54 61.772 7.43 41.04 -5
5/6/2023 8:00:00 AM 16.65 61.97 7.43 40.53 -5
5/6/2023 8:15:00 AM 15.78 60.404 7.42 41.35 -5
5/6/2023 8:30:00 AM 16.16 61.088 7.4 39.35 -5
5/6/2023 8:45:00 AM 16.4 61.52 7.39 40.38 -5
5/6/2023 9:00:00 AM 16.54 61.772 7.42 40.21 -5
5/6/2023 9:15:00 AM 16.54 61.772 7.45 39.64 -5
5/6/2023 9:30:00 AM 16.66 61.988 7.43 40.64 -5
5/6/2023 9:45:00 AM 16.4 61.52 7.42 39.99 -5
5/6/2023 10:00:00 AM 16.02 60.836 7.45 40.31 -5
5/6/2023 10:15:00 AM 16.4 61.52 7.44 39.08 -5
5/6/2023 10:30:00 AM 16.65 61.97 7.45 40.51 -5
5/6/2023 10:45:00 AM 16.78 62.204 7.47 39.72 -5
5/6/2023 11:00:00 AM 16.4 61.52 7.47 38.1 -5
5/6/2023 11:15:00 AM 16.16 61.088 7.5 37.5 -5
5/6/2023 11:30:00 AM 16.54 61.772 7.52 38.48 -5
5/6/2023 11:45:00 AM 16.78 62.204 7.53 38.8 -5
5/6/2023 12:00:00 PM 16.92 62.456 7.5 39.84 -5
5/6/2023 12:15:00 PM 16.17 61.106 7.34 39.07 -5
5/6/2023 12:30:00 PM 16.65 61.97 7.31 38.41 -5
5/6/2023 12:45:00 PM 17.03 62.654 7.3 38.72 -5
5/6/2023 1:00:00 PM 16.39 61.502 7.32 38.02 -5
5/6/2023 1:15:00 PM 16.65 61.97 7.35 37.58 -5
5/6/2023 1:30:00 PM 17.03 62.654 7.3 37.63 -5
5/6/2023 1:45:00 PM 16.54 61.772 7.31 35.88 -5
5/6/2023 2:00:00 PM 16.65 61.97 7.3 35.31 -5
5/6/2023 2:15:00 PM 17.16 62.888 7.29 36.56 -5
5/6/2023 2:30:00 PM 16.54 61.772 7.26 36.33 -5
5/6/2023 2:45:00 PM 16.92 62.456 7.31 35.65 -5
5/6/2023 3:00:00 PM 17.29 63.122 7.33 35.31 -5
5/6/2023 3:15:00 PM 16.54 61.772 7.35 35.85 -5
5/6/2023 3:30:00 PM 17.16 62.888 7.38 34.71 -5
5/6/2023 3:45:00 PM 16.78 62.204 7.4 34.52 -5
5/6/2023 4:00:00 PM 17.03 62.654 7.41 36.43 -5
5/6/2023 4:15:00 PM 17.29 63.122 7.43 35.17 -5
5/6/2023 4:30:00 PM 16.91 62.438 7.37 34.25 -5
5/6/2023 4:45:00 PM 17.53 63.554 7.47 34.23 -5
5/6/2023 5:00:00 PM 16.78 62.204 7.35 34.9 -5
5/6/2023 5:15:00 PM 17.41 63.338 7.42 34.96 -5
5/6/2023 5:30:00 PM 17.03 62.654 7.33 31.12 -5
5/6/2023 5:45:00 PM 17.29 63.122 7.35 32.67 -5
5/6/2023 6:00:00 PM 17.29 63.122 7.3 31.7 -5
5/6/2023 6:15:00 PM 17.03 62.654 7.27 30.5 -5
5/6/2023 6:30:00 PM 17.53 63.554 7.26 31.05 -5
5/6/2023 6:45:00 PM 16.92 62.456 7.23 33.19 -5
5/6/2023 7:00:00 PM 17.66 63.788 7.22 35.52 -5
5/6/2023 7:15:00 PM 16.92 62.456 7.2 37.17 -5
5/6/2023 7:30:00 PM 17.66 63.788 7.19 34.93 -5
5/6/2023 7:45:00 PM 17.03 62.654 7.18 33.29 -5
5/6/2023 8:00:00 PM 17.41 63.338 7.16 34.35 -5
5/6/2023 8:15:00 PM 17.29 63.122 7.16 33.87 -5
5/6/2023 8:30:00 PM 17.16 62.888 7.16 34.51 -5
5/6/2023 8:45:00 PM 17.41 63.338 7.17 33.87 -5
5/6/2023 9:00:00 PM 16.92 62.456 7.25 33.43 -5
5/6/2023 9:15:00 PM 17.66 63.788 7.27 33.65 -5
5/6/2023 9:30:00 PM 16.91 62.438 7.26 32.48 -5
5/6/2023 9:45:00 PM 17.41 63.338 7.28 32.91 -5
5/6/2023 10:00:00 PM 17.16 62.888 7.27 32.52 -5
5/6/2023 10:15:00 PM 17.16 62.888 7.17 33.04 -5
5/6/2023 10:30:00 PM 17.41 63.338 7.16 32.57 -5
5/6/2023 10:45:00 PM 16.78 62.204 7.19 32.91 -5
5/6/2023 11:00:00 PM 17.53 63.554 7.21 32.23 -5
5/6/2023 11:15:00 PM 16.92 62.456 7.27 32.47 -5
5/6/2023 11:30:00 PM 17.16 62.888 7.27 32.67 -5
5/6/2023 11:45:00 PM 17.29 63.122 7.25 31 -5
5/7/2023 12:00:00 AM 16.78 62.204 7.2 31.31 -5
5/7/2023 12:15:00 AM 17.41 63.338 7.19 31.68 -5
5/7/2023 12:30:00 AM 16.78 62.204 7.2 31.95 -5
5/7/2023 12:45:00 AM 17.15 62.87 7.19 32.48 -5
5/7/2023 1:00:00 AM 17.41 63.338 7.17 31.55 -5
5/7/2023 1:15:00 AM 16.65 61.97 7.16 31.54 -5
5/7/2023 1:30:00 AM 17.29 63.122 7.16 32.81 -5
5/7/2023 1:45:00 AM 17.03 62.654 7.15 32.31 -5
5/7/2023 2:00:00 AM 16.92 62.456 7.19 32.33 -5
5/7/2023 2:15:00 AM 17.41 63.338 7.16 32.09 -5
5/7/2023 2:30:00 AM 16.65 61.97 7.2 31.9 -5
5/7/2023 2:45:00 AM 17.03 62.654 7.19 32.56 -5
5/7/2023 3:00:00 AM 17.41 63.338 7.16 31.2 -5
5/7/2023 3:15:00 AM 16.54 61.772 7.16 28.59 -5
5/7/2023 3:30:00 AM 17.03 62.654 7.14 24.29 -5
5/7/2023 3:45:00 AM 17.16 62.888 7.15 24.3 -5
5/7/2023 4:00:00 AM 16.54 61.772 7.12 20.62 -5
5/7/2023 4:15:00 AM 17.03 62.654 7.12 19.26 -5
5/7/2023 4:30:00 AM 17.16 62.888 7.17 18.45 -5
5/7/2023 4:45:00 AM 16.4 61.52 7.14 20.76 -5
5/7/2023 5:00:00 AM 16.92 62.456 7.17 20.71 -5
5/7/2023 5:15:00 AM 17.16 62.888 7.18 31.6 -5
5/7/2023 5:30:00 AM 16.28 61.304 7.2 30.66 -5
5/7/2023 5:45:00 AM 16.54 61.772 7.2 23.57 -5
5/7/2023 6:00:00 AM 16.91 62.438 7.18 24.95 -5
5/7/2023 6:15:00 AM 16.92 62.456 7.17 23.97 -5
5/7/2023 6:30:00 AM 17.03 62.654 7.17 26.33 -5
5/7/2023 6:45:00 AM 17.03 62.654 7.24 25.93 -5
5/7/2023 7:00:00 AM 17.03 62.654 7.24 25.82 -5
5/7/2023 7:15:00 AM 17.03 62.654 7.24 26.61 -5
5/7/2023 7:30:00 AM 16.65 61.97 7.26 35.92 -5
5/7/2023 7:45:00 AM 16.4 61.52 7.23 31.34 -5
5/7/2023 8:00:00 AM 16.78 62.204 7.22 29.67 -5
5/7/2023 8:15:00 AM 17.03 62.654 7.23 30.32 -5
5/7/2023 8:30:00 AM 17.03 62.654 7.22 29.33 -5
5/7/2023 8:45:00 AM 16.29 61.322 7.19 29.67 -5
5/7/2023 9:00:00 AM 16.65 61.97 7.17 28.49 -5
5/7/2023 9:15:00 AM 16.92 62.456 7.19 28.43 -5
5/7/2023 9:30:00 AM 17.03 62.654 7.21 28.5 -5
5/7/2023 9:45:00 AM 16.54 61.772 7.19 28.46 -5
5/7/2023 10:00:00 AM 16.54 61.772 7.15 29.32 -5
5/7/2023 10:15:00 AM 16.91 62.438 7.16 28.88 -5
5/7/2023 10:30:00 AM 17.03 62.654 7.19 28.03 -5
5/7/2023 10:45:00 AM 16.28 61.304 7.18 28.16 -5
5/7/2023 11:00:00 AM 16.65 61.97 7.15 28.17 -5
5/7/2023 11:15:00 AM 16.92 62.456 7.18 27.54 -5
5/7/2023 11:30:00 AM 16.78 62.204 7.22 27.65 -5
5/7/2023 11:45:00 AM 16.54 61.772 7.22 28.13 -5
5/7/2023 12:00:00 PM 16.92 62.456 7.22 27.24 -5
5/7/2023 12:15:00 PM 16.92 62.456 7.21 28 -5
5/7/2023 12:30:00 PM 16.54 61.772 7.19 28.01 -5
5/7/2023 12:45:00 PM 17.03 62.654 7.18 27.87 -5
5/7/2023 1:00:00 PM 16.92 62.456 7.21 33.63 -5
5/7/2023 1:15:00 PM 16.65 61.97 7.23 31.51 -5
5/7/2023 1:30:00 PM 17.16 62.888 7.21 30.85 -5
5/7/2023 1:45:00 PM 16.39 61.502 7.21 30.96 -5
5/7/2023 2:00:00 PM 17.03 62.654 7.21 29.89 -5
5/7/2023 2:15:00 PM 16.78 62.204 7.23 30.6 -5
5/7/2023 2:30:00 PM 16.78 62.204 7.21 29.65 -5
5/7/2023 2:45:00 PM 17.03 62.654 7.22 28.98 -5
5/7/2023 3:00:00 PM 16.54 61.772 7.2 28.5 -5
5/7/2023 3:15:00 PM 17.16 62.888 7.2 26.63 -5
5/7/2023 3:30:00 PM 16.54 61.772 7.21 25.46 -5
5/7/2023 3:45:00 PM 16.78 62.204 7.2 25.93 -5
5/7/2023 4:00:00 PM 17.03 62.654 7.22 25.58 -5
5/7/2023 4:15:00 PM 16.54 61.772 7.21 25.36 -5
5/7/2023 4:30:00 PM 17.03 62.654 7.19 25.1 -5
5/7/2023 4:45:00 PM 16.54 61.772 7.22 25.51 -5
5/7/2023 5:00:00 PM 16.78 62.204 7.17 23.83 -5
5/7/2023 5:15:00 PM 16.91 62.438 7.15 24.5 -5
5/7/2023 5:30:00 PM 16.54 61.772 7.18 28.57 -5
5/7/2023 5:45:00 PM 17.15 62.87 7.16 29.08 -5
5/7/2023 6:00:00 PM 16.39 61.502 7.2 27.19 -5
5/7/2023 6:15:00 PM 16.92 62.456 7.17 27.08 -5
5/7/2023 6:30:00 PM 16.65 61.97 7.21 25.9 -5
5/7/2023 6:45:00 PM 16.65 61.97 7.16 26.19 -5
5/7/2023 7:00:00 PM 17.15 62.87 7.3 25.93 -5
5/7/2023 7:15:00 PM 16.39 61.502 7.17 25.25 -5
5/7/2023 7:30:00 PM 16.92 62.456 7.14 27.22 -5
5/7/2023 7:45:00 PM 16.78 62.204 7.14 28.55 -5
5/7/2023 8:00:00 PM 16.78 62.204 7.13 27.82 -5
5/7/2023 8:15:00 PM 17.15 62.87 7.13 27.78 -5
5/7/2023 8:30:00 PM 16.66 61.988 7.11 26.81 -5
5/7/2023 8:45:00 PM 17.15 62.87 7.12 27.16 -5
5/7/2023 9:00:00 PM 16.65 61.97 7.12 26.96 -5
5/7/2023 9:15:00 PM 17.03 62.654 7.11 27.21 -5
5/7/2023 9:30:00 PM 16.91 62.438 7.1 26.54 -5
5/7/2023 9:45:00 PM 16.65 61.97 7.1 26.56 -5
5/7/2023 10:00:00 PM 17.15 62.87 7.11 26.62 -5
5/7/2023 10:15:00 PM 16.54 61.772 7.12 26.85 -5
5/7/2023 10:30:00 PM 17.03 62.654 7.11 26.36 -5
5/7/2023 10:45:00 PM 16.91 62.438 7.11 26.23 -5
5/7/2023 11:00:00 PM 16.65 61.97 7.13 26.58 -5
5/7/2023 11:15:00 PM 17.16 62.888 7.12 26.51 -5
5/7/2023 11:30:00 PM 16.54 61.772 7.12 26.12 -5
5/7/2023 11:45:00 PM 17.03 62.654 7.13 26.2 -5
5/8/2023 12:00:00 AM 16.78 62.204 7.09 26.04 -5
5/8/2023 12:15:00 AM 16.78 62.204 7.13 25.9 -5
5/8/2023 12:30:00 AM 17.15 62.87 7.12 24.92 -5
5/8/2023 12:45:00 AM 16.4 61.52 7.11 25.48 -5
5/8/2023 1:00:00 AM 17.03 62.654 7.11 25.78 -5
5/8/2023 1:15:00 AM 16.78 62.204 7.13 26.33 -5
5/8/2023 1:30:00 AM 16.78 62.204 7.09 26 -5
5/8/2023 1:45:00 AM 17.16 62.888 7.12 26.01 -5
5/8/2023 2:00:00 AM 16.54 61.772 7.09 25.93 -5
5/8/2023 2:15:00 AM 16.92 62.456 7.06 25.98 -5
5/8/2023 2:30:00 AM 16.78 62.204 7.06 25.93 -5
5/8/2023 2:45:00 AM 16.65 61.97 7.01 24.84 -5
5/8/2023 3:00:00 AM 17.15 62.87 7.02 25.91 -5
5/8/2023 3:15:00 AM 16.39 61.502 7.04 25.85 -5
5/8/2023 3:30:00 AM 16.78 62.204 7 25.74 -5
5/8/2023 3:45:00 AM 16.92 62.456 6.99 26.15 -5
5/8/2023 4:00:00 AM 16.4 61.52 6.98 25.94 -5
5/8/2023 4:15:00 AM 16.92 62.456 6.98 25.36 -5
5/8/2023 4:30:00 AM 16.65 61.97 7.01 25.07 -5
5/8/2023 4:45:00 AM 16.54 61.772 7.09 25.5 -5
5/8/2023 5:00:00 AM 17.03 62.654 6.99 25.14 -5
5/8/2023 5:15:00 AM 16.39 61.502 6.97 24.85 -5
5/8/2023 5:30:00 AM 16.65 61.97 6.97 25.07 -5
5/8/2023 5:45:00 AM 17.03 62.654 6.98 25.17 -5
5/8/2023 6:00:00 AM 16.4 61.52 6.98 25.08 -5
5/8/2023 6:15:00 AM 16.78 62.204 7.01 24.82 -5
5/8/2023 6:30:00 AM 17.03 62.654 6.98 24.67 -5
5/8/2023 6:45:00 AM 16.39 61.502 6.97 25.31 -5
5/8/2023 7:00:00 AM 16.78 62.204 6.99 25.49 -5
5/8/2023 7:15:00 AM 16.91 62.438 6.97 24.98 -5
5/8/2023 7:30:00 AM 16.28 61.304 7.2 24.27 -5
5/8/2023 7:45:00 AM 16.65 61.97 7.25 24.27 -5
5/8/2023 8:00:00 AM 16.54 61.772 7.28 25 -5
5/8/2023 8:15:00 AM 16.28 61.304 7.3 24.84 -5
5/8/2023 8:30:00 AM 16.65 61.97 7.32 24.41 -5
5/8/2023 8:45:00 AM 16.4 61.52 7.32 23.15 -5
5/8/2023 9:00:00 AM 16.17 61.106 7.32 23.4 -5
5/8/2023 9:15:00 AM 16.54 61.772 7.3 23.15 -5
5/8/2023 9:30:00 AM 16.4 61.52 7.32 23.24 -5
5/8/2023 9:45:00 AM 16.16 61.088 7.31 23.02 -5
5/8/2023 10:00:00 AM 16.54 61.772 7.31 22.64 -5
5/8/2023 10:15:00 AM 16.39 61.502 7.32 25.78 -5
5/8/2023 10:30:00 AM 16.28 61.304 7.35 23.48 -5
5/8/2023 10:45:00 AM 16.78 62.204 7.36 22.82 -5
5/8/2023 11:00:00 AM 16.16 61.088 7.35 22.44 -5
5/8/2023 11:15:00 AM 16.54 61.772 7.35 22.73 -5
5/8/2023 11:30:00 AM 16.78 62.204 7.37 21.93 -5
5/8/2023 11:45:00 AM 16.17 61.106 7.38 22 -5
5/8/2023 12:00:00 PM 16.65 61.97 7.38 23.89 -5
5/8/2023 12:15:00 PM 16.91 62.438 7.4 24.42 -5
5/8/2023 12:30:00 PM 16.4 61.52 7.42 24.59 -5
5/8/2023 12:45:00 PM 16.91 62.438 7.44 23.98 -5
5/8/2023 1:00:00 PM 16.78 62.204 7.47 22.04 -5
5/8/2023 1:15:00 PM 16.65 61.97 7.49 21.85 -5
5/8/2023 1:30:00 PM 17.15 62.87 7.51 21.32 -5
5/8/2023 1:45:00 PM 16.7 62.06 7.52 21.24 -5
5/8/2023 2:00:00 PM 17.03 62.654 7.53 21.54 -5
5/8/2023 2:15:00 PM 17.29 63.122 7.54 21.37 -5
5/8/2023 2:30:00 PM 16.92 62.456 7.57 24.9 -5
5/8/2023 2:45:00 PM 17.41 63.338 7.6 23.75 -5
5/8/2023 3:00:00 PM 17.29 63.122 7.6 23.7 -5
5/8/2023 3:15:00 PM 17.29 63.122 7.59 23.32 -5
5/8/2023 3:30:00 PM 17.66 63.788 7.6 23.08 -5
5/8/2023 3:45:00 PM 17.15 62.87 7.59 20.4 -5
5/8/2023 4:00:00 PM 17.53 63.554 7.57 20.55 -5
5/8/2023 4:15:00 PM 17.41 63.338 7.57 22.34 -5
5/8/2023 4:30:00 PM 17.41 63.338 7.56 23.69 -5
5/8/2023 4:45:00 PM 17.9 64.22 7.56 22.82 -5
5/8/2023 5:00:00 PM 17.29 63.122 7.57 22.25 -5
5/8/2023 5:15:00 PM 17.79 64.022 7.57 22.67 -5
5/8/2023 5:30:00 PM 17.66 63.788 7.58 22.47 -5
5/8/2023 5:45:00 PM 17.41 63.338 7.58 22.29 -5
5/8/2023 6:00:00 PM 17.9 64.22 7.58 22.15 -5
5/8/2023 6:15:00 PM 17.41 63.338 7.58 22.24 -5
5/8/2023 6:30:00 PM 17.66 63.788 7.58 21.73 -5
5/8/2023 6:45:00 PM 17.79 64.022 7.58 21.87 -5
5/8/2023 7:00:00 PM 17.41 63.338 7.58 22.26 -5
5/8/2023 7:15:00 PM 18.03 64.454 7.59 22.16 -5
5/8/2023 7:30:00 PM 17.66 63.788 7.59 21.92 -5
5/8/2023 7:45:00 PM 17.79 64.022 7.6 22.01 -5
5/8/2023 8:00:00 PM 17.9 64.22 7.59 21.76 -5
5/8/2023 8:15:00 PM 17.53 63.554 7.6 21.61 -5
5/8/2023 8:30:00 PM 17.9 64.22 7.6 22.04 -5
5/8/2023 8:45:00 PM 17.66 63.788 7.6 21.86 -5
5/8/2023 9:00:00 PM 17.66 63.788 7.6 23.34 -5
5/8/2023 9:15:00 PM 18.03 64.454 7.61 22.54 -5
5/8/2023 9:30:00 PM 17.53 63.554 7.57 22.4 -5
5/8/2023 9:45:00 PM 18.15 64.67 7.51 22.14 -5
5/8/2023 10:00:00 PM 17.79 64.022 7.51 22.18 -5
5/8/2023 10:15:00 PM 17.9 64.22 7.42 22.19 -5
5/8/2023 10:30:00 PM 18.14 64.652 7.33 21.76 -5
5/8/2023 10:45:00 PM 17.79 64.022 7.33 21.71 -5
5/8/2023 11:00:00 PM 18.26 64.868 7.26 22.1 -5
5/8/2023 11:15:00 PM 17.9 64.22 7.24 22.16 -5
5/8/2023 11:30:00 PM 17.9 64.22 7.3 23.15 -5
5/8/2023 11:45:00 PM 18.03 64.454 7.49 21.79 -5
5/9/2023 12:00:00 AM 17.53 63.554 7.52 22.04 -5
5/9/2023 12:15:00 AM 18.03 64.454 7.42 21.67 -5
5/9/2023 12:30:00 AM 17.66 63.788 7.38 21.28 -5
5/9/2023 12:45:00 AM 17.79 64.022 7.45 21.28 -5
5/9/2023 1:00:00 AM 18.03 64.454 7.52 21.64 -5
5/9/2023 1:15:00 AM 17.53 63.554 7.48 21.26 -5
5/9/2023 1:30:00 AM 18.03 64.454 7.5 21.4 -5
5/9/2023 1:45:00 AM 17.66 63.788 7.35 21.6 -5
5/9/2023 2:00:00 AM 17.79 64.022 7.54 21.29 -5
5/9/2023 2:15:00 AM 18.03 64.454 7.21 21.57 -5
5/9/2023 2:30:00 AM 17.53 63.554 7.41 21.46 -5
5/9/2023 2:45:00 AM 18.03 64.454 7.55 21.76 -5
5/9/2023 3:00:00 AM 17.53 63.554 7.55 21.5 -5
5/9/2023 3:15:00 AM 17.79 64.022 7.53 21.9 -5
5/9/2023 3:30:00 AM 17.79 64.022 7.19 21.71 -5
5/9/2023 3:45:00 AM 17.53 63.554 7.1 21.39 -5
5/9/2023 4:00:00 AM 18.03 64.454 7.36 22.28 -5
5/9/2023 4:15:00 AM 17.53 63.554 7.02 21.94 -5
5/9/2023 4:30:00 AM 17.78 64.004 7.01 21.53 -5
5/9/2023 4:45:00 AM 17.79 64.022 7.01 21.52 -5
5/9/2023 5:00:00 AM 17.53 63.554 7.02 21.25 -5
5/9/2023 5:15:00 AM 18.03 64.454 7.04 20.84 -5
5/9/2023 5:30:00 AM 17.41 63.338 7.05 21.5 -5
5/9/2023 5:45:00 AM 17.79 64.022 7.23 21.44 -5
5/9/2023 6:00:00 AM 17.79 64.022 7.18 20.51 -5
5/9/2023 6:15:00 AM 17.41 63.338 7.25 20.2 -5
5/9/2023 6:30:00 AM 17.78 64.004 7.22 20.46 -5
5/9/2023 6:45:00 AM 17.41 63.338 7.27 20.04 -5
5/9/2023 7:00:00 AM 17.53 63.554 7.47 19.91 -5
5/9/2023 7:15:00 AM 17.79 64.022 7.16 19.74 -5
5/9/2023 7:30:00 AM 17.15 62.87 7.44 20.39 -5
5/9/2023 7:45:00 AM 17.15 62.87 7.45 20.05 -5
5/9/2023 8:00:00 AM 16.91 62.438 7.5 19.77 -5
5/9/2023 8:15:00 AM 16.78 62.204 7.51 20.14 -5
5/9/2023 8:30:00 AM 17.15 62.87 7.55 20.15 -5
5/9/2023 8:45:00 AM 16.65 61.97 7.56 20.48 -5
5/9/2023 9:00:00 AM 17.03 62.654 7.56 20.29 -5
5/9/2023 9:15:00 AM 17.15 62.87 7.56 20.34 -5
5/9/2023 9:30:00 AM 16.65 61.97 7.56 20.25 -5
5/9/2023 9:45:00 AM 17.03 62.654 7.55 19.43 -5
5/9/2023 10:00:00 AM 16.91 62.438 7.57 19.74 -5
5/9/2023 10:15:00 AM 16.78 62.204 7.57 20.09 -5
5/9/2023 10:30:00 AM 17.16 62.888 7.56 19.97 -5
5/9/2023 10:45:00 AM 16.65 61.97 7.53 20.63 -5
5/9/2023 11:00:00 AM 17.03 62.654 7.54 20.8 -5
5/9/2023 11:15:00 AM 17.29 63.122 7.54 20.39 -5
5/9/2023 11:30:00 AM 16.78 62.204 7.52 20.33 -5
5/9/2023 11:45:00 AM 17.15 62.87 7.56 20.36 -5
5/9/2023 12:00:00 PM 16.91 62.438 7.58 25.26 -5
5/9/2023 12:15:00 PM 17.03 62.654 7.58 23.02 -5
5/9/2023 12:30:00 PM 17.41 63.338 7.59 22.32 -5
5/9/2023 12:45:00 PM 16.91 62.438 7.6 22.52 -5
5/9/2023 1:00:00 PM 17.29 63.122 7.61 21.86 -5
5/9/2023 1:15:00 PM 17.03 62.654 7.62 22.05 -5
5/9/2023 1:30:00 PM 17.29 63.122 7.62 21.59 -5
5/9/2023 1:45:00 PM 17.16 62.888 7.62 21.71 -5
5/9/2023 2:00:00 PM 17.03 62.654 7.64 21.62 -5
5/9/2023 2:15:00 PM 17.41 63.338 7.64 21.44 -5
5/9/2023 2:30:00 PM 16.91 62.438 7.64 21.25 -5
5/9/2023 2:45:00 PM 17.29 63.122 7.64 19.6 -5
5/9/2023 3:00:00 PM 17.03 62.654 7.63 19.1 -5
5/9/2023 3:15:00 PM 17.15 62.87 7.64 20.57 -5
5/9/2023 3:30:00 PM 17.41 63.338 7.64 22.63 -5
5/9/2023 3:45:00 PM 17.29 63.122 7.67 21.82 -5
5/9/2023 4:00:00 PM 17.66 63.788 7.67 21 -5
5/9/2023 4:15:00 PM 17.29 63.122 7.67 20.57 -5
5/9/2023 4:30:00 PM 17.66 63.788 7.67 20.93 -5
5/9/2023 4:45:00 PM 17.53 63.554 7.67 20.55 -5
5/9/2023 5:00:00 PM 17.66 63.788 7.68 20.65 -5
5/9/2023 5:15:00 PM 17.66 63.788 7.67 20.51 -5
5/9/2023 5:30:00 PM 17.53 63.554 7.68 20.3 -5
5/9/2023 5:45:00 PM 17.66 63.788 7.67 20.17 -5
5/9/2023 6:00:00 PM 17.53 63.554 7.68 20.25 -5
5/9/2023 6:15:00 PM 17.79 64.022 7.69 20.43 -5
5/9/2023 6:30:00 PM 17.53 63.554 7.69 19.89 -5
5/9/2023 6:45:00 PM 18.03 64.454 7.69 19.98 -5
5/9/2023 7:00:00 PM 17.66 63.788 7.68 20.64 -5
5/9/2023 7:15:00 PM 17.9 64.22 7.68 21.29 -5
5/9/2023 7:30:00 PM 17.66 63.788 7.68 21.09 -5
5/9/2023 7:45:00 PM 17.66 63.788 7.71 20.81 -5
5/9/2023 8:00:00 PM 17.66 63.788 7.7 19.43 -5
5/9/2023 8:15:00 PM 17.53 63.554 7.71 19.17 -5
5/9/2023 8:30:00 PM 17.66 63.788 7.69 20.64 -5
5/9/2023 8:45:00 PM 17.53 63.554 7.71 20.64 -5
5/9/2023 9:00:00 PM 17.79 64.022 7.71 20.35 -5
5/9/2023 9:15:00 PM 17.41 63.338 7.72 19.85 -5
5/9/2023 9:30:00 PM 17.66 63.788 7.72 20.23 -5
5/9/2023 9:45:00 PM 17.41 63.338 7.71 19.53 -5
5/9/2023 10:00:00 PM 17.66 63.788 7.7 19.69 -5
5/9/2023 10:15:00 PM 17.53 63.554 7.67 19.17 -5
5/9/2023 10:30:00 PM 17.53 63.554 7.56 18.99 -5
5/9/2023 10:45:00 PM 17.53 63.554 7.47 19.12 -5
5/9/2023 11:00:00 PM 17.53 63.554 7.56 17.29 -5
5/9/2023 11:15:00 PM 17.66 63.788 7.59 17.31 -5
5/9/2023 11:30:00 PM 17.41 63.338 7.58 17.55 -5
5/9/2023 11:45:00 PM 17.66 63.788 7.58 16.98 -5
5/10/2023 12:00:00 AM 17.29 63.122 7.57 16.35 -5
5/10/2023 12:15:00 AM 17.66 63.788 7.56 17.14 -5
5/10/2023 12:30:00 AM 17.41 63.338 7.54 16.23 -5
5/10/2023 12:45:00 AM 17.53 63.554 7.51 14.88 -5
5/10/2023 1:00:00 AM 17.53 63.554 7.31 12.1 -5
5/10/2023 1:15:00 AM 17.41 63.338 7.28 11.07 -5
5/10/2023 1:30:00 AM 17.53 63.554 7.22 9.68 -5
5/10/2023 1:45:00 AM 17.29 63.122 7.23 6.66 -5
5/10/2023 2:00:00 AM 17.41 63.338 7.15 6.8 -5
5/10/2023 2:15:00 AM 17.15 62.87 7.07 5.76 -5
5/10/2023 2:30:00 AM 17.29 63.122 7.07 5.57 -5
5/10/2023 2:45:00 AM 17.29 63.122 7.06 5.28 -5
5/10/2023 3:00:00 AM 17.16 62.888 7.04 4.67 -5
5/10/2023 3:15:00 AM 17.29 63.122 7.19 4.93 -5
5/10/2023 3:30:00 AM 16.92 62.456 7.02 4.05 -5
5/10/2023 3:45:00 AM 17.16 62.888 7.01 4.08 -5
5/10/2023 4:00:00 AM 17.16 62.888 7.02 4.12 -5
5/10/2023 4:15:00 AM 16.92 62.456 7.05 3.66 -5
5/10/2023 4:30:00 AM 17.14 62.852 7.1 3.56 -5
5/10/2023 4:45:00 AM 16.92 62.456 7.07 3.55 -5
5/10/2023 5:00:00 AM 16.91 62.438 7.06 3.17 -5
5/10/2023 5:15:00 AM 17.02 62.636 7.03 3.22 -5
5/10/2023 5:30:00 AM 16.65 61.97 7.04 3.04 -5
5/10/2023 5:45:00 AM 16.65 61.97 7.07 2.97 -5
5/10/2023 6:00:00 AM 16.78 62.204 7.07 3 -5
5/10/2023 6:15:00 AM 16.78 62.204 7.18 2.87 -5
5/10/2023 6:30:00 AM 16.4 61.52 7.28 2.86 -5
5/10/2023 6:45:00 AM 16.65 61.97 7.18 2.86 -5
5/10/2023 7:00:00 AM 16.78 62.204 7.18 2.77 -5
5/10/2023 7:15:00 AM 16.4 61.52 7.08 2.74 -5
5/10/2023 7:30:00 AM 16.65 61.97 7.49 19.48 -5
5/10/2023 7:45:00 AM 16.78 62.204 7.52 19.77 -5
5/10/2023 8:00:00 AM 16.54 61.772 7.55 20.54 -5
5/10/2023 8:15:00 AM 16.54 61.772 7.58 20.69 -5
5/10/2023 8:30:00 AM 16.65 61.97 7.59 20.59 -5
5/10/2023 8:45:00 AM 16.65 61.97 7.62 20.5 -5
5/10/2023 9:00:00 AM 16.54 61.772 7.6 21.11 -5
5/10/2023 9:15:00 AM 16.65 61.97 7.63 20.1 -5
5/10/2023 9:30:00 AM 16.78 62.204 7.64 19.94 -5
5/10/2023 9:45:00 AM 16.54 61.772 7.64 20.13 -5
5/10/2023 10:00:00 AM 16.65 61.97 7.64 20.08 -5
5/10/2023 10:15:00 AM 16.78 62.204 7.64 20.02 -5
5/10/2023 10:30:00 AM 16.92 62.456 7.63 20.21 -5
5/10/2023 10:45:00 AM 16.54 61.772 7.64 20.43 -5
5/10/2023 11:00:00 AM 16.78 62.204 7.65 20.42 -5
5/10/2023 11:15:00 AM 17.03 62.654 7.65 20.19 -5
5/10/2023 11:30:00 AM 16.91 62.438 7.66 20.35 -5
5/10/2023 11:45:00 AM 16.91 62.438 7.67 20.23 -5
5/10/2023 12:00:00 PM 17.15 62.87 7.67 20.05 -5
5/10/2023 12:15:00 PM 17.29 63.122 7.67 20 -5
5/10/2023 12:30:00 PM 16.91 62.438 7.68 19.84 -5
5/10/2023 12:45:00 PM 17.29 63.122 7.67 19.9 -5
5/10/2023 1:00:00 PM 17.41 63.338 7.67 19.82 -5
5/10/2023 1:15:00 PM 17.03 62.654 7.68 19.7 -5
5/10/2023 1:30:00 PM 17.41 63.338 7.69 19.57 -5
5/10/2023 1:45:00 PM 17.53 63.554 7.69 19.89 -5
5/10/2023 2:00:00 PM 17.16 62.888 7.69 19.79 -5
5/10/2023 2:15:00 PM 17.53 63.554 7.7 19.74 -5
5/10/2023 2:30:00 PM 17.66 63.788 7.7 19.39 -5
5/10/2023 2:45:00 PM 17.41 63.338 7.7 19.54 -5
5/10/2023 3:00:00 PM 17.79 64.022 7.71 19.5 -5
5/10/2023 3:15:00 PM 17.53 63.554 7.71 19.36 -5
5/10/2023 3:30:00 PM 17.79 64.022 7.72 19.28 -5
5/10/2023 3:45:00 PM 17.79 64.022 7.72 19.66 -5
5/10/2023 4:00:00 PM 17.66 63.788 7.72 19.55 -5
5/10/2023 4:15:00 PM 18.03 64.454 7.71 21.84 -5
5/10/2023 4:30:00 PM 17.79 64.022 7.74 22.28 -5
5/10/2023 4:45:00 PM 18.14 64.652 7.75 21.82 -5
5/10/2023 5:00:00 PM 17.9 64.22 7.75 21.62 -5
5/10/2023 5:15:00 PM 18.14 64.652 7.77 20.72 -5
5/10/2023 5:30:00 PM 18.14 64.652 7.77 21.61 -5
5/10/2023 5:45:00 PM 18.26 64.868 7.79 21.73 -5
5/10/2023 6:00:00 PM 18.4 65.12 7.8 21.3 -5
5/10/2023 6:15:00 PM 18.14 64.652 7.81 21.11 -5
5/10/2023 6:30:00 PM 18.52 65.336 7.81 19.86 -5
5/10/2023 6:45:00 PM 18.26 64.868 7.82 19.71 -5
5/10/2023 7:00:00 PM 18.78 65.804 7.81 20.35 -5
5/10/2023 7:15:00 PM 18.26 64.868 7.83 20.14 -5
5/10/2023 7:30:00 PM 18.63 65.534 7.83 20.17 -5
5/10/2023 7:45:00 PM 18.4 65.12 7.85 18.39 -5
5/10/2023 8:00:00 PM 18.63 65.534 7.84 18.77 -5
5/10/2023 8:15:00 PM 18.52 65.336 7.86 18.99 -5
5/10/2023 8:30:00 PM 18.4 65.12 7.86 18.94 -5
5/10/2023 8:45:00 PM 18.52 65.336 7.87 18.86 -5
5/10/2023 9:00:00 PM 18.4 65.12 7.85 18.7 -5
5/10/2023 9:15:00 PM 18.63 65.534 7.84 18.49 -5
5/10/2023 9:30:00 PM 18.14 64.652 7.85 18.43 -5
5/10/2023 9:45:00 PM 18.52 65.336 7.86 18.27 -5
5/10/2023 10:00:00 PM 18.26 64.868 7.85 18.42 -5
5/10/2023 10:15:00 PM 18.52 65.336 7.86 18.35 -5
5/10/2023 10:30:00 PM 18.52 65.336 7.86 18.18 -5
5/10/2023 10:45:00 PM 18.26 64.868 7.86 18.34 -5
5/10/2023 11:00:00 PM 18.63 65.534 7.85 18.25 -5
5/10/2023 11:15:00 PM 18.26 64.868 7.85 18 -5
5/10/2023 11:30:00 PM 18.63 65.534 7.85 18.13 -5
5/10/2023 11:45:00 PM 18.52 65.336 7.86 18.07 -5
5/11/2023 12:00:00 AM 18.4 65.12 7.83 19.47 -5
5/11/2023 12:15:00 AM 18.78 65.804 7.84 18.82 -5
5/11/2023 12:30:00 AM 17.9 64.22 7.76 18.22 -5
5/11/2023 12:45:00 AM 18.26 64.868 7.65 18.09 -5
5/11/2023 1:00:00 AM 18.14 64.652 7.65 18.35 -5
5/11/2023 1:15:00 AM 18.03 64.454 7.82 18.05 -5
5/11/2023 1:30:00 AM 18.26 64.868 7.84 17.97 -5
5/11/2023 1:45:00 AM 17.9 64.22 7.84 17.79 -5
5/11/2023 2:00:00 AM 18.14 64.652 7.84 17.99 -5
5/11/2023 2:15:00 AM 18.41 65.138 7.71 18.04 -5
5/11/2023 2:30:00 AM 18.15 64.67 7.74 18.36 -5
5/11/2023 2:45:00 AM 18.63 65.534 7.82 17.53 -5
5/11/2023 3:00:00 AM 18.41 65.138 7.82 18.49 -5
5/11/2023 3:15:00 AM 18.52 65.336 7.82 16.78 -5
5/11/2023 3:30:00 AM 18.78 65.804 7.8 16.44 -5
5/11/2023 3:45:00 AM 18.4 65.12 7.79 16.62 -5
5/11/2023 4:00:00 AM 18.52 65.336 7.8 16.61 -5
5/11/2023 4:15:00 AM 19.03 66.254 7.79 18.24 -5
5/11/2023 4:30:00 AM 18.52 65.336 7.75 18.16 -5
5/11/2023 4:45:00 AM 18.78 65.804 7.7 18.24 -5
5/11/2023 5:00:00 AM 19.03 66.254 7.71 18.28 -5
5/11/2023 5:15:00 AM 18.52 65.336 7.65 18.37 -5
5/11/2023 5:30:00 AM 18.78 65.804 7.69 18.41 -5
5/11/2023 5:45:00 AM 19.04 66.272 7.63 18.51 -5
5/11/2023 6:00:00 AM 18.4 65.12 7.64 18.66 -5
5/11/2023 6:15:00 AM 18.78 65.804 7.52 18.29 -5
5/11/2023 6:30:00 AM 19.04 66.272 7.5 18.62 -5
5/11/2023 6:45:00 AM 18.63 65.534 7.54 18.6 -5
5/11/2023 7:00:00 AM 18.78 65.804 7.51 18.33 -5
5/11/2023 7:15:00 AM 17.29 63.122 7.66 17.73 -5
5/11/2023 7:30:00 AM 17.29 63.122 7.54 16.57 -5
5/11/2023 7:45:00 AM 16.91 62.438 7.54 16.62 -5
5/11/2023 8:00:00 AM 17.03 62.654 7.51 16.77 -5
5/11/2023 8:15:00 AM 17.16 62.888 7.45 16.76 -5
5/11/2023 8:30:00 AM 17.16 62.888 7.47 17.01 -5
5/11/2023 8:45:00 AM 16.92 62.456 7.44 17.33 -5
5/11/2023 9:00:00 AM 17.03 62.654 7.44 17.23 -5
5/11/2023 9:15:00 AM 17.16 62.888 7.44 17.29 -5
5/11/2023 9:30:00 AM 17.03 62.654 7.44 17.33 -5
5/11/2023 9:45:00 AM 17.03 62.654 7.45 17.66 -5
5/11/2023 10:00:00 AM 17.29 63.122 7.46 17.76 -5
5/11/2023 10:15:00 AM 17.29 63.122 7.46 17.73 -5
5/11/2023 10:30:00 AM 17.03 62.654 7.45 17.78 -5
5/11/2023 10:45:00 AM 17.29 63.122 7.45 18.05 -5
5/11/2023 11:00:00 AM 17.53 63.554 7.47 18.01 -5
5/11/2023 11:15:00 AM 17.16 62.888 7.48 17.95 -5
5/11/2023 11:30:00 AM 17.41 63.338 7.48 16.58 -5
5/11/2023 11:45:00 AM 17.53 63.554 7.45 16.22 -5
5/11/2023 12:00:00 PM 17.29 63.122 7.45 16.01 -5
5/11/2023 12:15:00 PM 17.53 63.554 7.44 18.22 -5
5/11/2023 12:30:00 PM 17.79 64.022 7.42 17.55 -5
5/11/2023 12:45:00 PM 17.53 63.554 7.43 17.39 -5
5/11/2023 1:00:00 PM 17.9 64.22 7.44 17.43 -5
5/11/2023 1:15:00 PM 18.03 64.454 7.43 17.14 -5
5/11/2023 1:30:00 PM 17.79 64.022 7.46 17.24 -5
5/11/2023 1:45:00 PM 18.15 64.67 7.52 17.81 -5
5/11/2023 2:00:00 PM 18.03 64.454 7.44 17.77 -5
5/11/2023 2:15:00 PM 18.15 64.67 7.39 17.29 -5
5/11/2023 2:30:00 PM 18.41 65.138 7.62 20.36 -5
5/11/2023 2:45:00 PM 18.26 64.868 7.56 20.11 -5
5/11/2023 3:00:00 PM 18.63 65.534 7.59 20.2 -5
5/11/2023 3:15:00 PM 18.52 65.336 7.5 18.86 -5
5/11/2023 3:30:00 PM 18.63 65.534 7.49 18.85 -5
5/11/2023 3:45:00 PM 18.63 65.534 7.52 18.1 -5
5/11/2023 4:00:00 PM 18.63 65.534 7.54 18.04 -5
5/11/2023 4:15:00 PM 18.78 65.804 7.53 18.06 -5
5/11/2023 4:30:00 PM 18.63 65.534 7.49 17.7 -5
5/11/2023 4:45:00 PM 18.78 65.804 7.51 17.9 -5
5/11/2023 5:00:00 PM 18.78 65.804 7.5 17.55 -5
5/11/2023 5:15:00 PM 18.78 65.804 7.5 17.52 -5
5/11/2023 5:30:00 PM 19.03 66.254 7.48 17.3 -5
5/11/2023 5:45:00 PM 18.78 65.804 7.49 17.61 -5
5/11/2023 6:00:00 PM 18.91 66.038 7.48 17.4 -5
5/11/2023 6:15:00 PM 18.91 66.038 7.34 17.25 -5
5/11/2023 6:30:00 PM 18.78 65.804 7.36 17.17 -5
5/11/2023 6:45:00 PM 18.91 66.038 7.29 16.71 -5
5/11/2023 7:00:00 PM 18.78 65.804 7.27 16.55 -5
5/11/2023 7:15:00 PM 18.78 65.804 7.25 16.2 -5
5/11/2023 7:30:00 PM 18.91 66.038 7.22 14.86 -5
5/11/2023 7:45:00 PM 18.78 65.804 7.23 16.89 -5
5/11/2023 8:00:00 PM 18.78 65.804 7.24 16.07 -5
5/11/2023 8:15:00 PM 18.91 66.038 7.25 16.68 -5
5/11/2023 8:30:00 PM 18.78 65.804 7.28 15.13 -5
5/11/2023 8:45:00 PM 18.78 65.804 7.38 15.5 -5
5/11/2023 9:00:00 PM 18.78 65.804 7.34 15.35 -5
5/11/2023 9:15:00 PM 18.78 65.804 7.36 15.8 -5
5/11/2023 9:30:00 PM 18.91 66.038 7.34 15.38 -5
5/11/2023 9:45:00 PM 18.78 65.804 7.26 15.27 -5
5/11/2023 10:00:00 PM 18.78 65.804 7.3 14.98 -5
5/11/2023 10:15:00 PM 18.78 65.804 7.24 14.88 -5
5/11/2023 10:30:00 PM 18.78 65.804 7.19 15.73 -5
5/11/2023 10:45:00 PM 18.78 65.804 7.2 14.28 -5
5/11/2023 11:00:00 PM 18.78 65.804 7.13 13.93 -5
5/11/2023 11:15:00 PM 18.78 65.804 7.17 13.95 -5
5/11/2023 11:30:00 PM 18.91 66.038 7.16 14.12 -5
5/11/2023 11:45:00 PM 18.7 65.66 7.13 14.63 -5
5/12/2023 12:00:00 AM 18.78 65.804 7.14 15.08 -5
5/12/2023 12:15:00 AM 18.78 65.804 7.12 14.59 -5
5/12/2023 12:30:00 AM 18.63 65.534 7.13 14.91 -5
5/12/2023 12:45:00 AM 18.91 66.038 7.15 15.32 -5
5/12/2023 1:00:00 AM 18.63 65.534 7.13 14.9 -5
5/12/2023 1:15:00 AM 18.78 65.804 7.14 14.76 -5
5/12/2023 1:30:00 AM 18.78 65.804 7.11 14.69 -5
5/12/2023 1:45:00 AM 18.63 65.534 7.1 15.91 -5
5/12/2023 2:00:00 AM 18.78 65.804 7.11 15.45 -5
5/12/2023 2:15:00 AM 18.63 65.534 7.11 15.32 -5
5/12/2023 2:30:00 AM 18.63 65.534 7.08 15.27 -5
5/12/2023 2:45:00 AM 18.78 65.804 7.1 15.46 -5
5/12/2023 3:00:00 AM 18.52 65.336 7.12 15.33 -5
5/12/2023 3:15:00 AM 18.78 65.804 7.09 15.27 -5
5/12/2023 3:30:00 AM 18.63 65.534 7.11 15.32 -5
5/12/2023 3:45:00 AM 18.52 65.336 7.06 15.56 -5
5/12/2023 4:00:00 AM 18.78 65.804 7.09 15.17 -5
5/12/2023 4:15:00 AM 18.41 65.138 7.09 15.48 -5
5/12/2023 4:30:00 AM 18.63 65.534 7.08 15.01 -5
5/12/2023 4:45:00 AM 18.52 65.336 7.11 15.2 -5
5/12/2023 5:00:00 AM 18.26 64.868 7.08 15.93 -5
5/12/2023 5:15:00 AM 18.52 65.336 7.12 15.83 -5
5/12/2023 5:30:00 AM 18.14 64.652 7.1 14.81 -5
5/12/2023 5:45:00 AM 18.4 65.12 7.11 15.19 -5
5/12/2023 6:00:00 AM 18.41 65.138 7.13 15.2 -5
5/12/2023 6:15:00 AM 18.03 64.454 7.09 15.25 -5
5/12/2023 6:30:00 AM 18.26 64.868 7.14 15.85 -5
5/12/2023 6:45:00 AM 18.14 64.652 7.14 15.85 -5
5/12/2023 7:00:00 AM 18.03 64.454 7.11 15.66 -5
5/12/2023 7:15:00 AM 18.26 64.868 7.17 15.46 -5
5/12/2023 7:30:00 AM 17.9 64.22 7.61 13.39 -5
5/12/2023 7:45:00 AM 18.03 64.454 7.62 13.7 -5
5/12/2023 8:00:00 AM 18.14 64.652 7.63 13.85 -5
5/12/2023 8:15:00 AM 17.79 64.022 7.62 13.87 -5
5/12/2023 8:30:00 AM 18.03 64.454 7.64 14.04 -5
5/12/2023 8:45:00 AM 18.14 64.652 7.66 14.55 -5
5/12/2023 9:00:00 AM 17.9 64.22 7.67 14.46 -5
5/12/2023 9:15:00 AM 18.03 64.454 7.68 14.69 -5
5/12/2023 9:30:00 AM 18.03 64.454 7.71 14.86 -5
5/12/2023 9:45:00 AM 18.03 64.454 7.72 15.09 -5
5/12/2023 10:00:00 AM 18.26 64.868 7.75 15.12 -5
5/12/2023 10:15:00 AM 18.03 64.454 7.78 14.53 -5
5/12/2023 10:30:00 AM 18.26 64.868 7.83 14.69 -5
5/12/2023 10:45:00 AM 18.4 65.12 7.86 14.85 -5
5/12/2023 11:00:00 AM 18.14 64.652 7.89 14.99 -5
5/12/2023 11:15:00 AM 18.41 65.138 7.91 14.8 -5
5/12/2023 11:30:00 AM 18.4 65.12 7.92 15.02 -5
5/12/2023 11:45:00 AM 18.52 65.336 7.94 15 -5
5/12/2023 12:00:00 PM 18.78 65.804 7.97 14.75 -5
5/12/2023 12:15:00 PM 18.52 65.336 7.99 14.83 -5
5/12/2023 12:30:00 PM 18.78 65.804 8.03 14.82 -5
5/12/2023 12:45:00 PM 18.77 65.786 8.03 14.96 -5
5/12/2023 1:00:00 PM 18.78 65.804 8.07 14.79 -5
5/12/2023 1:15:00 PM 19.03 66.254 8.07 14.5 -5
5/12/2023 1:30:00 PM 18.78 65.804 8.08 14.56 -5
5/12/2023 1:45:00 PM 19.03 66.254 8.1 14.59 -5
5/12/2023 2:00:00 PM 19.03 66.254 8.12 14.45 -5
5/12/2023 2:15:00 PM 19.03 66.254 8.15 14.61 -5
5/12/2023 2:30:00 PM 19.29 66.722 8.18 14.64 -5
5/12/2023 2:45:00 PM 19.17 66.506 8.17 14.48 -5
5/12/2023 3:00:00 PM 19.41 66.938 8.2 14.44 -5
5/12/2023 3:15:00 PM 19.41 66.938 8.21 16.04 -5
5/12/2023 3:30:00 PM 19.41 66.938 8.21 19.12 -5
5/12/2023 3:45:00 PM 19.67 67.406 8.19 16.7 -5
5/12/2023 4:00:00 PM 19.41 66.938 8.22 13.64 -5
5/12/2023 4:15:00 PM 19.67 67.406 8.2 13.67 -5
5/12/2023 4:30:00 PM 19.67 67.406 8.16 15.63 -5
5/12/2023 4:45:00 PM 19.54 67.172 8.24 15.89 -5
5/12/2023 5:00:00 PM 19.78 67.604 8.29 16.51 -5
5/12/2023 5:15:00 PM 19.78 67.604 8.38 15.89 -5
5/12/2023 5:30:00 PM 19.67 67.406 8.33 14.15 -5
5/12/2023 5:45:00 PM 19.92 67.856 8.36 13.79 -5
5/12/2023 6:00:00 PM 19.78 67.604 8.46 13.58 -5
5/12/2023 6:15:00 PM 19.67 67.406 8.3 14.74 -5
5/12/2023 6:30:00 PM 19.92 67.856 8.47 14.45 -5
5/12/2023 6:45:00 PM 19.78 67.604 8.54 14.87 -5
5/12/2023 7:00:00 PM 19.78 67.604 8.54 14.3 -5
5/12/2023 7:15:00 PM 19.78 67.604 8.55 13.84 -5
5/12/2023 7:30:00 PM 20.04 68.07201 8.53 13.94 -5
5/12/2023 7:45:00 PM 19.78 67.604 8.57 14.41 -5
5/12/2023 8:00:00 PM 19.78 67.604 8.48 13.64 -5
5/12/2023 8:15:00 PM 19.78 67.604 8.5 13.92 -5
5/12/2023 8:30:00 PM 19.92 67.856 8.55 13.82 -5
5/12/2023 8:45:00 PM 19.78 67.604 8.54 14.19 -5
5/12/2023 9:00:00 PM 19.78 67.604 8.57 13.62 -5
5/12/2023 9:15:00 PM 20.03 68.054 8.48 13.57 -5
5/12/2023 9:30:00 PM 19.78 67.604 8.51 13.54 -5
5/12/2023 9:45:00 PM 19.78 67.604 8.38 13.69 -5
5/12/2023 10:00:00 PM 20.04 68.07201 8.5 13.7 -5
5/12/2023 10:15:00 PM 19.78 67.604 8.48 13.47 -5
5/12/2023 10:30:00 PM 19.78 67.604 8.52 13.45 -5
5/12/2023 10:45:00 PM 20.03 68.054 8.49 12.35 -5
5/12/2023 11:00:00 PM 19.78 67.604 8.51 12.43 -5
5/12/2023 11:15:00 PM 19.78 67.604 8.47 12.42 -5
5/12/2023 11:30:00 PM 20.03 68.054 8.45 12.88 -5
5/12/2023 11:45:00 PM 19.78 67.604 8.43 13.04 -5
5/13/2023 12:00:00 AM 19.92 67.856 8.39 13.16 -5
5/13/2023 12:15:00 AM 19.92 67.856 8.37 12.89 -5
5/13/2023 12:30:00 AM 19.78 67.604 8.3 13.14 -5
5/13/2023 12:45:00 AM 20.04 68.07201 8.25 13.24 -5
5/13/2023 1:00:00 AM 19.78 67.604 8.21 12.9 -5
5/13/2023 1:15:00 AM 19.78 67.604 8.2 13.06 -5
5/13/2023 1:30:00 AM 20.04 68.07201 8.16 12.83 -5
5/13/2023 1:45:00 AM 19.78 67.604 8.15 13.02 -5
5/13/2023 2:00:00 AM 19.92 67.856 8.11 13 -5
5/13/2023 2:15:00 AM 19.92 67.856 8.09 12.67 -5
5/13/2023 2:30:00 AM 19.72 67.496 8.07 12.79 -5
5/13/2023 2:45:00 AM 19.92 67.856 8.07 12.85 -5
5/13/2023 3:00:00 AM 19.78 67.604 8.06 12.81 -5
5/13/2023 3:15:00 AM 19.78 67.604 8.03 12.94 -5
5/13/2023 3:30:00 AM 19.92 67.856 7.99 12.86 -5
5/13/2023 3:45:00 AM 19.74 67.532 7.98 13.02 -5
5/13/2023 4:00:00 AM 19.78 67.604 7.98 12.89 -5
5/13/2023 4:15:00 AM 19.92 67.856 7.93 12.72 -5
5/13/2023 4:30:00 AM 19.67 67.406 7.93 12.87 -5
5/13/2023 4:45:00 AM 19.92 67.856 7.85 12.58 -5
5/13/2023 5:00:00 AM 19.67 67.406 7.92 12.58 -5
5/13/2023 5:15:00 AM 19.67 67.406 7.93 12.65 -5
5/13/2023 5:30:00 AM 19.78 67.604 7.9 13.15 -5
5/13/2023 5:45:00 AM 19.67 67.406 7.82 12.83 -5
5/13/2023 6:00:00 AM 19.78 67.604 7.86 12.74 -5
5/13/2023 6:15:00 AM 19.54 67.172 7.79 12.67 -5
5/13/2023 6:30:00 AM 19.78 67.604 7.84 12.55 -5
5/13/2023 6:45:00 AM 19.54 67.172 7.76 11.61 -5
5/13/2023 7:00:00 AM 19.67 67.406 7.78 11.4 -5
5/13/2023 7:15:00 AM 19.54 67.172 7.72 11.54 -5
5/13/2023 7:30:00 AM 19.41 66.938 7.65 12.66 -5
5/13/2023 7:45:00 AM 19.54 67.172 7.71 12.63 -5
5/13/2023 8:00:00 AM 19.41 66.938 7.66 12.49 -5
5/13/2023 8:15:00 AM 19.54 67.172 7.68 12.65 -5
5/13/2023 8:30:00 AM 19.29 66.722 7.7 12.17 -5
5/13/2023 8:45:00 AM 19.41 66.938 7.65 12.5 -5
5/13/2023 9:00:00 AM 19.41 66.938 7.68 12.41 -5
5/13/2023 9:15:00 AM 19.29 66.722 7.69 12.65 -5
5/13/2023 9:30:00 AM 19.54 67.172 7.68 12.58 -5
5/13/2023 9:45:00 AM 19.29 66.722 7.71 12.61 -5
5/13/2023 10:00:00 AM 19.41 66.938 7.64 12.83 -5
5/13/2023 10:15:00 AM 19.41 66.938 7.7 12.81 -5
5/13/2023 10:30:00 AM 19.29 66.722 7.7 13.3 -5
5/13/2023 10:45:00 AM 19.54 67.172 7.75 13.46 -5
5/13/2023 11:00:00 AM 19.29 66.722 7.73 13.54 -5
5/13/2023 11:15:00 AM 19.54 67.172 7.68 13.21 -5
5/13/2023 11:30:00 AM 19.41 66.938 7.73 13.27 -5
5/13/2023 11:45:00 AM 19.41 66.938 7.77 13.18 -5
5/13/2023 12:00:00 PM 19.54 67.172 7.73 13.08 -5
5/13/2023 12:15:00 PM 19.29 66.722 7.73 13.28 -5
5/13/2023 12:30:00 PM 19.41 66.938 7.77 13.45 -5
5/13/2023 12:45:00 PM 19.41 66.938 7.78 13.43 -5
5/13/2023 1:00:00 PM 19.41 66.938 7.72 13.51 -5
5/13/2023 1:15:00 PM 19.54 67.172 7.71 13.32 -5
5/13/2023 1:30:00 PM 19.29 66.722 7.77 13.28 -5
5/13/2023 1:45:00 PM 19.54 67.172 7.8 13.34 -5
5/13/2023 2:00:00 PM 19.41 66.938 7.77 13.22 -5
5/13/2023 2:15:00 PM 19.41 66.938 7.85 13.35 -5
5/13/2023 2:30:00 PM 19.54 67.172 7.87 13.45 -5
5/13/2023 2:45:00 PM 19.41 66.938 7.84 13.4 -5
5/13/2023 3:00:00 PM 19.54 67.172 7.9 13.39 -5
5/13/2023 3:15:00 PM 19.41 66.938 7.85 13.47 -5
5/13/2023 3:30:00 PM 19.54 67.172 7.91 13.25 -5
5/13/2023 3:45:00 PM 19.54 67.172 7.85 13.56 -5
5/13/2023 4:00:00 PM 19.41 66.938 7.92 13.71 -5
5/13/2023 4:15:00 PM 19.67 67.406 7.84 13.93 -5
5/13/2023 4:30:00 PM 19.41 66.938 7.9 13.57 -5
5/13/2023 4:45:00 PM 19.54 67.172 7.92 13.58 -5
5/13/2023 5:00:00 PM 19.54 67.172 7.92 13.35 -5
5/13/2023 5:15:00 PM 19.41 66.938 7.87 13.35 -5
5/13/2023 5:30:00 PM 19.54 67.172 7.89 13.57 -5
5/13/2023 5:45:00 PM 19.41 66.938 7.97 13.19 -5
5/13/2023 6:00:00 PM 19.41 66.938 7.91 13.06 -5
5/13/2023 6:15:00 PM 19.51 67.118 7.86 13.09 -5
5/13/2023 6:30:00 PM 19.29 66.722 7.89 12.93 -5
5/13/2023 6:45:00 PM 19.54 67.172 7.85 13.15 -5
5/13/2023 7:00:00 PM 19.29 66.722 7.97 12.86 -5
5/13/2023 7:15:00 PM 19.41 66.938 7.86 13.04 -5
5/13/2023 7:30:00 PM 19.41 66.938 7.79 14.38 -5
5/13/2023 7:45:00 PM 19.29 66.722 8.07 14.08 -5
5/13/2023 8:00:00 PM 19.54 67.172 8.22 13.65 -5
5/13/2023 8:15:00 PM 19.29 66.722 8.29 13.45 -5
5/13/2023 8:30:00 PM 19.29 66.722 8.28 13.36 -5
5/13/2023 8:45:00 PM 19.29 66.722 8.33 13.14 -5
5/13/2023 9:00:00 PM 19.16 66.488 8.17 13.6 -5
5/13/2023 9:15:00 PM 19.29 66.722 8.32 13.28 -5
5/13/2023 9:30:00 PM 19.03 66.254 8.27 13.26 -5
5/13/2023 9:45:00 PM 19.16 66.488 8.28 13.21 -5
5/13/2023 10:00:00 PM 19.16 66.488 8.27 13.11 -5
5/13/2023 10:15:00 PM 18.91 66.038 8.29 12.53 -5
5/13/2023 10:30:00 PM 19.17 66.506 8.27 12.8 -5
5/13/2023 10:45:00 PM 18.91 66.038 8.27 12.43 -5
5/13/2023 11:00:00 PM 18.91 66.038 8.25 12.51 -5
5/13/2023 11:15:00 PM 19.16 66.488 8.25 12.43 -5
5/13/2023 11:30:00 PM 18.78 65.804 8.2 12.47 -5
5/13/2023 11:45:00 PM 18.91 66.038 8.21 12.36 -5
5/14/2023 12:00:00 AM 18.91 66.038 8.2 12.25 -5
5/14/2023 12:15:00 AM 18.78 65.804 8.18 12.14 -5
5/14/2023 12:30:00 AM 18.91 66.038 8.15 12.2 -5
5/14/2023 12:45:00 AM 18.78 65.804 8.15 12.33 -5
5/14/2023 1:00:00 AM 18.78 65.804 8.14 12.14 -5
5/14/2023 1:15:00 AM 18.91 66.038 8.15 12.12 -5
5/14/2023 1:30:00 AM 18.78 65.804 8.1 12.76 -5
5/14/2023 1:45:00 AM 18.78 65.804 8.12 12.52 -5
5/14/2023 2:00:00 AM 18.91 66.038 8.11 12.37 -5
5/14/2023 2:15:00 AM 18.63 65.534 8.11 12.5 -5
5/14/2023 2:30:00 AM 18.78 65.804 8.08 12.34 -5
5/14/2023 2:45:00 AM 18.78 65.804 8.09 12.41 -5
5/14/2023 3:00:00 AM 18.52 65.336 8.08 12.22 -5
5/14/2023 3:15:00 AM 18.78 65.804 8.04 12.33 -5
5/14/2023 3:30:00 AM 18.78 65.804 8.05 12.43 -5
5/14/2023 3:45:00 AM 18.52 65.336 8 12.41 -5
5/14/2023 4:00:00 AM 18.78 65.804 8.02 12.42 -5
5/14/2023 4:15:00 AM 18.78 65.804 8.02 11.91 -5
5/14/2023 4:30:00 AM 18.4 65.12 8.01 11.81 -5
5/14/2023 4:45:00 AM 18.63 65.534 7.99 11.84 -5
5/14/2023 5:00:00 AM 18.78 65.804 7.99 11.27 -5
5/14/2023 5:15:00 AM 18.4 65.12 7.93 10.39 -5
5/14/2023 5:30:00 AM 18.41 65.138 7.92 10.38 -5
5/14/2023 5:45:00 AM 18.63 65.534 7.89 10.8 -5
5/14/2023 6:00:00 AM 18.78 65.804 7.89 13.84 -5
5/14/2023 6:15:00 AM 18.26 64.868 7.91 12.44 -5
5/14/2023 6:30:00 AM 18.4 65.12 7.89 11.6 -5
5/14/2023 6:45:00 AM 18.52 65.336 7.87 11.69 -5
5/14/2023 7:00:00 AM 18.52 65.336 7.87 11.66 -5
5/14/2023 7:15:00 AM 18.14 64.652 7.87 12.32 -5
5/14/2023 7:30:00 AM 18.26 64.868 7.88 11.6 -5
5/14/2023 7:45:00 AM 18.41 65.138 7.88 11.78 -5
5/14/2023 8:00:00 AM 18.52 65.336 7.82 12.22 -5
5/14/2023 8:15:00 AM 18.14 64.652 7.78 12.29 -5
5/14/2023 8:30:00 AM 18.26 64.868 7.88 12.82 -5
5/14/2023 8:45:00 AM 18.41 65.138 7.92 12.45 -5
5/14/2023 9:00:00 AM 18.63 65.534 7.97 12.37 -5
5/14/2023 9:15:00 AM 18.15 64.67 8.01 12.68 -5
5/14/2023 9:30:00 AM 18.4 65.12 8.04 12.48 -5
5/14/2023 9:45:00 AM 18.63 65.534 8.06 12.42 -5
5/14/2023 10:00:00 AM 18.63 65.534 8.1 12.69 -5
5/14/2023 10:15:00 AM 18.4 65.12 8.13 13.1 -5
5/14/2023 10:30:00 AM 18.63 65.534 8.17 13.13 -5
5/14/2023 10:45:00 AM 18.78 65.804 8.22 12.85 -5
5/14/2023 11:00:00 AM 18.63 65.534 8.28 12.82 -5
5/14/2023 11:15:00 AM 18.78 65.804 8.34 12.82 -5
5/14/2023 11:30:00 AM 18.91 66.038 8.39 12.8 -5
5/14/2023 11:45:00 AM 18.91 66.038 8.44 12.77 -5
5/14/2023 12:00:00 PM 18.77 65.786 8.48 12.86 -5
5/14/2023 12:15:00 PM 19.03 66.254 8.51 12.87 -5
5/14/2023 12:30:00 PM 19.29 66.722 8.52 12.47 -5
5/14/2023 12:45:00 PM 18.91 66.038 8.54 12.63 -5
5/14/2023 1:00:00 PM 19.29 66.722 8.55 13.23 -5
5/14/2023 1:15:00 PM 19.54 67.172 8.58 13.65 -5
5/14/2023 1:30:00 PM 19.17 66.506 8.64 13.34 -5
5/14/2023 1:45:00 PM 19.54 67.172 8.71 13.63 -5
5/14/2023 2:00:00 PM 19.54 67.172 8.76 13.44 -5
5/14/2023 2:15:00 PM 19.41 66.938 8.81 13.5 -5
5/14/2023 2:30:00 PM 19.92 67.856 8.83 13.42 -5
5/14/2023 2:45:00 PM 19.67 67.406 8.85 13.34 -5
5/14/2023 3:00:00 PM 19.78 67.604 8.86 13.36 -5
5/14/2023 3:15:00 PM 20.15 68.27 8.88 13.79 -5
5/14/2023 3:30:00 PM 19.78 67.604 8.94 13.58 -5
5/14/2023 3:45:00 PM 20.15 68.27 8.98 13.54 -5
5/14/2023 4:00:00 PM 20.09 68.162 9.01 13.57 -5
5/14/2023 4:15:00 PM 20.04 68.07201 9.03 13.42 -5
5/14/2023 4:30:00 PM 20.41 68.738 9.04 13.36 -5
5/14/2023 4:45:00 PM 20.04 68.07201 9.08 13.26 -5
5/14/2023 5:00:00 PM 20.29 68.522 9.11 13.1 -5
5/14/2023 5:15:00 PM 20.3 68.54 9.14 13.15 -5
5/14/2023 5:30:00 PM 20.15 68.27 9.16 13.08 -5
5/14/2023 5:45:00 PM 20.52 68.936 9.18 12.94 -5
5/14/2023 6:00:00 PM 20.15 68.27 9.2 12.97 -5
5/14/2023 6:15:00 PM 20.29 68.522 9.17 13.07 -5
5/14/2023 6:30:00 PM 20.41 68.738 9.16 12.83 -5
5/14/2023 6:45:00 PM 20.15 68.27 9.18 12.86 -5
5/14/2023 7:00:00 PM 20.52 68.936 9.09 12.77 -5
5/14/2023 7:15:00 PM 20.15 68.27 9.17 12.86 -5
5/14/2023 7:30:00 PM 20.3 68.54 9.18 12.62 -5
5/14/2023 7:45:00 PM 20.3 68.54 9.19 12.42 -5
5/14/2023 8:00:00 PM 20.15 68.27 9.12 12.48 -5
5/14/2023 8:15:00 PM 20.41 68.738 9.12 12.34 -5
5/14/2023 8:30:00 PM 20.03 68.054 9.16 13.07 -5
5/14/2023 8:45:00 PM 20.3 68.54 9.12 12.94 -5
5/14/2023 9:00:00 PM 20.15 68.27 9.07 12.47 -5
5/14/2023 9:15:00 PM 20.04 68.07201 9.09 12.9 -5
5/14/2023 9:30:00 PM 20.41 68.738 8.85 12.62 -5
5/14/2023 9:45:00 PM 19.92 67.856 8.36 12.57 -5
5/14/2023 10:00:00 PM 20.15 68.27 8.48 12.53 -5
5/14/2023 10:15:00 PM 19.92 67.856 8.24 13.04 -5
5/14/2023 10:30:00 PM 19.78 67.604 8.47 12.14 -5
5/14/2023 10:45:00 PM 20.15 68.27 8.66 12.21 -5
5/14/2023 11:00:00 PM 19.67 67.406 8.16 12.07 -5
5/14/2023 11:15:00 PM 20.04 68.07201 8 12.22 -5
5/14/2023 11:30:00 PM 19.78 67.604 7.93 12.18 -5
5/14/2023 11:45:00 PM 19.78 67.604 8.09 12 -5
5/15/2023 12:00:00 AM 19.92 67.856 7.93 11.93 -5
5/15/2023 12:15:00 AM 19.54 67.172 8.69 12.07 -5
5/15/2023 12:30:00 AM 19.92 67.856 8.74 12.19 -5
5/15/2023 12:45:00 AM 19.54 67.172 8.75 13.46 -5
5/15/2023 1:00:00 AM 19.67 67.406 8.68 12.26 -5
5/15/2023 1:15:00 AM 19.75 67.55 7.76 12.01 -5
5/15/2023 1:30:00 AM 19.41 66.938 8.03 12.15 -5
5/15/2023 1:45:00 AM 19.78 67.604 7.78 11.89 -5
5/15/2023 2:00:00 AM 19.29 66.722 7.72 11.78 -5
5/15/2023 2:15:00 AM 19.54 67.172 8.01 11.86 -5
5/15/2023 2:30:00 AM 19.54 67.172 8.32 11.73 -5
5/15/2023 2:45:00 AM 19.29 66.722 7.74 11.73 -5
5/15/2023 3:00:00 AM 19.54 67.172 7.6 11.76 -5
5/15/2023 3:15:00 AM 19.29 66.722 7.53 11.86 -5
5/15/2023 3:30:00 AM 19.29 66.722 7.95 11.72 -5
5/15/2023 3:45:00 AM 19.41 66.938 7.7 11.71 -5
5/15/2023 4:00:00 AM 19.03 66.254 7.78 11.78 -5
5/15/2023 4:15:00 AM 19.29 66.722 8.09 11.96 -5
5/15/2023 4:30:00 AM 19.03 66.254 7.88 11.74 -5
5/15/2023 4:45:00 AM 18.78 65.804 8.6 11.77 -5
5/15/2023 5:00:00 AM 19.17 66.506 8.55 11.94 -5
5/15/2023 5:15:00 AM 18.78 65.804 8.52 12.03 -5
5/15/2023 5:30:00 AM 18.78 65.804 8.54 11.76 -5
5/15/2023 5:45:00 AM 19.03 66.254 8.55 11.39 -5
5/15/2023 6:00:00 AM 18.78 65.804 8.54 11.88 -5
5/15/2023 6:15:00 AM 18.78 65.804 8.37 12.2 -5
5/15/2023 6:30:00 AM 18.78 65.804 8.07 12.06 -5
5/15/2023 6:45:00 AM 18.63 65.534 7.86 12.03 -5
5/15/2023 7:00:00 AM 18.63 65.534 7.74 12.12 -5
5/15/2023 7:15:00 AM 18.76 65.768 7.97 29.39 -5
5/15/2023 7:30:00 AM 18.41 65.138 7.83 10.47 -5
5/15/2023 7:45:00 AM 18.14 64.652 7.78 10.5 -5
5/15/2023 8:00:00 AM 18.41 65.138 7.75 10.66 -5
5/15/2023 8:15:00 AM 18.41 65.138 7.76 10.64 -5
5/15/2023 8:30:00 AM 18.03 64.454 7.75 10.14 -5
5/15/2023 8:45:00 AM 18.14 64.652 7.92 10.19 -5
5/15/2023 9:00:00 AM 18.26 64.868 7.81 10.31 -5
5/15/2023 9:15:00 AM 18.15 64.67 7.83 10.2 -5
5/15/2023 9:30:00 AM 18.03 64.454 7.83 10.41 -5
5/15/2023 9:45:00 AM 18.26 64.868 7.96 10.48 -5
5/15/2023 10:00:00 AM 18.41 65.138 7.96 10.71 -5
5/15/2023 10:15:00 AM 18.26 64.868 8.02 10.65 -5
5/15/2023 10:30:00 AM 18.26 64.868 8 10.66 -5
5/15/2023 10:45:00 AM 18.41 65.138 8.23 10.65 -5
5/15/2023 11:00:00 AM 18.63 65.534 7.91 10.57 -5
5/15/2023 11:15:00 AM 18.41 65.138 8.03 10.58 -5
5/15/2023 11:30:00 AM 18.63 65.534 8.12 10.67 -5
5/15/2023 11:45:00 AM 18.78 65.804 8.15 10.69 -5
5/15/2023 12:00:00 PM 18.63 65.534 8.26 10.83 -5
5/15/2023 12:15:00 PM 18.78 65.804 8.24 11.04 -5
5/15/2023 12:30:00 PM 18.91 66.038 8.32 11.09 -5
5/15/2023 12:45:00 PM 18.78 65.804 8.15 11.09 -5
5/15/2023 1:00:00 PM 18.78 65.804 8.13 11.51 -5
5/15/2023 1:15:00 PM 19.17 66.506 8.16 11.56 -5
5/15/2023 1:30:00 PM 18.91 66.038 8.12 11.51 -5
5/15/2023 1:45:00 PM 19.17 66.506 8.17 11.54 -5
5/15/2023 2:00:00 PM 19.29 66.722 8.28 11.73 -5
5/15/2023 2:15:00 PM 19.17 66.506 8.2 11.55 -5
5/15/2023 2:30:00 PM 19.41 66.938 8.19 11.51 -5
5/15/2023 2:45:00 PM 19.29 66.722 8.36 12.01 -5
5/15/2023 3:00:00 PM 19.54 67.172 8.41 11.77 -5
5/15/2023 3:15:00 PM 19.67 67.406 8.26 11.72 -5
5/15/2023 3:30:00 PM 19.54 67.172 8.46 11.64 -5
5/15/2023 3:45:00 PM 19.92 67.856 8.19 11.59 -5
5/15/2023 4:00:00 PM 19.78 67.604 8.41 11.62 -5
5/15/2023 4:15:00 PM 19.92 67.856 8.25 11.6 -5
5/15/2023 4:30:00 PM 19.92 67.856 8.08 11.46 -5
5/15/2023 4:45:00 PM 19.92 67.856 8.31 11.47 -5
5/15/2023 5:00:00 PM 20.15 68.27 8.36 11.44 -5
5/15/2023 5:15:00 PM 20.04 68.07201 8.1 11.43 -5
5/15/2023 5:30:00 PM 20.3 68.54 8.3 11.41 -5
5/15/2023 5:45:00 PM 20.15 68.27 8.38 11.29 -5
5/15/2023 6:00:00 PM 20.15 68.27 7.9 11.47 -5
5/15/2023 6:15:00 PM 20.41 68.738 7.83 11.52 -5
5/15/2023 6:30:00 PM 20.15 68.27 7.83 11.23 -5
5/15/2023 6:45:00 PM 20.41 68.738 7.88 11.19 -5
5/15/2023 7:00:00 PM 20.3 68.54 7.99 11.26 -5
5/15/2023 7:15:00 PM 20.29 68.522 7.89 12.23 -5
5/15/2023 7:30:00 PM 20.3 68.54 7.95 11.23 -5
5/15/2023 7:45:00 PM 20.15 68.27 7.91 11.04 -5
5/15/2023 8:00:00 PM 20.41 68.738 8.91 11.13 -5
5/15/2023 8:15:00 PM 20.15 68.27 9.04 11.23 -5
5/15/2023 8:30:00 PM 20.15 68.27 9.09 10.94 -5
5/15/2023 8:45:00 PM 20.3 68.54 9.11 11.01 -5
5/15/2023 9:00:00 PM 20.04 68.07201 9.13 10.94 -5
5/15/2023 9:15:00 PM 20.3 68.54 9.12 10.73 -5
5/15/2023 9:30:00 PM 20.04 68.07201 9.14 10.79 -5
5/15/2023 9:45:00 PM 20.04 68.07201 9.13 10.77 -5
5/15/2023 10:00:00 PM 20.15 68.27 9.12 10.57 -5
5/15/2023 10:15:00 PM 19.92 67.856 9.09 10.76 -5
5/15/2023 10:30:00 PM 19.92 67.856 9.09 10.42 -5
5/15/2023 10:45:00 PM 19.92 67.856 9.07 10.37 -5
5/15/2023 11:00:00 PM 19.78 67.604 9.07 10.32 -5
5/15/2023 11:15:00 PM 20.04 68.07201 9.05 10.31 -5
5/15/2023 11:30:00 PM 19.78 67.604 9.05 10.16 -5
5/15/2023 11:45:00 PM 19.78 67.604 9.04 10.1 -5
5/16/2023 12:00:00 AM 19.92 67.856 9.02 9.96 -5
5/16/2023 12:15:00 AM 19.67 67.406 9.01 10.14 -5
5/16/2023 12:30:00 AM 19.78 67.604 9.02 9.74 -5
5/16/2023 12:45:00 AM 19.67 67.406 9.01 9.67 -5
5/16/2023 1:00:00 AM 19.54 67.172 8.96 9.63 -5
5/16/2023 1:15:00 AM 19.78 67.604 8.87 9.68 -5
5/16/2023 1:30:00 AM 19.54 67.172 8.9 9.53 -5
5/16/2023 1:45:00 AM 19.54 67.172 8.88 9.63 -5
5/16/2023 2:00:00 AM 19.67 67.406 8.87 9.64 -5
5/16/2023 2:15:00 AM 19.41 66.938 8.61 9.61 -5
5/16/2023 2:30:00 AM 19.41 66.938 8.55 9.64 -5
5/16/2023 2:45:00 AM 19.67 67.406 8.54 9.68 -5
5/16/2023 3:00:00 AM 19.17 66.506 8.58 9.7 -5
5/16/2023 3:15:00 AM 19.41 66.938 8.51 9.65 -5
5/16/2023 3:30:00 AM 19.41 66.938 8.42 9.64 -5
5/16/2023 3:45:00 AM 19.17 66.506 8.39 9.92 -5
5/16/2023 4:00:00 AM 19.4 66.92 8.24 10.13 -5
5/16/2023 4:15:00 AM 19.29 66.722 8.39 10.15 -5
5/16/2023 4:30:00 AM 19.17 66.506 8.41 9.91 -5
5/16/2023 4:45:00 AM 19.41 66.938 8.32 9.85 -5
5/16/2023 5:00:00 AM 19.17 66.506 8.34 9.85 -5
5/16/2023 5:15:00 AM 19.17 66.506 8.44 9.95 -5
5/16/2023 5:30:00 AM 19.29 66.722 8.39 9.97 -5
5/16/2023 5:45:00 AM 19.03 66.254 8.39 10.14 -5
5/16/2023 6:00:00 AM 19.03 66.254 8.34 10.09 -5
5/16/2023 6:15:00 AM 19.29 66.722 8.31 10.1 -5
5/16/2023 6:30:00 AM 19.03 66.254 8.21 9.98 -5
5/16/2023 6:45:00 AM 18.91 66.038 8.22 10.01 -5
5/16/2023 7:00:00 AM 19.17 66.506 8.02 9.92 -5
5/16/2023 7:15:00 AM 19.17 66.506 8.27 9.54 -5
5/16/2023 7:30:00 AM 18.91 66.038 8.28 9.53 -5
5/16/2023 7:45:00 AM 19.17 66.506 8.15 9.53 -5
5/16/2023 8:00:00 AM 19.16 66.488 8.33 9.63 -5
5/16/2023 8:15:00 AM 18.84 65.912 8.16 9.52 -5
5/16/2023 8:30:00 AM 19.03 66.254 8.24 9.47 -5
5/16/2023 8:45:00 AM 19.03 66.254 8.12 9.19 -5
5/16/2023 9:00:00 AM 18.91 66.038 8.24 9.27 -5
5/16/2023 9:15:00 AM 19.17 66.506 8.17 9.25 -5
5/16/2023 9:30:00 AM 18.91 66.038 8.32 9.21 -5
5/16/2023 9:45:00 AM 19.03 66.254 8.17 9.24 -5
5/16/2023 10:00:00 AM 19.29 66.722 8.15 9.38 -5
5/16/2023 10:15:00 AM 19.03 66.254 8.1 9.42 -5
5/16/2023 10:30:00 AM 19.17 66.506 8.49 9.38 -5
5/16/2023 10:45:00 AM 19.54 67.172 8.55 9.5 -5
5/16/2023 11:00:00 AM 19.17 66.506 8.57 9.47 -5
5/16/2023 11:15:00 AM 19.41 66.938 8.61 9.45 -5
5/16/2023 11:30:00 AM 19.54 67.172 8.55 9.42 -5
5/16/2023 11:45:00 AM 19.29 66.722 8.65 9.48 -5
5/16/2023 12:00:00 PM 19.54 67.172 8.7 9.68 -5
5/16/2023 12:15:00 PM 19.54 67.172 8.7 9.62 -5
5/16/2023 12:30:00 PM 19.54 67.172 8.68 9.71 -5
5/16/2023 12:45:00 PM 19.78 67.604 8.68 9.78 -5
5/16/2023 1:00:00 PM 19.67 67.406 8.72 9.85 -5
5/16/2023 1:15:00 PM 19.78 67.604 8.68 9.95 -5
5/16/2023 1:30:00 PM 20.04 68.07201 8.72 10.06 -5
5/16/2023 1:45:00 PM 19.78 67.604 8.74 10.08 -5
5/16/2023 2:00:00 PM 20.04 68.07201 8.7 10.14 -5
5/16/2023 2:15:00 PM 20.04 68.07201 8.74 10.07 -5
5/16/2023 2:30:00 PM 20.04 68.07201 8.73 10.02 -5
5/16/2023 2:45:00 PM 20.29 68.522 8.69 10.09 -5
5/16/2023 3:00:00 PM 20.04 68.07201 8.73 10.14 -5
5/16/2023 3:15:00 PM 20.3 68.54 8.76 10.1 -5
5/16/2023 3:30:00 PM 20.29 68.522 8.79 10.08 -5
5/16/2023 3:45:00 PM 20.15 68.27 8.81 10.08 -5
5/16/2023 4:00:00 PM 20.41 68.738 8.78 10.26 -5
5/16/2023 4:15:00 PM 20.3 68.54 8.77 10.12 -5
5/16/2023 4:30:00 PM 20.41 68.738 8.78 10.14 -5
5/16/2023 4:45:00 PM 20.67 69.206 8.85 10.23 -5
5/16/2023 5:00:00 PM 20.3 68.54 8.84 10.32 -5
5/16/2023 5:15:00 PM 20.52 68.936 8.87 10.45 -5
5/16/2023 5:30:00 PM 20.52 68.936 8.88 10.35 -5
5/16/2023 5:45:00 PM 20.41 68.738 8.91 10.35 -5
5/16/2023 6:00:00 PM 20.78 69.404 8.91 10.53 -5
5/16/2023 6:15:00 PM 20.52 68.936 8.94 10.26 -5
5/16/2023 6:30:00 PM 20.52 68.936 8.93 10.19 -5
5/16/2023 6:45:00 PM 20.78 69.404 8.94 10.18 -5
5/16/2023 7:00:00 PM 20.52 68.936 8.95 10.29 -5
5/16/2023 7:15:00 PM 20.52 68.936 8.95 10.28 -5
5/16/2023 7:30:00 PM 20.91 69.638 8.95 10.33 -5
5/16/2023 7:45:00 PM 20.52 68.936 8.96 10.26 -5
5/16/2023 8:00:00 PM 20.41 68.738 8.97 10.09 -5
5/16/2023 8:15:00 PM 20.84 69.512 8.96 10.08 -5
5/16/2023 8:30:00 PM 20.67 69.206 8.96 9.97 -5
5/16/2023 8:45:00 PM 20.41 68.738 8.96 9.96 -5
5/16/2023 9:00:00 PM 20.78 69.404 8.93 9.95 -5
5/16/2023 9:15:00 PM 20.67 69.206 8.95 9.85 -5
5/16/2023 9:30:00 PM 20.41 68.738 8.95 9.8 -5
5/16/2023 9:45:00 PM 20.78 69.404 8.96 9.83 -5
5/16/2023 10:00:00 PM 20.52 68.936 8.95 9.99 -5
5/16/2023 10:15:00 PM 20.3 68.54 8.94 9.81 -5
5/16/2023 10:30:00 PM 20.67 69.206 8.93 9.77 -5
5/16/2023 10:45:00 PM 20.41 68.738 8.93 9.73 -5
5/16/2023 11:00:00 PM 20.41 68.738 8.9 9.67 -5
5/16/2023 11:15:00 PM 20.67 69.206 8.9 9.66 -5
5/16/2023 11:30:00 PM 20.29 68.522 8.9 9.61 -5
5/16/2023 11:45:00 PM 20.52 68.936 8.89 9.54 -5
5/17/2023 12:00:00 AM 20.41 68.738 8.86 9.61 -5
5/17/2023 12:15:00 AM 20.29 68.522 8.85 9.46 -5
5/17/2023 12:30:00 AM 20.52 68.936 8.86 9.56 -5
5/17/2023 12:45:00 AM 20.15 68.27 8.85 9.52 -5
5/17/2023 1:00:00 AM 20.41 68.738 8.85 9.55 -5
5/17/2023 1:15:00 AM 20.3 68.54 8.85 9.6 -5
5/17/2023 1:30:00 AM 20.15 68.27 8.84 9.4 -5
5/17/2023 1:45:00 AM 20.49 68.882 8.82 9.41 -5
5/17/2023 2:00:00 AM 20.03 68.054 8.84 9.53 -5
5/17/2023 2:15:00 AM 20.3 68.54 8.84 9.51 -5
5/17/2023 2:30:00 AM 20.15 68.27 8.82 9.57 -5
5/17/2023 2:45:00 AM 20.04 68.07201 8.81 9.72 -5
5/17/2023 3:00:00 AM 20.3 68.54 8.79 9.71 -5
5/17/2023 3:15:00 AM 19.92 67.856 8.75 9.81 -5
5/17/2023 3:30:00 AM 20.04 68.07201 8.73 9.62 -5
5/17/2023 3:45:00 AM 20.04 68.07201 8.71 9.76 -5
5/17/2023 4:00:00 AM 19.78 67.604 8.65 9.85 -5
5/17/2023 4:15:00 AM 20.15 68.27 8.5 9.72 -5
5/17/2023 4:30:00 AM 19.78 67.604 8.3 9.73 -5
5/17/2023 4:45:00 AM 19.78 67.604 8.3 9.67 -5
5/17/2023 5:00:00 AM 20.04 68.07201 8.34 9.79 -5
5/17/2023 5:15:00 AM 19.54 67.172 8.26 9.68 -5
5/17/2023 5:30:00 AM 19.78 67.604 8.11 9.82 -5
5/17/2023 5:45:00 AM 19.78 67.604 7.91 10.02 -5
5/17/2023 6:00:00 AM 19.54 67.172 7.93 10.19 -5
5/17/2023 6:15:00 AM 19.78 67.604 7.8 10.02 -5
5/17/2023 6:30:00 AM 19.67 67.406 7.8 10.13 -5
5/17/2023 6:45:00 AM 19.41 66.938 7.84 9.99 -5
5/17/2023 7:00:00 AM 19.67 67.406 7.79 10.08 -5
5/17/2023 7:15:00 AM 19.29 66.722 8.02 9.49 -5
5/17/2023 7:30:00 AM 19.17 66.506 8.29 9.29 -5
5/17/2023 7:45:00 AM 19.41 66.938 8.25 9.17 -5
5/17/2023 8:00:00 AM 19.03 66.254 8.16 9.11 -5
5/17/2023 8:15:00 AM 19.17 66.506 8.07 8.89 -5
5/17/2023 8:30:00 AM 19.41 66.938 7.94 8.86 -5
5/17/2023 8:45:00 AM 18.91 66.038 7.99 8.91 -5
5/17/2023 9:00:00 AM 19.29 66.722 7.87 9.08 -5
5/17/2023 9:15:00 AM 19.41 66.938 7.85 8.97 -5
5/17/2023 9:30:00 AM 18.91 66.038 7.79 9 -5
5/17/2023 9:45:00 AM 19.29 66.722 7.79 9.02 -5
5/17/2023 10:00:00 AM 19.29 66.722 7.76 9.01 -5
5/17/2023 10:15:00 AM 19.03 66.254 7.97 9.09 -5
5/17/2023 10:30:00 AM 19.41 66.938 8.1 9.09 -5
5/17/2023 10:45:00 AM 19.41 66.938 8.16 9.18 -5
5/17/2023 11:00:00 AM 19.03 66.254 7.96 9.17 -5
5/17/2023 11:15:00 AM 19.41 66.938 7.72 9.13 -5
5/17/2023 11:30:00 AM 19.29 66.722 7.89 9.19 -5
5/17/2023 11:45:00 AM 19.29 66.722 7.71 9.23 -5
5/17/2023 12:00:00 PM 19.67 67.406 7.71 9.15 -5
5/17/2023 12:15:00 PM 19.54 67.172 7.68 9.24 -5
5/17/2023 12:30:00 PM 19.54 67.172 7.71 9.22 -5
5/17/2023 12:45:00 PM 19.92 67.856 7.69 9.33 -5
5/17/2023 1:00:00 PM 19.67 67.406 7.66 9.34 -5
5/17/2023 1:15:00 PM 19.78 67.604 7.65 9.32 -5
5/17/2023 1:30:00 PM 20.04 68.07201 7.66 9.37 -5
5/17/2023 1:45:00 PM 19.67 67.406 7.72 9.51 -5
5/17/2023 2:00:00 PM 20.04 68.07201 7.7 9.51 -5
5/17/2023 2:15:00 PM 20.3 68.54 7.67 9.56 -5
5/17/2023 2:30:00 PM 19.92 67.856 7.88 9.58 -5
5/17/2023 2:45:00 PM 20.3 68.54 7.94 9.64 -5
5/17/2023 3:00:00 PM 20.04 68.07201 8.36 9.61 -5
5/17/2023 3:15:00 PM 20.15 68.27 8.6 9.62 -5
5/17/2023 3:30:00 PM 20.41 68.738 8.66 9.75 -5
5/17/2023 3:45:00 PM 20.03 68.054 8.71 9.86 -5
5/17/2023 4:00:00 PM 20.52 68.936 8.73 9.77 -5
5/17/2023 4:15:00 PM 20.3 68.54 8.79 9.71 -5
5/17/2023 4:30:00 PM 20.52 68.936 8.83 9.77 -5
5/17/2023 4:45:00 PM 20.78 69.404 8.85 9.81 -5
5/17/2023 5:00:00 PM 20.41 68.738 8.86 9.85 -5
5/17/2023 5:15:00 PM 20.78 69.404 8.89 9.72 -5
5/17/2023 5:30:00 PM 20.41 68.738 8.9 9.72 -5
5/17/2023 5:45:00 PM 20.78 69.404 8.92 9.73 -5
5/17/2023 6:00:00 PM 20.67 69.206 8.93 9.4 -5
5/17/2023 6:15:00 PM 20.52 68.936 8.92 9.45 -5
5/17/2023 6:30:00 PM 20.91 69.638 8.94 9.37 -5
5/17/2023 6:45:00 PM 20.41 68.738 8.95 9.44 -5
5/17/2023 7:00:00 PM 20.78 69.404 8.95 9.39 -5
5/17/2023 7:15:00 PM 20.29 68.522 8.95 9.34 -5
5/17/2023 7:30:00 PM 20.52 68.936 8.94 9.63 -5
5/17/2023 7:45:00 PM 20.52 68.936 8.96 9.77 -5
5/17/2023 8:00:00 PM 20.29 68.522 8.93 9.73 -5
5/17/2023 8:15:00 PM 20.78 69.404 8.95 9.61 -5
5/17/2023 8:30:00 PM 20.15 68.27 8.99 9.56 -5
5/17/2023 8:45:00 PM 20.52 68.936 9 9.54 -5
5/17/2023 9:00:00 PM 20.29 68.522 9 9.49 -5
5/17/2023 9:15:00 PM 20.29 68.522 9 9.48 -5
5/17/2023 9:30:00 PM 20.52 68.936 8.96 9.43 -5
5/17/2023 9:45:00 PM 20.04 68.07201 8.99 9.4 -5
5/17/2023 10:00:00 PM 20.41 68.738 8.98 10 -5
5/17/2023 10:15:00 PM 20.15 68.27 8.95 9.9 -5
5/17/2023 10:30:00 PM 20.15 68.27 8.99 9.69 -5
5/17/2023 10:45:00 PM 20.52 68.936 8.98 9.58 -5
5/17/2023 11:00:00 PM 19.92 67.856 8.99 9.54 -5
5/17/2023 11:15:00 PM 20.3 68.54 9.02 9.43 -5
5/17/2023 11:30:00 PM 20.3 68.54 9.02 9.3 -5
5/17/2023 11:45:00 PM 19.78 67.604 8.41 9.27 -5
5/18/2023 12:00:00 AM 20.3 68.54 8.27 9.3 -5
5/18/2023 12:15:00 AM 20.04 68.07201 8.41 9.15 -5
5/18/2023 12:30:00 AM 19.78 67.604 8.33 9.14 -5
5/18/2023 12:45:00 AM 20.15 68.27 8.56 9.16 -5
5/18/2023 1:00:00 AM 19.78 67.604 8.44 9.19 -5
5/18/2023 1:15:00 AM 19.78 67.604 8.49 9.03 -5
5/18/2023 1:30:00 AM 20.15 68.27 8.72 8.97 -5
5/18/2023 1:45:00 AM 19.54 67.172 8.7 8.98 -5
5/18/2023 2:00:00 AM 19.78 67.604 8.66 9.15 -5
5/18/2023 2:15:00 AM 20.04 68.07201 8.39 9.18 -5
5/18/2023 2:30:00 AM 19.54 67.172 8.53 9.12 -5
5/18/2023 2:45:00 AM 19.54 67.172 8.59 9.21 -5
5/18/2023 3:00:00 AM 19.78 67.604 8.59 9.37 -5
5/18/2023 3:15:00 AM 19.67 67.406 8.6 9.25 -5
5/18/2023 3:30:00 AM 19.17 66.506 8.55 9.16 -5
5/18/2023 3:45:00 AM 19.54 67.172 8.53 9.11 -5
5/18/2023 4:00:00 AM 19.78 67.604 8.44 9.18 -5
5/18/2023 4:15:00 AM 19.29 66.722 8.4 9.12 -5
5/18/2023 4:30:00 AM 19.17 66.506 8.37 9.17 -5
5/18/2023 4:45:00 AM 19.41 66.938 8.38 9.25 -5
5/18/2023 5:00:00 AM 19.54 67.172 8.43 9.29 -5
5/18/2023 5:15:00 AM 18.91 66.038 8.43 9.21 -5
5/18/2023 5:30:00 AM 19.03 66.254 8.41 9.31 -5
5/18/2023 5:45:00 AM 19.29 66.722 8.37 9.34 -5
5/18/2023 6:00:00 AM 19.41 66.938 8.25 9.35 -5
5/18/2023 6:15:00 AM 19.29 66.722 8.23 9.37 -5
5/18/2023 6:30:00 AM 18.78 65.804 8.18 9.41 -5
5/18/2023 6:45:00 AM 19.17 66.506 8.08 9.34 -5
5/18/2023 7:00:00 AM 19.17 66.506 8.03 9.37 -5
5/18/2023 7:15:00 AM 19.17 66.506 7.92 7.69 -5
5/18/2023 7:30:00 AM 19.03 66.254 8.19 7.64 -5
5/18/2023 7:45:00 AM 19.03 66.254 8.18 7.84 -5
5/18/2023 8:00:00 AM 19.03 66.254 8.26 7.57 -5
5/18/2023 8:15:00 AM 19.04 66.272 8.29 7.51 -5
5/18/2023 8:30:00 AM 19.04 66.272 8.31 7.5 -5
5/18/2023 8:45:00 AM 19.04 66.272 8.32 7.56 -5
5/18/2023 9:00:00 AM 18.63 65.534 8.34 7.66 -5
5/18/2023 9:15:00 AM 18.63 65.534 8.34 7.57 -5
5/18/2023 9:30:00 AM 18.78 65.804 8.38 7.67 -5
5/18/2023 9:45:00 AM 18.78 65.804 8.4 7.64 -5
5/18/2023 10:00:00 AM 18.91 66.038 8.37 7.6 -5
5/18/2023 10:15:00 AM 18.91 66.038 8.37 7.61 -5
5/18/2023 10:30:00 AM 18.91 66.038 8.39 7.67 -5
5/18/2023 10:45:00 AM 18.41 65.138 8.42 7.81 -5
5/18/2023 11:00:00 AM 18.78 65.804 8.46 7.74 -5
5/18/2023 11:15:00 AM 19.17 66.506 8.39 39.18 -5
5/18/2023 11:30:00 AM 19.78 67.604 8.4 9.97 -5
5/18/2023 11:45:00 AM 20.04 68.07201 8.65 8.8 -5
5/18/2023 12:00:00 PM 19.17 66.506 8.7 8.69 -5
5/18/2023 12:15:00 PM 19.67 67.406 8.7 8.61 -5
5/18/2023 12:30:00 PM 20.04 68.07201 8.69 8.67 -5
5/18/2023 12:45:00 PM 20.3 68.54 8.72 8.74 -5
5/18/2023 1:00:00 PM 19.41 66.938 8.7 8.61 -5
5/18/2023 1:15:00 PM 19.92 67.856 8.68 8.75 -5
5/18/2023 1:30:00 PM 20.3 68.54 8.6 8.73 -5
5/18/2023 1:45:00 PM 20.04 68.07201 8.61 9.25 -5
5/18/2023 2:00:00 PM 19.67 67.406 8.57 9.24 -5
5/18/2023 2:15:00 PM 20.3 68.54 8.56 9.11 -5
5/18/2023 2:30:00 PM 20.41 68.738 8.54 9.42 -5
5/18/2023 2:45:00 PM 19.78 67.604 8.54 9.49 -5
5/18/2023 3:00:00 PM 20.41 68.738 8.52 9.35 -5
5/18/2023 3:15:00 PM 20.29 68.522 8.48 9.19 -5
5/18/2023 3:30:00 PM 20.04 68.07201 8.57 9.28 -5
5/18/2023 3:45:00 PM 20.67 69.206 8.55 9.33 -5
5/18/2023 4:00:00 PM 20.04 68.07201 8.56 9.25 -5
5/18/2023 4:15:00 PM 20.29 68.522 8.58 9.31 -5
5/18/2023 4:30:00 PM 20.78 69.404 8.56 9.23 -5
5/18/2023 4:45:00 PM 19.92 67.856 8.46 9.13 -5
5/18/2023 5:00:00 PM 20.52 68.936 8.44 8.96 -5
5/18/2023 5:15:00 PM 20.41 68.738 8.43 8.93 -5
5/18/2023 5:30:00 PM 20.15 68.27 8.43 8.87 -5
5/18/2023 5:45:00 PM 20.78 69.404 8.43 8.92 -5
5/18/2023 6:00:00 PM 20.04 68.07201 8.42 8.86 -5
5/18/2023 6:15:00 PM 20.52 68.936 8.42 8.79 -5
5/18/2023 6:30:00 PM 20.52 68.936 8.43 8.94 -5
5/18/2023 6:45:00 PM 20.15 68.27 8.49 9.24 -5
5/18/2023 7:00:00 PM 20.91 69.638 8.48 9.41 -5

These are provisional data and have not been subject to a quality assurance process, but rather are the raw data reported by the instrument.
H: value is above sensor operating range
L: value is below sensor operating range
Offline: station is not reporting data
NC: parameter is not collected at site

Data Availability & Limitations

Uncertainty and potential for error can be associated with environmental monitoring data. Provisional data have not been subject to a quality assurance process, but rather are the raw data reported by the instrument. Data users are cautioned to consider carefully the provisional nature of the information before using it for decisions that concern personal or public safety or the conduct of business that involves substantial monetary or operational consequences.

Approved data are currently available by request by emailing: [email protected]. Approved data have been subject to a quality assurance process to correct for equipment or fouling drift. Data recorded during equipment malfunctions have been removed.

View Historical Stations that have been discontinued.